Darstellungsparameter: Aktuell verwendete Einstellungen:
Skalierung der Graphiken ... ?
xyx+y,   Skalierungsfaktor:      Skalierung: Modus: x, Faktor: 1
Darstellungszeitraum ... ?
Vom - - bis: - -   Zeitraum: 01.07.2016 - 31.07.2016
Min/Max/Avg-Anzeige ... ?
Zeige MMA aktuell
Zeige MMA Monat
Zeige MMA alles
Zeige --A aktuell
Zeige --A Monat
Zeige --A alles
Keine MMA-Anzeige
MMA:
Minimum Maximum Average (ber die Originaldaten)
MMA-Basis: 01.07.2016 - 31.07.2016
Quicknavigation für Darstellung... ?
Tage:      1T, 2T, 3T, 5T -1T -2T -3T -5T +1T +2T +3T +5T
Wochen: 1W, 2W, 3W -1W -2W -3W +1W +2W +3W
Monate: 1M, 3M, 6M -1M -3M -6M +1M +3M +6M
Jahre:    1J, 3J, 5J, 10J -1J -3J -5J -10J +1J +3J +5J +10J
Nutze für die Darstellung ... ?
Originaldaten oder Mittelwerte auf ...
Stundenbasis Tagesbasis Wochenbasis
Monatsbasis Jahresbasis      Datenbasis: Original-Daten
Darstellen als:
Statistik (Auto) Statistik J:M      Darstellung:
Zur Graphik,    zurück zur Übersicht aller Sensoren.
 
Tabellarische Datenbersicht: ?
 
Sensor: Nr:Datum:Temp:Feuchte:Taupunkt:
Aussen-T/F 1 01-07-2016 00:00:00 16.8 C 91 % 15.32 C
2 01-07-2016 00:05:00 16.8 C 91 % 15.32 C
3 01-07-2016 00:10:00 16.8 C 92 % 15.49 C
4 01-07-2016 00:15:00 16.9 C 92 % 15.59 C
5 01-07-2016 00:20:00 16.9 C 92 % 15.59 C
6 01-07-2016 00:25:00 16.9 C 92 % 15.59 C
7 01-07-2016 00:30:00 16.9 C 92 % 15.59 C
8 01-07-2016 00:35:00 16.9 C 92 % 15.59 C
9 01-07-2016 00:40:00 16.8 C 92 % 15.49 C
10 01-07-2016 00:45:00 16.8 C 92 % 15.49 C
11 01-07-2016 00:50:00 16.7 C 91 % 15.22 C
12 01-07-2016 00:55:00 16.7 C 92 % 15.39 C
13 01-07-2016 01:00:00 16.8 C 92 % 15.49 C
14 01-07-2016 01:05:00 16.8 C 92 % 15.49 C
15 01-07-2016 01:10:00 16.8 C 92 % 15.49 C
16 01-07-2016 01:15:00 16.8 C 92 % 15.49 C
17 01-07-2016 01:20:00 16.9 C 92 % 15.59 C
18 01-07-2016 01:25:00 16.9 C 92 % 15.59 C
19 01-07-2016 01:30:00 16.9 C 92 % 15.59 C
20 01-07-2016 01:35:00 16.9 C 92 % 15.59 C
21 01-07-2016 01:40:00 16.9 C 92 % 15.59 C
22 01-07-2016 01:45:00 16.9 C 92 % 15.59 C
23 01-07-2016 01:50:00 16.9 C 92 % 15.59 C
24 01-07-2016 01:55:00 16.9 C 92 % 15.59 C
25 01-07-2016 02:00:00 16.9 C 92 % 15.59 C
Sensor: Nr:Datum:Temp:Feuchte:Taupunkt:
Aussen-T/F 26 01-07-2016 02:05:00 16.9 C 92 % 15.59 C
27 01-07-2016 02:10:00 16.9 C 92 % 15.59 C
28 01-07-2016 02:15:00 17 C 92 % 15.69 C
29 01-07-2016 02:20:00 17 C 92 % 15.69 C
30 01-07-2016 02:25:00 17 C 92 % 15.69 C
31 01-07-2016 02:30:00 17.1 C 92 % 15.79 C
32 01-07-2016 02:35:00 17.1 C 92 % 15.79 C
33 01-07-2016 02:40:00 17 C 92 % 15.69 C
34 01-07-2016 02:45:00 17 C 92 % 15.69 C
35 01-07-2016 02:50:00 17 C 92 % 15.69 C
36 01-07-2016 02:55:00 16.9 C 92 % 15.59 C
37 01-07-2016 03:00:00 16.9 C 92 % 15.59 C
38 01-07-2016 03:05:00 16.9 C 92 % 15.59 C
39 01-07-2016 03:10:00 16.8 C 92 % 15.49 C
40 01-07-2016 03:15:00 16.8 C 92 % 15.49 C
41 01-07-2016 03:20:00 16.7 C 92 % 15.39 C
42 01-07-2016 03:25:00 16.6 C 92 % 15.3 C
43 01-07-2016 03:30:00 16.6 C 92 % 15.3 C
44 01-07-2016 03:35:00 16.5 C 92 % 15.2 C
45 01-07-2016 03:40:00 16.5 C 93 % 15.36 C
46 01-07-2016 03:45:00 16.5 C 93 % 15.36 C
47 01-07-2016 03:50:00 16.5 C 93 % 15.36 C
48 01-07-2016 03:55:00 16.6 C 93 % 15.46 C
49 01-07-2016 04:00:00 16.6 C 93 % 15.46 C
50 01-07-2016 04:05:00 16.6 C 93 % 15.46 C
Sensor: Nr:Datum:Temp:Feuchte:Taupunkt:
Aussen-T/F 51 01-07-2016 04:10:00 16.6 C 93 % 15.46 C
52 01-07-2016 04:15:00 16.6 C 93 % 15.46 C
53 01-07-2016 04:20:00 16.5 C 93 % 15.36 C
54 01-07-2016 04:25:00 16.5 C 93 % 15.36 C
55 01-07-2016 04:30:00 16.5 C 93 % 15.36 C
56 01-07-2016 04:35:00 16.6 C 93 % 15.46 C
57 01-07-2016 04:40:00 16.6 C 93 % 15.46 C
58 01-07-2016 04:45:00 16.5 C 93 % 15.36 C
59 01-07-2016 04:50:00 16.5 C 93 % 15.36 C
60 01-07-2016 04:55:00 16.5 C 94 % 15.53 C
61 01-07-2016 05:00:00 16.6 C 94 % 15.63 C
62 01-07-2016 05:05:00 16.6 C 94 % 15.63 C
63 01-07-2016 05:10:00 16.7 C 94 % 15.73 C
64 01-07-2016 05:15:00 16.7 C 94 % 15.73 C
65 01-07-2016 05:20:00 16.8 C 94 % 15.83 C
66 01-07-2016 05:25:00 16.8 C 93 % 15.66 C
67 01-07-2016 05:30:00 16.8 C 93 % 15.66 C
68 01-07-2016 05:35:00 16.9 C 93 % 15.76 C
69 01-07-2016 05:40:00 16.9 C 92 % 15.59 C
70 01-07-2016 05:45:00 17 C 92 % 15.69 C
71 01-07-2016 05:50:00 17 C 92 % 15.69 C
72 01-07-2016 05:55:00 17 C 92 % 15.69 C
73 01-07-2016 06:00:00 17.1 C 92 % 15.79 C
74 01-07-2016 06:05:00 17.2 C 92 % 15.89 C
75 01-07-2016 06:10:00 17.4 C 91 % 15.92 C
Sensor: Nr:Datum:Temp:Feuchte:Taupunkt:
Aussen-T/F 76 01-07-2016 06:15:00 17.6 C 91 % 16.11 C
77 01-07-2016 06:20:00 17.7 C 90 % 16.04 C
78 01-07-2016 06:25:00 17.8 C 90 % 16.14 C
79 01-07-2016 06:30:00 17.8 C 89 % 15.96 C
80 01-07-2016 06:35:00 17.9 C 88 % 15.88 C
81 01-07-2016 06:40:00 18.1 C 89 % 16.26 C
82 01-07-2016 06:45:00 18.1 C 88 % 16.08 C
83 01-07-2016 06:50:00 18.2 C 88 % 16.18 C
84 01-07-2016 06:55:00 18.2 C 88 % 16.18 C
85 01-07-2016 07:00:00 18.3 C 88 % 16.28 C
86 01-07-2016 07:05:00 18.3 C 88 % 16.28 C
87 01-07-2016 07:10:00 18.3 C 88 % 16.28 C
88 01-07-2016 07:15:00 18.4 C 88 % 16.38 C
89 01-07-2016 07:20:00 18.4 C 88 % 16.38 C
90 01-07-2016 07:25:00 18.3 C 87 % 16.1 C
91 01-07-2016 07:30:00 18.4 C 88 % 16.38 C
92 01-07-2016 07:35:00 18.5 C 88 % 16.48 C
93 01-07-2016 07:40:00 18.6 C 87 % 16.39 C
94 01-07-2016 07:45:00 18.6 C 86 % 16.21 C
95 01-07-2016 07:50:00 18.7 C 87 % 16.49 C
96 01-07-2016 07:55:00 18.7 C 86 % 16.31 C
97 01-07-2016 08:00:00 18.7 C 87 % 16.49 C
98 01-07-2016 08:05:00 18.8 C 87 % 16.59 C
99 01-07-2016 08:10:00 18.8 C 87 % 16.59 C
100 01-07-2016 08:15:00 18.9 C 86 % 16.51 C
Sensor: Nr:Datum:Temp:Feuchte:Taupunkt:
Aussen-T/F 101 01-07-2016 08:20:00 19.1 C 86 % 16.7 C
102 01-07-2016 08:25:00 19.3 C 86 % 16.9 C
103 01-07-2016 08:30:00 19.4 C 85 % 16.81 C
104 01-07-2016 08:35:00 19.6 C 86 % 17.19 C
105 01-07-2016 08:40:00 19.6 C 84 % 16.82 C
106 01-07-2016 08:45:00 19.6 C 85 % 17.01 C
107 01-07-2016 08:50:00 19.6 C 86 % 17.19 C
108 01-07-2016 08:55:00 19.6 C 87 % 17.38 C
109 01-07-2016 09:00:00 19.5 C 87 % 17.28 C
110 01-07-2016 09:05:00 19.5 C 86 % 17.1 C
111 01-07-2016 09:10:00 19.6 C 88 % 17.56 C
112 01-07-2016 09:15:00 19.6 C 85 % 17.01 C
113 01-07-2016 09:20:00 19.7 C 86 % 17.29 C
114 01-07-2016 09:25:00 19.7 C 84 % 16.92 C
115 01-07-2016 09:30:00 19.8 C 84 % 17.02 C
116 01-07-2016 09:35:00 20.1 C 83 % 17.12 C
117 01-07-2016 09:40:00 20.2 C 83 % 17.22 C
118 01-07-2016 09:45:00 20.4 C 83 % 17.42 C
119 01-07-2016 09:50:00 20.6 C 84 % 17.8 C
120 01-07-2016 09:55:00 20.7 C 84 % 17.9 C
121 01-07-2016 10:00:00 20.8 C 80 % 17.22 C
122 01-07-2016 10:05:00 20.8 C 79 % 17.02 C
123 01-07-2016 10:10:00 20.9 C 80 % 17.32 C
124 01-07-2016 10:15:00 20.9 C 79 % 17.12 C
125 01-07-2016 10:20:00 21.1 C 79 % 17.32 C
Sensor: Nr:Datum:Temp:Feuchte:Taupunkt:
Aussen-T/F 126 01-07-2016 10:25:00 21.2 C 80 % 17.61 C
127 01-07-2016 10:30:00 21.3 C 79 % 17.51 C
128 01-07-2016 10:35:00 21.3 C 78 % 17.31 C
129 01-07-2016 10:40:00 21.2 C 77 % 17.01 C
130 01-07-2016 10:45:00 21.3 C 78 % 17.31 C
131 01-07-2016 10:50:00 21.4 C 78 % 17.4 C
132 01-07-2016 10:55:00 21.6 C 78 % 17.6 C
133 01-07-2016 11:00:00 21.7 C 76 % 17.28 C
134 01-07-2016 11:05:00 21.8 C 75 % 17.17 C
135 01-07-2016 11:10:00 21.9 C 74 % 17.06 C
136 01-07-2016 11:15:00 22.1 C 73 % 17.03 C
137 01-07-2016 11:20:00 22.3 C 72 % 17.01 C
138 01-07-2016 11:25:00 22.3 C 72 % 17.01 C
139 01-07-2016 11:30:00 22.4 C 72 % 17.1 C
140 01-07-2016 11:35:00 22.3 C 73 % 17.23 C
141 01-07-2016 11:40:00 22.4 C 74 % 17.54 C
142 01-07-2016 11:45:00 22.2 C 70 % 16.47 C
143 01-07-2016 11:50:00 22.1 C 74 % 17.25 C
144 01-07-2016 11:55:00 22.1 C 74 % 17.25 C
145 01-07-2016 12:00:00 22 C 75 % 17.36 C
146 01-07-2016 12:05:00 22.1 C 73 % 17.03 C
147 01-07-2016 12:10:00 22.1 C 72 % 16.82 C
148 01-07-2016 12:15:00 22.1 C 70 % 16.37 C
149 01-07-2016 12:20:00 22.1 C 70 % 16.37 C
150 01-07-2016 12:25:00 22.1 C 71 % 16.6 C
Sensor: Nr:Datum:Temp:Feuchte:Taupunkt:
Aussen-T/F 151 01-07-2016 12:30:00 22.2 C 70 % 16.47 C
152 01-07-2016 12:35:00 22.2 C 69 % 16.24 C
153 01-07-2016 12:40:00 22.1 C 69 % 16.15 C
154 01-07-2016 12:45:00 22.1 C 68 % 15.92 C
155 01-07-2016 12:50:00 22 C 69 % 16.05 C
156 01-07-2016 12:55:00 21.8 C 70 % 16.09 C
157 01-07-2016 13:00:00 21.8 C 71 % 16.31 C
158 01-07-2016 13:05:00 21.8 C 73 % 16.75 C
159 01-07-2016 13:10:00 21.8 C 73 % 16.75 C
160 01-07-2016 13:15:00 21.9 C 70 % 16.18 C
161 01-07-2016 13:20:00 22.1 C 69 % 16.15 C
162 01-07-2016 13:25:00 22.2 C 70 % 16.47 C
163 01-07-2016 13:30:00 22.2 C 71 % 16.69 C
164 01-07-2016 13:35:00 22.2 C 72 % 16.91 C
165 01-07-2016 13:40:00 22.3 C 70 % 16.56 C
166 01-07-2016 13:45:00 22.4 C 72 % 17.1 C
167 01-07-2016 13:50:00 22.5 C 70 % 16.76 C
168 01-07-2016 13:55:00 22.3 C 70 % 16.56 C
169 01-07-2016 14:00:00 22.2 C 71 % 16.69 C
170 01-07-2016 14:05:00 22.2 C 73 % 17.13 C
171 01-07-2016 14:10:00 22.3 C 70 % 16.56 C
172 01-07-2016 14:15:00 22.4 C 73 % 17.32 C
173 01-07-2016 14:20:00 22.5 C 69 % 16.53 C
174 01-07-2016 14:25:00 22.7 C 68 % 16.49 C
175 01-07-2016 14:30:00 22.7 C 68 % 16.49 C
Sensor: Nr:Datum:Temp:Feuchte:Taupunkt:
Aussen-T/F 176 01-07-2016 14:35:00 22.6 C 67 % 16.16 C
177 01-07-2016 14:40:00 22.7 C 67 % 16.26 C
178 01-07-2016 14:45:00 22.8 C 69 % 16.82 C
179 01-07-2016 14:50:00 22.8 C 68 % 16.59 C
180 01-07-2016 14:55:00 22.8 C 67 % 16.35 C
181 01-07-2016 15:00:00 22.8 C 67 % 16.35 C
182 01-07-2016 15:05:00 22.8 C 65 % 15.88 C
183 01-07-2016 15:10:00 22.7 C 68 % 16.49 C
184 01-07-2016 15:15:00 22.7 C 68 % 16.49 C
185 01-07-2016 15:20:00 22.6 C 67 % 16.16 C
186 01-07-2016 15:25:00 22.4 C 68 % 16.2 C
187 01-07-2016 15:30:00 22.4 C 68 % 16.2 C
188 01-07-2016 15:35:00 22.4 C 69 % 16.43 C
189 01-07-2016 15:40:00 22.5 C 68 % 16.3 C
190 01-07-2016 15:45:00 22.6 C 68 % 16.39 C
191 01-07-2016 15:50:00 22.7 C 67 % 16.26 C
192 01-07-2016 15:55:00 22.9 C 67 % 16.45 C
193 01-07-2016 16:00:00 23.2 C 67 % 16.73 C
194 01-07-2016 16:05:00 23.9 C 67 % 17.4 C
195 01-07-2016 16:10:00 24.3 C 65 % 17.3 C
196 01-07-2016 16:15:00 24.3 C 64 % 17.05 C
197 01-07-2016 16:20:00 24.1 C 63 % 16.62 C
198 01-07-2016 16:25:00 23.9 C 64 % 16.68 C
199 01-07-2016 16:30:00 23.8 C 64 % 16.58 C
200 01-07-2016 16:35:00 23.9 C 66 % 17.16 C
Sensor: Nr:Datum:Temp:Feuchte:Taupunkt:
Aussen-T/F 201 01-07-2016 16:40:00 23.9 C 64 % 16.68 C
202 01-07-2016 16:45:00 24 C 65 % 17.01 C
203 01-07-2016 16:50:00 24.2 C 64 % 16.96 C
204 01-07-2016 16:55:00 24.1 C 64 % 16.86 C
205 01-07-2016 17:00:00 23.8 C 65 % 16.83 C
206 01-07-2016 17:05:00 23.4 C 65 % 16.45 C
207 01-07-2016 17:10:00 23.1 C 68 % 16.87 C
208 01-07-2016 17:15:00 22.9 C 67 % 16.45 C
209 01-07-2016 17:20:00 22.8 C 68 % 16.59 C
210 01-07-2016 17:25:00 22.8 C 70 % 17.04 C
211 01-07-2016 17:30:00 22.7 C 70 % 16.95 C
212 01-07-2016 17:35:00 22.5 C 69 % 16.53 C
213 01-07-2016 17:40:00 22.4 C 71 % 16.88 C
214 01-07-2016 17:45:00 22.3 C 70 % 16.56 C
215 01-07-2016 17:50:00 22.2 C 69 % 16.24 C
216 01-07-2016 17:55:00 22.1 C 70 % 16.37 C
217 01-07-2016 18:00:00 21.8 C 71 % 16.31 C
218 01-07-2016 18:05:00 21.7 C 72 % 16.43 C
219 01-07-2016 18:10:00 21.5 C 73 % 16.46 C
220 01-07-2016 18:15:00 21.4 C 74 % 16.57 C
221 01-07-2016 18:20:00 21.5 C 73 % 16.46 C
222 01-07-2016 18:25:00 21.6 C 76 % 17.19 C
223 01-07-2016 18:30:00 21.5 C 77 % 17.3 C
224 01-07-2016 18:35:00 21.7 C 74 % 16.86 C
225 01-07-2016 18:40:00 22.2 C 73 % 17.13 C
Sensor: Nr:Datum:Temp:Feuchte:Taupunkt:
Aussen-T/F 226 01-07-2016 18:45:00 22.4 C 73 % 17.32 C
227 01-07-2016 18:50:00 22.8 C 70 % 17.04 C
228 01-07-2016 18:55:00 23.1 C 70 % 17.33 C
229 01-07-2016 19:00:00 23.1 C 71 % 17.55 C
230 01-07-2016 19:05:00 23.1 C 73 % 17.99 C
231 01-07-2016 19:10:00 22.9 C 69 % 16.91 C
232 01-07-2016 19:15:00 22.7 C 72 % 17.39 C
233 01-07-2016 19:20:00 22.6 C 73 % 17.51 C
234 01-07-2016 19:25:00 22.4 C 73 % 17.32 C
235 01-07-2016 19:30:00 22.6 C 70 % 16.85 C
236 01-07-2016 19:35:00 22.9 C 70 % 17.14 C
237 01-07-2016 19:40:00 22.9 C 70 % 17.14 C
238 01-07-2016 19:45:00 22.8 C 71 % 17.27 C
239 01-07-2016 19:50:00 22.6 C 70 % 16.85 C
240 01-07-2016 19:55:00 22.4 C 70 % 16.66 C
241 01-07-2016 20:00:00 22.3 C 73 % 17.23 C
242 01-07-2016 20:05:00 22.3 C 71 % 16.79 C
243 01-07-2016 20:10:00 22.3 C 72 % 17.01 C
244 01-07-2016 20:15:00 22.3 C 75 % 17.65 C
245 01-07-2016 20:20:00 22.1 C 76 % 17.67 C
246 01-07-2016 20:25:00 21.9 C 73 % 16.84 C
247 01-07-2016 20:30:00 21.8 C 75 % 17.17 C
248 01-07-2016 20:35:00 21.7 C 78 % 17.7 C
249 01-07-2016 20:40:00 21.7 C 76 % 17.28 C
250 01-07-2016 20:45:00 21.8 C 77 % 17.59 C
Sensor: Nr:Datum:Temp:Feuchte:Taupunkt:
Aussen-T/F 251 01-07-2016 20:50:00 21.6 C 76 % 17.19 C
252 01-07-2016 20:55:00 21.4 C 78 % 17.4 C
253 01-07-2016 21:00:00 21.1 C 78 % 17.11 C
254 01-07-2016 21:05:00 20.7 C 80 % 17.13 C
255 01-07-2016 21:10:00 20.3 C 80 % 16.74 C
256 01-07-2016 21:15:00 19.9 C 81 % 16.54 C
257 01-07-2016 21:20:00 19.6 C 83 % 16.63 C
258 01-07-2016 21:25:00 19.3 C 83 % 16.34 C
259 01-07-2016 21:30:00 19.1 C 83 % 16.15 C
260 01-07-2016 21:35:00 18.8 C 84 % 16.04 C
261 01-07-2016 21:40:00 18.7 C 85 % 16.13 C
262 01-07-2016 21:45:00 18.6 C 85 % 16.03 C
263 01-07-2016 21:50:00 18.4 C 85 % 15.83 C
264 01-07-2016 21:55:00 18.4 C 86 % 16.02 C
265 01-07-2016 22:00:00 18.3 C 87 % 16.1 C
266 01-07-2016 22:05:00 18.2 C 87 % 16 C
267 01-07-2016 22:10:00 18.2 C 87 % 16 C
268 01-07-2016 22:15:00 18.1 C 87 % 15.9 C
269 01-07-2016 22:20:00 18.1 C 87 % 15.9 C
270 01-07-2016 22:25:00 18 C 88 % 15.98 C
271 01-07-2016 22:30:00 17.9 C 88 % 15.88 C
272 01-07-2016 22:35:00 17.9 C 88 % 15.88 C
273 01-07-2016 22:40:00 17.9 C 88 % 15.88 C
274 01-07-2016 22:45:00 17.8 C 88 % 15.79 C
275 01-07-2016 22:50:00 17.8 C 89 % 15.96 C
Sensor: Nr:Datum:Temp:Feuchte:Taupunkt:
Aussen-T/F 276 01-07-2016 22:55:00 17.7 C 89 % 15.86 C
277 01-07-2016 23:00:00 17.6 C 89 % 15.77 C
278 01-07-2016 23:05:00 17.6 C 90 % 15.94 C
279 01-07-2016 23:10:00 17.6 C 90 % 15.94 C
280 01-07-2016 23:15:00 17.6 C 90 % 15.94 C
281 01-07-2016 23:20:00 17.6 C 90 % 15.94 C
282 01-07-2016 23:25:00 17.6 C 90 % 15.94 C
283 01-07-2016 23:30:00 17.6 C 91 % 16.11 C
284 01-07-2016 23:35:00 17.6 C 91 % 16.11 C
285 01-07-2016 23:40:00 17.7 C 91 % 16.21 C
286 01-07-2016 23:45:00 17.7 C 91 % 16.21 C
287 01-07-2016 23:50:00 17.8 C 91 % 16.31 C
288 01-07-2016 23:55:00 17.8 C 91 % 16.31 C
289 02-07-2016 00:00:00 17.9 C 91 % 16.41 C
290 02-07-2016 00:05:00 17.9 C 91 % 16.41 C
291 02-07-2016 00:10:00 17.9 C 91 % 16.41 C
292 02-07-2016 00:15:00 17.9 C 91 % 16.41 C
293 02-07-2016 00:20:00 17.9 C 91 % 16.41 C
294 02-07-2016 00:25:00 17.9 C 91 % 16.41 C
295 02-07-2016 00:30:00 17.8 C 91 % 16.31 C
296 02-07-2016 00:35:00 17.9 C 91 % 16.41 C
297 02-07-2016 00:40:00 17.9 C 91 % 16.41 C
298 02-07-2016 00:45:00 17.9 C 91 % 16.41 C
299 02-07-2016 00:50:00 17.9 C 91 % 16.41 C
300 02-07-2016 00:55:00 17.8 C 91 % 16.31 C
Sensor: Nr:Datum:Temp:Feuchte:Taupunkt:
Aussen-T/F 301 02-07-2016 01:00:00 17.8 C 90 % 16.14 C
302 02-07-2016 01:05:00 17.7 C 91 % 16.21 C
303 02-07-2016 01:10:00 17.6 C 91 % 16.11 C
304 02-07-2016 01:15:00 17.6 C 91 % 16.11 C
305 02-07-2016 01:20:00 17.5 C 91 % 16.01 C
306 02-07-2016 01:25:00 17.5 C 91 % 16.01 C
307 02-07-2016 01:30:00 17.5 C 91 % 16.01 C
308 02-07-2016 01:35:00 17.5 C 92 % 16.19 C
309 02-07-2016 01:40:00 17.4 C 92 % 16.09 C
310 02-07-2016 01:45:00 17.4 C 91 % 15.92 C
311 02-07-2016 01:50:00 17.3 C 91 % 15.82 C
312 02-07-2016 01:55:00 17.3 C 92 % 15.99 C
313 02-07-2016 02:00:00 17.3 C 92 % 15.99 C
314 02-07-2016 02:05:00 17.4 C 92 % 16.09 C
315 02-07-2016 02:10:00 17.5 C 92 % 16.19 C
316 02-07-2016 02:15:00 17.6 C 92 % 16.28 C
317 02-07-2016 02:20:00 17.7 C 92 % 16.38 C
318 02-07-2016 02:25:00 17.7 C 92 % 16.38 C
319 02-07-2016 02:30:00 17.8 C 91 % 16.31 C
320 02-07-2016 02:35:00 17.9 C 90 % 16.24 C
321 02-07-2016 02:40:00 18.2 C 89 % 16.36 C
322 02-07-2016 02:45:00 18.3 C 88 % 16.28 C
323 02-07-2016 02:50:00 18.4 C 88 % 16.38 C
324 02-07-2016 02:55:00 18.6 C 87 % 16.39 C
325 02-07-2016 03:00:00 18.8 C 86 % 16.41 C
Sensor: Nr:Datum:Temp:Feuchte:Taupunkt:
Aussen-T/F 326 02-07-2016 03:05:00 18.8 C 86 % 16.41 C
327 02-07-2016 03:10:00 18.9 C 85 % 16.32 C
328 02-07-2016 03:15:00 18.8 C 85 % 16.23 C
329 02-07-2016 03:20:00 18.8 C 85 % 16.23 C
330 02-07-2016 03:25:00 18.8 C 85 % 16.23 C
331 02-07-2016 03:30:00 18.7 C 85 % 16.13 C
332 02-07-2016 03:35:00 18.6 C 86 % 16.21 C
333 02-07-2016 03:40:00 18.5 C 86 % 16.11 C
334 02-07-2016 03:45:00 18.4 C 86 % 16.02 C
335 02-07-2016 03:50:00 18.4 C 87 % 16.2 C
336 02-07-2016 03:55:00 18.4 C 87 % 16.2 C
337 02-07-2016 04:00:00 18.4 C 87 % 16.2 C
338 02-07-2016 04:05:00 18.4 C 87 % 16.2 C
339 02-07-2016 04:10:00 18.3 C 87 % 16.1 C
340 02-07-2016 04:15:00 18.3 C 87 % 16.1 C
341 02-07-2016 04:20:00 18.3 C 87 % 16.1 C
342 02-07-2016 04:25:00 18.3 C 87 % 16.1 C
343 02-07-2016 04:30:00 18.3 C 87 % 16.1 C
344 02-07-2016 04:35:00 18.3 C 87 % 16.1 C
345 02-07-2016 04:40:00 18.4 C 86 % 16.02 C
346 02-07-2016 04:45:00 18.5 C 86 % 16.11 C
347 02-07-2016 04:50:00 18.6 C 85 % 16.03 C
348 02-07-2016 04:55:00 18.6 C 85 % 16.03 C
349 02-07-2016 05:00:00 18.6 C 84 % 15.84 C
350 02-07-2016 05:05:00 18.6 C 85 % 16.03 C
Sensor: Nr:Datum:Temp:Feuchte:Taupunkt:
Aussen-T/F 351 02-07-2016 05:10:00 18.6 C 84 % 15.84 C
352 02-07-2016 05:15:00 18.6 C 83 % 15.66 C
353 02-07-2016 05:20:00 18.7 C 83 % 15.75 C
354 02-07-2016 05:25:00 18.7 C 83 % 15.75 C
355 02-07-2016 05:30:00 18.7 C 82 % 15.57 C
356 02-07-2016 05:35:00 18.2 C 82 % 15.08 C
357 02-07-2016 05:40:00 17.7 C 85 % 15.15 C
358 02-07-2016 05:45:00 17.2 C 86 % 14.84 C
359 02-07-2016 05:50:00 16.8 C 88 % 14.8 C
360 02-07-2016 05:55:00 16.4 C 88 % 14.41 C
361 02-07-2016 06:00:00 16.2 C 89 % 14.39 C
362 02-07-2016 06:05:00 16.1 C 89 % 14.29 C
363 02-07-2016 06:10:00 15.9 C 90 % 14.26 C
364 02-07-2016 06:15:00 15.8 C 90 % 14.16 C
365 02-07-2016 06:20:00 15.7 C 90 % 14.06 C
366 02-07-2016 06:25:00 15.6 C 91 % 14.14 C
367 02-07-2016 06:30:00 15.5 C 91 % 14.04 C
368 02-07-2016 06:35:00 15.4 C 91 % 13.94 C
369 02-07-2016 06:40:00 15.4 C 92 % 14.11 C
370 02-07-2016 06:45:00 15.4 C 92 % 14.11 C
371 02-07-2016 06:50:00 15.4 C 92 % 14.11 C
372 02-07-2016 06:55:00 15.4 C 93 % 14.27 C
373 02-07-2016 07:00:00 15.3 C 92 % 14.01 C
374 02-07-2016 07:05:00 15.1 C 91 % 13.64 C
375 02-07-2016 07:10:00 15 C 91 % 13.54 C
Sensor: Nr:Datum:Temp:Feuchte:Taupunkt:
Aussen-T/F 376 02-07-2016 07:15:00 14.9 C 92 % 13.61 C
377 02-07-2016 07:20:00 14.8 C 92 % 13.51 C
378 02-07-2016 07:25:00 14.8 C 91 % 13.35 C
379 02-07-2016 07:30:00 14.7 C 91 % 13.25 C
380 02-07-2016 07:35:00 14.6 C 91 % 13.15 C
381 02-07-2016 07:40:00 14.6 C 91 % 13.15 C
382 02-07-2016 07:45:00 14.5 C 91 % 13.05 C
383 02-07-2016 07:50:00 14.4 C 89 % 12.61 C
384 02-07-2016 07:55:00 14.3 C 86 % 11.99 C
385 02-07-2016 08:00:00 14.3 C 85 % 11.81 C
386 02-07-2016 08:05:00 14.3 C 83 % 11.45 C
387 02-07-2016 08:10:00 14.4 C 87 % 12.27 C
388 02-07-2016 08:15:00 14.3 C 88 % 12.34 C
389 02-07-2016 08:20:00 14.3 C 88 % 12.34 C
390 02-07-2016 08:25:00 14.2 C 88 % 12.24 C
391 02-07-2016 08:30:00 14.1 C 89 % 12.32 C
392 02-07-2016 08:35:00 14.1 C 89 % 12.32 C
393 02-07-2016 08:40:00 14.1 C 91 % 12.65 C
394 02-07-2016 08:45:00 14.1 C 91 % 12.65 C
395 02-07-2016 08:50:00 14.3 C 92 % 13.02 C
396 02-07-2016 08:55:00 14.4 C 92 % 13.12 C
397 02-07-2016 09:00:00 14.4 C 91 % 12.95 C
398 02-07-2016 09:05:00 14.4 C 91 % 12.95 C
399 02-07-2016 09:10:00 14.3 C 90 % 12.68 C
400 02-07-2016 09:15:00 14.3 C 90 % 12.68 C
Sensor: Nr:Datum:Temp:Feuchte:Taupunkt:
Aussen-T/F 401 02-07-2016 09:20:00 14.3 C 89 % 12.51 C
402 02-07-2016 09:25:00 14.3 C 90 % 12.68 C
403 02-07-2016 09:30:00 14.3 C 89 % 12.51 C
404 02-07-2016 09:35:00 14.3 C 89 % 12.51 C
405 02-07-2016 09:40:00 14.3 C 88 % 12.34 C
406 02-07-2016 09:45:00 14.3 C 89 % 12.51 C
407 02-07-2016 09:50:00 14.3 C 88 % 12.34 C
408 02-07-2016 09:55:00 14.3 C 89 % 12.51 C
409 02-07-2016 10:00:00 14.3 C 88 % 12.34 C
410 02-07-2016 10:05:00 14.3 C 88 % 12.34 C
411 02-07-2016 10:10:00 14.3 C 89 % 12.51 C
412 02-07-2016 10:15:00 14.4 C 89 % 12.61 C
413 02-07-2016 10:20:00 14.4 C 89 % 12.61 C
414 02-07-2016 10:25:00 14.6 C 90 % 12.98 C
415 02-07-2016 10:30:00 14.7 C 90 % 13.08 C
416 02-07-2016 10:35:00 14.7 C 87 % 12.56 C
417 02-07-2016 10:40:00 14.8 C 88 % 12.83 C
418 02-07-2016 10:45:00 15 C 87 % 12.86 C
419 02-07-2016 10:50:00 15.1 C 87 % 12.95 C
420 02-07-2016 10:55:00 15.2 C 83 % 12.33 C
421 02-07-2016 11:00:00 15.3 C 83 % 12.43 C
422 02-07-2016 11:05:00 15.4 C 85 % 12.89 C
423 02-07-2016 11:10:00 15.4 C 85 % 12.89 C
424 02-07-2016 11:15:00 15.5 C 86 % 13.17 C
425 02-07-2016 11:20:00 15.6 C 85 % 13.09 C
Sensor: Nr:Datum:Temp:Feuchte:Taupunkt:
Aussen-T/F 426 02-07-2016 11:25:00 15.7 C 85 % 13.19 C
427 02-07-2016 11:30:00 15.7 C 84 % 13.01 C
428 02-07-2016 11:35:00 15.6 C 81 % 12.35 C
429 02-07-2016 11:40:00 15.7 C 83 % 12.82 C
430 02-07-2016 11:45:00 15.7 C 83 % 12.82 C
431 02-07-2016 11:50:00 15.8 C 81 % 12.55 C
432 02-07-2016 11:55:00 15.9 C 82 % 12.83 C
433 02-07-2016 12:00:00 16.1 C 81 % 12.84 C
434 02-07-2016 12:05:00 16.2 C 79 % 12.56 C
435 02-07-2016 12:10:00 16.2 C 78 % 12.36 C
436 02-07-2016 12:15:00 16.2 C 81 % 12.94 C
437 02-07-2016 12:20:00 16.2 C 82 % 13.13 C
438 02-07-2016 12:25:00 16.3 C 80 % 12.85 C
439 02-07-2016 12:30:00 16.5 C 81 % 13.23 C
440 02-07-2016 12:35:00 16.7 C 80 % 13.23 C
441 02-07-2016 12:40:00 16.9 C 78 % 13.04 C
442 02-07-2016 12:45:00 16.9 C 78 % 13.04 C
443 02-07-2016 12:50:00 16.9 C 75 % 12.44 C
444 02-07-2016 12:55:00 16.9 C 77 % 12.84 C
445 02-07-2016 13:00:00 17.1 C 75 % 12.64 C
446 02-07-2016 13:05:00 17.4 C 75 % 12.93 C
447 02-07-2016 13:10:00 17.7 C 73 % 12.8 C
448 02-07-2016 13:15:00 17.9 C 70 % 12.35 C
449 02-07-2016 13:20:00 18.1 C 70 % 12.55 C
450 02-07-2016 13:25:00 18 C 71 % 12.67 C
Sensor: Nr:Datum:Temp:Feuchte:Taupunkt:
Aussen-T/F 451 02-07-2016 13:30:00 17.9 C 69 % 12.14 C
452 02-07-2016 13:35:00 17.9 C 71 % 12.57 C
453 02-07-2016 13:40:00 18 C 71 % 12.67 C
454 02-07-2016 13:45:00 18 C 73 % 13.09 C
455 02-07-2016 13:50:00 18.1 C 73 % 13.19 C
456 02-07-2016 13:55:00 18.3 C 71 % 12.95 C
457 02-07-2016 14:00:00 18.4 C 69 % 12.61 C
458 02-07-2016 14:05:00 18.4 C 70 % 12.83 C
459 02-07-2016 14:10:00 18.5 C 73 % 13.57 C
460 02-07-2016 14:15:00 18.6 C 70 % 13.02 C
461 02-07-2016 14:20:00 18.6 C 73 % 13.67 C
462 02-07-2016 14:25:00 18.6 C 71 % 13.24 C
463 02-07-2016 14:30:00 18.6 C 72 % 13.46 C
464 02-07-2016 14:35:00 18.6 C 73 % 13.67 C
465 02-07-2016 14:40:00 18.8 C 70 % 13.22 C
466 02-07-2016 14:45:00 18.8 C 68 % 12.77 C
467 02-07-2016 14:50:00 18.9 C 68 % 12.87 C
468 02-07-2016 14:55:00 19.1 C 65 % 12.37 C
469 02-07-2016 15:00:00 19.2 C 69 % 13.38 C
470 02-07-2016 15:05:00 19.1 C 68 % 13.06 C
471 02-07-2016 15:10:00 19 C 66 % 12.51 C
472 02-07-2016 15:15:00 19.1 C 67 % 12.83 C
473 02-07-2016 15:20:00 19.4 C 68 % 13.34 C
474 02-07-2016 15:25:00 19.7 C 65 % 12.94 C
475 02-07-2016 15:30:00 19.9 C 63 % 12.65 C
Sensor: Nr:Datum:Temp:Feuchte:Taupunkt:
Aussen-T/F 476 02-07-2016 15:35:00 20.4 C 60 % 12.38 C
477 02-07-2016 15:40:00 21 C 57 % 12.16 C
478 02-07-2016 15:45:00 21.4 C 54 % 11.71 C
479 02-07-2016 15:50:00 21.7 C 53 % 11.71 C
480 02-07-2016 15:55:00 22 C 45 % 9.53 C
481 02-07-2016 16:00:00 22.3 C 45 % 9.8 C
482 02-07-2016 16:05:00 22.5 C 44 % 9.65 C
483 02-07-2016 16:10:00 22.1 C 42 % 8.6 C
484 02-07-2016 16:15:00 21.7 C 45 % 9.26 C
485 02-07-2016 16:20:00 21.6 C 46 % 9.49 C
486 02-07-2016 16:25:00 21.3 C 47 % 9.54 C
487 02-07-2016 16:30:00 21 C 44 % 8.29 C
488 02-07-2016 16:35:00 20.7 C 46 % 8.67 C
489 02-07-2016 16:40:00 20.3 C 48 % 8.94 C
490 02-07-2016 16:45:00 20 C 49 % 8.97 C
491 02-07-2016 16:50:00 19.8 C 49 % 8.79 C
492 02-07-2016 16:55:00 19.7 C 52 % 9.58 C
493 02-07-2016 17:00:00 19.4 C 51 % 9.01 C
494 02-07-2016 17:05:00 19.3 C 56 % 10.31 C
495 02-07-2016 17:10:00 19.4 C 57 % 10.67 C
496 02-07-2016 17:15:00 19.3 C 58 % 10.84 C
497 02-07-2016 17:20:00 19.3 C 59 % 11.09 C
498 02-07-2016 17:25:00 19.4 C 56 % 10.4 C
499 02-07-2016 17:30:00 19.2 C 59 % 11 C
500 02-07-2016 17:35:00 19.2 C 56 % 10.22 C
Sensor: Nr:Datum:Temp:Feuchte:Taupunkt:
Aussen-T/F 501 02-07-2016 17:40:00 19.1 C 58 % 10.65 C
502 02-07-2016 17:45:00 19.1 C 59 % 10.91 C
503 02-07-2016 17:50:00 19.3 C 60 % 11.35 C
504 02-07-2016 17:55:00 19.7 C 56 % 10.68 C
505 02-07-2016 18:00:00 19.7 C 57 % 10.95 C
506 02-07-2016 18:05:00 20 C 54 % 10.42 C
507 02-07-2016 18:10:00 20.2 C 52 % 10.04 C
508 02-07-2016 18:15:00 19.9 C 55 % 10.6 C
509 02-07-2016 18:20:00 19.4 C 56 % 10.4 C
510 02-07-2016 18:25:00 19.1 C 54 % 9.58 C
511 02-07-2016 18:30:00 18.8 C 57 % 10.11 C
512 02-07-2016 18:35:00 18.4 C 56 % 9.47 C
513 02-07-2016 18:40:00 18.2 C 58 % 9.81 C
514 02-07-2016 18:45:00 18 C 60 % 10.13 C
515 02-07-2016 18:50:00 17.8 C 60 % 9.94 C
516 02-07-2016 18:55:00 17.6 C 63 % 10.48 C
517 02-07-2016 19:00:00 17.4 C 63 % 10.29 C
518 02-07-2016 19:05:00 17.3 C 62 % 9.96 C
519 02-07-2016 19:10:00 17.3 C 62 % 9.96 C
520 02-07-2016 19:15:00 17.4 C 64 % 10.53 C
521 02-07-2016 19:20:00 18.1 C 62 % 10.71 C
522 02-07-2016 19:25:00 18.5 C 60 % 10.6 C
523 02-07-2016 19:30:00 18.4 C 63 % 11.23 C
524 02-07-2016 19:35:00 18.4 C 62 % 10.99 C
525 02-07-2016 19:40:00 18.3 C 64 % 11.38 C
Sensor: Nr:Datum:Temp:Feuchte:Taupunkt:
Aussen-T/F 526 02-07-2016 19:45:00 17.9 C 65 % 11.23 C
527 02-07-2016 19:50:00 17.7 C 67 % 11.5 C
528 02-07-2016 19:55:00 17.3 C 69 % 11.56 C
529 02-07-2016 20:00:00 17 C 69 % 11.28 C
530 02-07-2016 20:05:00 16.8 C 66 % 10.42 C
531 02-07-2016 20:10:00 16.8 C 66 % 10.42 C
532 02-07-2016 20:15:00 16.8 C 67 % 10.64 C
533 02-07-2016 20:20:00 16.7 C 68 % 10.77 C
534 02-07-2016 20:25:00 16.6 C 69 % 10.89 C
535 02-07-2016 20:30:00 16.5 C 69 % 10.8 C
536 02-07-2016 20:35:00 16.4 C 73 % 11.55 C
537 02-07-2016 20:40:00 16.4 C 74 % 11.76 C
538 02-07-2016 20:45:00 16.4 C 74 % 11.76 C
539 02-07-2016 20:50:00 16.6 C 76 % 12.36 C
540 02-07-2016 20:55:00 16.6 C 76 % 12.36 C
541 02-07-2016 21:00:00 16.5 C 76 % 12.26 C
542 02-07-2016 21:05:00 16.3 C 76 % 12.07 C
543 02-07-2016 21:10:00 16.1 C 78 % 12.27 C
544 02-07-2016 21:15:00 15.8 C 77 % 11.78 C
545 02-07-2016 21:20:00 15.5 C 79 % 11.88 C
546 02-07-2016 21:25:00 15.2 C 79 % 11.59 C
547 02-07-2016 21:30:00 14.9 C 80 % 11.48 C
548 02-07-2016 21:35:00 14.7 C 81 % 11.48 C
549 02-07-2016 21:40:00 14.4 C 81 % 11.18 C
550 02-07-2016 21:45:00 14.2 C 82 % 11.17 C
Sensor: Nr:Datum:Temp:Feuchte:Taupunkt:
Aussen-T/F 551 02-07-2016 21:50:00 14.1 C 82 % 11.08 C
552 02-07-2016 21:55:00 13.8 C 82 % 10.78 C
553 02-07-2016 22:00:00 13.7 C 83 % 10.87 C
554 02-07-2016 22:05:00 13.6 C 83 % 10.77 C
555 02-07-2016 22:10:00 13.4 C 84 % 10.75 C
556 02-07-2016 22:15:00 13.3 C 84 % 10.66 C
557 02-07-2016 22:20:00 13.2 C 84 % 10.56 C
558 02-07-2016 22:25:00 13.2 C 84 % 10.56 C
559 02-07-2016 22:30:00 13.1 C 85 % 10.64 C
560 02-07-2016 22:35:00 13 C 85 % 10.54 C
561 02-07-2016 22:40:00 12.9 C 85 % 10.44 C
562 02-07-2016 22:45:00 13 C 87 % 10.89 C
563 02-07-2016 22:50:00 13.1 C 87 % 10.99 C
564 02-07-2016 22:55:00 13.1 C 87 % 10.99 C
565 02-07-2016 23:00:00 13.2 C 87 % 11.09 C
566 02-07-2016 23:05:00 13.2 C 86 % 10.91 C
567 02-07-2016 23:10:00 13.1 C 86 % 10.81 C
568 02-07-2016 23:15:00 13.1 C 86 % 10.81 C
569 02-07-2016 23:20:00 13 C 86 % 10.72 C
570 02-07-2016 23:25:00 12.9 C 87 % 10.79 C
571 02-07-2016 23:30:00 12.8 C 87 % 10.69 C
572 02-07-2016 23:35:00 12.8 C 87 % 10.69 C
573 02-07-2016 23:40:00 12.7 C 88 % 10.77 C
574 02-07-2016 23:45:00 12.7 C 88 % 10.77 C
575 02-07-2016 23:50:00 12.7 C 88 % 10.77 C
Sensor: Nr:Datum:Temp:Feuchte:Taupunkt:
Aussen-T/F 576 02-07-2016 23:55:00 12.7 C 88 % 10.77 C
577 03-07-2016 00:00:00 12.7 C 89 % 10.94 C
578 03-07-2016 00:05:00 12.7 C 89 % 10.94 C
579 03-07-2016 00:10:00 12.7 C 89 % 10.94 C
580 03-07-2016 00:15:00 12.6 C 89 % 10.84 C
581 03-07-2016 00:20:00 12.6 C 88 % 10.67 C
582 03-07-2016 00:25:00 12.5 C 88 % 10.57 C
583 03-07-2016 00:30:00 12.4 C 88 % 10.47 C
584 03-07-2016 00:35:00 12.4 C 89 % 10.64 C
585 03-07-2016 00:40:00 12.3 C 89 % 10.54 C
586 03-07-2016 00:45:00 12.3 C 89 % 10.54 C
587 03-07-2016 00:50:00 12.2 C 89 % 10.44 C
588 03-07-2016 00:55:00 12.2 C 89 % 10.44 C
589 03-07-2016 01:00:00 11.6 C 91 % 10.18 C
590 03-07-2016 01:05:00 11.6 C 91 % 10.18 C
591 03-07-2016 01:10:00 11.6 C 91 % 10.18 C
592 03-07-2016 01:15:00 11.6 C 92 % 10.35 C
593 03-07-2016 01:20:00 11.7 C 92 % 10.44 C
594 03-07-2016 01:25:00 11.8 C 92 % 10.54 C
595 03-07-2016 01:30:00 11.8 C 91 % 10.38 C
596 03-07-2016 01:35:00 11.8 C 91 % 10.38 C
597 03-07-2016 01:40:00 11.8 C 91 % 10.38 C
598 03-07-2016 01:45:00 11.9 C 91 % 10.48 C
599 03-07-2016 01:50:00 11.9 C 90 % 10.31 C
600 03-07-2016 01:55:00 12.1 C 90 % 10.51 C
Sensor: Nr:Datum:Temp:Feuchte:Taupunkt:
Aussen-T/F 601 03-07-2016 02:00:00 12.2 C 89 % 10.44 C
602 03-07-2016 02:05:00 12.2 C 89 % 10.44 C
603 03-07-2016 02:10:00 12.2 C 89 % 10.44 C
604 03-07-2016 02:15:00 12.3 C 89 % 10.54 C
605 03-07-2016 02:20:00 12.3 C 88 % 10.37 C
606 03-07-2016 02:25:00 12.3 C 88 % 10.37 C
607 03-07-2016 02:30:00 12.3 C 88 % 10.37 C
608 03-07-2016 02:35:00 12.3 C 88 % 10.37 C
609 03-07-2016 02:40:00 12.3 C 88 % 10.37 C
610 03-07-2016 02:45:00 12.2 C 88 % 10.27 C
611 03-07-2016 02:50:00 12.2 C 88 % 10.27 C
612 03-07-2016 02:55:00 12.1 C 88 % 10.17 C
613 03-07-2016 03:00:00 12 C 89 % 10.25 C
614 03-07-2016 03:05:00 11.9 C 89 % 10.15 C
615 03-07-2016 03:10:00 11.9 C 89 % 10.15 C
616 03-07-2016 03:15:00 11.9 C 89 % 10.15 C
617 03-07-2016 03:20:00 11.9 C 89 % 10.15 C
618 03-07-2016 03:25:00 11.9 C 89 % 10.15 C
619 03-07-2016 03:30:00 11.9 C 89 % 10.15 C
620 03-07-2016 03:35:00 11.9 C 89 % 10.15 C
621 03-07-2016 03:40:00 11.9 C 90 % 10.31 C
622 03-07-2016 04:25:00 11.9 C 90 % 10.31 C
623 03-07-2016 04:30:00 11.9 C 90 % 10.31 C
624 03-07-2016 04:35:00 11.9 C 90 % 10.31 C
625 03-07-2016 04:40:00 11.9 C 90 % 10.31 C
Sensor: Nr:Datum:Temp:Feuchte:Taupunkt:
Aussen-T/F 626 03-07-2016 04:45:00 11.9 C 90 % 10.31 C
627 03-07-2016 04:50:00 11.9 C 89 % 10.15 C
628 03-07-2016 04:55:00 11.9 C 90 % 10.31 C
629 03-07-2016 05:00:00 11.9 C 90 % 10.31 C
630 03-07-2016 05:05:00 11.8 C 90 % 10.21 C
631 03-07-2016 05:10:00 11.8 C 91 % 10.38 C
632 03-07-2016 05:15:00 11.8 C 91 % 10.38 C
633 03-07-2016 05:20:00 11.8 C 91 % 10.38 C
634 03-07-2016 05:25:00 11.7 C 91 % 10.28 C
635 03-07-2016 05:30:00 11.7 C 91 % 10.28 C
636 03-07-2016 05:35:00 11.7 C 91 % 10.28 C
637 03-07-2016 05:40:00 11.6 C 91 % 10.18 C
638 03-07-2016 05:45:00 11.6 C 91 % 10.18 C
639 03-07-2016 05:50:00 11.6 C 91 % 10.18 C
640 03-07-2016 05:55:00 11.6 C 91 % 10.18 C
641 03-07-2016 06:00:00 11.6 C 92 % 10.35 C
642 03-07-2016 06:05:00 11.6 C 92 % 10.35 C
643 03-07-2016 06:10:00 11.6 C 92 % 10.35 C
644 03-07-2016 06:15:00 11.6 C 92 % 10.35 C
645 03-07-2016 06:20:00 11.7 C 92 % 10.44 C
646 03-07-2016 06:25:00 11.7 C 92 % 10.44 C
647 03-07-2016 06:30:00 11.8 C 92 % 10.54 C
648 03-07-2016 06:35:00 11.8 C 92 % 10.54 C
649 03-07-2016 06:40:00 11.8 C 92 % 10.54 C
650 03-07-2016 06:45:00 11.9 C 92 % 10.64 C
Sensor: Nr:Datum:Temp:Feuchte:Taupunkt:
Aussen-T/F 651 03-07-2016 06:50:00 11.9 C 92 % 10.64 C
652 03-07-2016 06:55:00 12.1 C 92 % 10.84 C
653 03-07-2016 07:00:00 12.1 C 92 % 10.84 C
654 03-07-2016 07:05:00 12.2 C 91 % 10.78 C
655 03-07-2016 07:10:00 12.3 C 92 % 11.04 C
656 03-07-2016 07:15:00 12.4 C 92 % 11.14 C
657 03-07-2016 07:20:00 12.5 C 91 % 11.07 C
658 03-07-2016 07:25:00 12.6 C 91 % 11.17 C
659 03-07-2016 07:30:00 12.7 C 90 % 11.1 C
660 03-07-2016 07:35:00 12.7 C 90 % 11.1 C
661 03-07-2016 07:40:00 12.8 C 90 % 11.2 C
662 03-07-2016 07:45:00 12.9 C 89 % 11.13 C
663 03-07-2016 07:50:00 12.9 C 89 % 11.13 C
664 03-07-2016 07:55:00 13.1 C 88 % 11.16 C
665 03-07-2016 08:00:00 13.1 C 88 % 11.16 C
666 03-07-2016 08:05:00 13.2 C 88 % 11.26 C
667 03-07-2016 08:10:00 13.3 C 88 % 11.36 C
668 03-07-2016 08:15:00 13.4 C 87 % 11.28 C
669 03-07-2016 08:20:00 13.5 C 87 % 11.38 C
670 03-07-2016 08:25:00 13.7 C 87 % 11.58 C
671 03-07-2016 08:30:00 13.8 C 86 % 11.5 C
672 03-07-2016 08:35:00 13.8 C 86 % 11.5 C
673 03-07-2016 08:40:00 13.9 C 86 % 11.6 C
674 03-07-2016 08:45:00 14.1 C 86 % 11.8 C
675 03-07-2016 08:50:00 14.3 C 85 % 11.81 C
Sensor: Nr:Datum:Temp:Feuchte:Taupunkt:
Aussen-T/F 676 03-07-2016 08:55:00 14.5 C 84 % 11.83 C
677 03-07-2016 09:00:00 14.6 C 83 % 11.75 C
678 03-07-2016 09:05:00 14.5 C 83 % 11.65 C
679 03-07-2016 09:10:00 14.6 C 84 % 11.93 C
680 03-07-2016 09:25:00 14.7 C 84 % 12.03 C
681 03-07-2016 09:30:00 14.8 C 85 % 12.3 C
682 03-07-2016 09:35:00 18.1 C 74 % 13.4 C
683 03-07-2016 09:40:00 18.2 C 74 % 13.49 C
684 03-07-2016 09:45:00 18.1 C 71 % 12.76 C
685 03-07-2016 09:50:00 17.9 C 69 % 12.14 C
686 03-07-2016 09:55:00 17.8 C 73 % 12.9 C
687 03-07-2016 10:00:00 17.7 C 72 % 12.59 C
688 03-07-2016 10:05:00 17.7 C 72 % 12.59 C
689 03-07-2016 10:10:00 17.8 C 73 % 12.9 C
690 03-07-2016 10:15:00 17.8 C 73 % 12.9 C
691 03-07-2016 10:20:00 17.8 C 74 % 13.11 C
692 03-07-2016 10:25:00 17.6 C 71 % 12.28 C
693 03-07-2016 10:30:00 17.4 C 72 % 12.3 C
694 03-07-2016 10:35:00 17.2 C 77 % 13.14 C
695 03-07-2016 10:40:00 17 C 78 % 13.14 C
696 03-07-2016 10:45:00 16.8 C 81 % 13.52 C
697 03-07-2016 12:05:00 16.7 C 81 % 13.43 C
698 03-07-2016 12:10:00 16.4 C 83 % 13.51 C
699 03-07-2016 12:15:00 16.2 C 85 % 13.68 C
700 03-07-2016 12:20:00 16 C 86 % 13.66 C
Sensor: Nr:Datum:Temp:Feuchte:Taupunkt:
Aussen-T/F 701 03-07-2016 12:25:00 15.8 C 87 % 13.64 C
702 03-07-2016 12:30:00 15.6 C 88 % 13.62 C
703 03-07-2016 12:35:00 15.5 C 89 % 13.7 C
704 03-07-2016 12:40:00 15.4 C 90 % 13.77 C
705 03-07-2016 12:45:00 15.5 C 91 % 14.04 C
706 03-07-2016 12:50:00 15.4 C 89 % 13.6 C
707 03-07-2016 12:55:00 15.4 C 89 % 13.6 C
708 03-07-2016 13:00:00 15.4 C 88 % 13.42 C
709 03-07-2016 13:05:00 15.7 C 89 % 13.89 C
710 03-07-2016 13:10:00 15.9 C 89 % 14.09 C
711 03-07-2016 13:15:00 16.2 C 84 % 13.5 C
712 03-07-2016 13:20:00 16.4 C 84 % 13.69 C
713 03-07-2016 13:25:00 16.7 C 84 % 13.98 C
714 03-07-2016 13:30:00 17 C 79 % 13.33 C
715 03-07-2016 13:35:00 17.2 C 79 % 13.53 C
716 03-07-2016 13:40:00 17.2 C 80 % 13.72 C
717 03-07-2016 13:45:00 17.3 C 81 % 14.01 C
718 03-07-2016 13:50:00 17.4 C 79 % 13.72 C
719 03-07-2016 13:55:00 17.6 C 77 % 13.52 C
720 03-07-2016 14:00:00 17.7 C 76 % 13.42 C
721 03-07-2016 14:05:00 17.5 C 75 % 13.02 C
722 03-07-2016 14:10:00 17.1 C 69 % 11.37 C
723 03-07-2016 14:15:00 16.2 C 71 % 10.94 C
724 03-07-2016 14:20:00 15.4 C 79 % 11.78 C
725 03-07-2016 14:25:00 14.8 C 82 % 11.76 C
Sensor: Nr:Datum:Temp:Feuchte:Taupunkt:
Aussen-T/F 726 03-07-2016 14:30:00 14.3 C 85 % 11.81 C
727 03-07-2016 14:35:00 14.1 C 87 % 11.97 C
728 03-07-2016 14:40:00 14.1 C 89 % 12.32 C
729 03-07-2016 14:45:00 14.1 C 90 % 12.49 C
730 03-07-2016 14:50:00 14.2 C 91 % 12.75 C
731 03-07-2016 14:55:00 14.6 C 92 % 13.32 C
732 03-07-2016 15:00:00 14.8 C 92 % 13.51 C
733 03-07-2016 15:05:00 14.9 C 91 % 13.44 C
734 03-07-2016 15:10:00 15.2 C 91 % 13.74 C
735 03-07-2016 15:15:00 15.4 C 91 % 13.94 C
736 03-07-2016 15:20:00 15.6 C 90 % 13.97 C
737 03-07-2016 15:25:00 15.8 C 91 % 14.33 C
738 03-07-2016 15:30:00 16.2 C 92 % 14.9 C
739 03-07-2016 15:35:00 16.5 C 90 % 14.85 C
740 03-07-2016 15:40:00 16.9 C 90 % 15.25 C
741 03-07-2016 15:45:00 17.2 C 88 % 15.2 C
742 03-07-2016 15:50:00 17.8 C 84 % 15.06 C
743 03-07-2016 15:55:00 18.4 C 82 % 15.27 C
744 03-07-2016 16:00:00 18.9 C 82 % 15.76 C
745 03-07-2016 16:05:00 19.3 C 80 % 15.76 C
746 03-07-2016 16:10:00 19.7 C 75 % 15.15 C
747 03-07-2016 16:15:00 19.9 C 74 % 15.13 C
748 03-07-2016 16:20:00 19.9 C 74 % 15.13 C
749 03-07-2016 16:25:00 20.2 C 74 % 15.42 C
750 03-07-2016 16:30:00 20.4 C 71 % 14.97 C
Sensor: Nr:Datum:Temp:Feuchte:Taupunkt:
Aussen-T/F 751 03-07-2016 16:35:00 20.7 C 70 % 15.03 C
752 03-07-2016 16:40:00 20.7 C 70 % 15.03 C
753 03-07-2016 16:45:00 20.7 C 70 % 15.03 C
754 03-07-2016 16:50:00 21 C 71 % 15.54 C
755 03-07-2016 16:55:00 21.2 C 68 % 15.06 C
756 03-07-2016 17:00:00 21.3 C 64 % 14.22 C
757 03-07-2016 17:05:00 21.4 C 64 % 14.31 C
758 03-07-2016 17:10:00 21.2 C 60 % 13.13 C
759 03-07-2016 17:15:00 20.2 C 63 % 12.94 C
760 03-07-2016 17:20:00 19.2 C 66 % 12.7 C
761 03-07-2016 17:25:00 18.6 C 71 % 13.24 C
762 03-07-2016 17:30:00 18.2 C 76 % 13.9 C
763 03-07-2016 17:35:00 18 C 77 % 13.91 C
764 03-07-2016 17:40:00 17.9 C 78 % 14.01 C
765 03-07-2016 17:45:00 18.2 C 72 % 13.07 C
766 03-07-2016 17:50:00 18.7 C 70 % 13.12 C
767 03-07-2016 17:55:00 18.9 C 68 % 12.87 C
768 03-07-2016 18:00:00 18.9 C 71 % 13.53 C
769 03-07-2016 18:05:00 18.9 C 73 % 13.96 C
770 03-07-2016 18:10:00 18.9 C 69 % 13.09 C
771 03-07-2016 18:15:00 19 C 74 % 14.26 C
772 03-07-2016 18:20:00 18.9 C 70 % 13.31 C
773 03-07-2016 18:25:00 18.8 C 74 % 14.07 C
774 03-07-2016 18:30:00 18.7 C 76 % 14.39 C
775 03-07-2016 18:35:00 18.6 C 77 % 14.49 C
Sensor: Nr:Datum:Temp:Feuchte:Taupunkt:
Aussen-T/F 776 03-07-2016 18:40:00 18.8 C 77 % 14.68 C
777 03-07-2016 18:45:00 19.4 C 73 % 14.44 C
778 03-07-2016 18:50:00 20.1 C 67 % 13.78 C
779 03-07-2016 18:55:00 20 C 65 % 13.22 C
780 03-07-2016 19:00:00 19.8 C 67 % 13.5 C
781 03-07-2016 19:05:00 20.1 C 67 % 13.78 C
782 03-07-2016 19:10:00 20.1 C 66 % 13.55 C
783 03-07-2016 19:15:00 19.9 C 68 % 13.82 C
784 03-07-2016 19:20:00 19.7 C 72 % 14.51 C
785 03-07-2016 19:25:00 19.4 C 73 % 14.44 C
786 03-07-2016 19:30:00 19.1 C 75 % 14.57 C
787 03-07-2016 19:35:00 18.8 C 78 % 14.88 C
788 03-07-2016 19:40:00 18.4 C 79 % 14.69 C
789 03-07-2016 19:45:00 18.1 C 79 % 14.4 C
790 03-07-2016 19:50:00 17.8 C 78 % 13.91 C
791 03-07-2016 19:55:00 17.7 C 79 % 14.01 C
792 03-07-2016 20:00:00 17.8 C 79 % 14.11 C
793 03-07-2016 20:05:00 18.1 C 81 % 14.79 C
794 03-07-2016 20:10:00 18.2 C 80 % 14.69 C
795 03-07-2016 20:15:00 18.1 C 80 % 14.6 C
796 03-07-2016 20:20:00 17.8 C 80 % 14.31 C
797 03-07-2016 20:25:00 17.5 C 80 % 14.01 C
798 03-07-2016 20:30:00 17.3 C 80 % 13.82 C
799 03-07-2016 20:35:00 17 C 81 % 13.72 C
800 03-07-2016 20:40:00 16.8 C 81 % 13.52 C
Sensor: Nr:Datum:Temp:Feuchte:Taupunkt:
Aussen-T/F 801 03-07-2016 20:45:00 16.7 C 81 % 13.43 C
802 03-07-2016 20:50:00 16.6 C 81 % 13.33 C
803 03-07-2016 20:55:00 16.4 C 82 % 13.32 C
804 03-07-2016 21:00:00 16.3 C 82 % 13.22 C
805 03-07-2016 21:05:00 16.2 C 82 % 13.13 C
806 03-07-2016 21:10:00 16 C 82 % 12.93 C
807 03-07-2016 21:15:00 15.8 C 81 % 12.55 C
808 03-07-2016 21:20:00 15.7 C 81 % 12.45 C
809 03-07-2016 21:25:00 15.7 C 82 % 12.64 C
810 03-07-2016 21:30:00 15.7 C 82 % 12.64 C
811 03-07-2016 21:35:00 15.6 C 81 % 12.35 C
812 03-07-2016 21:40:00 15.6 C 82 % 12.54 C
813 03-07-2016 21:45:00 15.5 C 83 % 12.63 C
814 03-07-2016 21:50:00 15.5 C 83 % 12.63 C
815 03-07-2016 21:55:00 15.4 C 83 % 12.53 C
816 03-07-2016 22:00:00 15.4 C 83 % 12.53 C
817 03-07-2016 22:05:00 15.3 C 83 % 12.43 C
818 03-07-2016 22:10:00 15.3 C 83 % 12.43 C
819 03-07-2016 22:15:00 15.2 C 83 % 12.33 C
820 03-07-2016 22:20:00 15.2 C 85 % 12.7 C
821 03-07-2016 22:25:00 15.2 C 85 % 12.7 C
822 03-07-2016 22:30:00 15.1 C 85 % 12.6 C
823 03-07-2016 22:35:00 15.1 C 86 % 12.78 C
824 03-07-2016 22:40:00 15.1 C 86 % 12.78 C
825 03-07-2016 22:45:00 15.1 C 86 % 12.78 C
Sensor: Nr:Datum:Temp:Feuchte:Taupunkt:
Aussen-T/F 826 03-07-2016 22:50:00 15 C 87 % 12.86 C
827 03-07-2016 22:55:00 15 C 87 % 12.86 C
828 03-07-2016 23:00:00 15 C 87 % 12.86 C
829 03-07-2016 23:05:00 15 C 88 % 13.03 C
830 03-07-2016 23:10:00 14.9 C 88 % 12.93 C
831 03-07-2016 23:15:00 14.8 C 87 % 12.66 C
832 03-07-2016 23:20:00 14.6 C 87 % 12.46 C
833 03-07-2016 23:25:00 14.5 C 87 % 12.36 C
834 03-07-2016 23:30:00 14.4 C 88 % 12.44 C
835 03-07-2016 23:35:00 14.3 C 88 % 12.34 C
836 03-07-2016 23:40:00 14.2 C 87 % 12.07 C
837 03-07-2016 23:45:00 14.1 C 87 % 11.97 C
838 03-07-2016 23:50:00 13.9 C 88 % 11.95 C
839 03-07-2016 23:55:00 13.9 C 88 % 11.95 C
840 04-07-2016 00:00:00 13.8 C 88 % 11.85 C
841 04-07-2016 00:05:00 13.7 C 88 % 11.75 C
842 04-07-2016 00:10:00 13.6 C 88 % 11.65 C
843 04-07-2016 00:15:00 13.4 C 88 % 11.45 C
844 04-07-2016 00:20:00 13.3 C 89 % 11.53 C
845 04-07-2016 00:25:00 13.1 C 89 % 11.33 C
846 04-07-2016 00:30:00 13 C 89 % 11.23 C
847 04-07-2016 00:35:00 12.8 C 90 % 11.2 C
848 04-07-2016 00:40:00 12.7 C 90 % 11.1 C
849 04-07-2016 00:45:00 12.6 C 90 % 11 C
850 04-07-2016 00:50:00 12.5 C 90 % 10.91 C
Sensor: Nr:Datum:Temp:Feuchte:Taupunkt:
Aussen-T/F 851 04-07-2016 00:55:00 12.3 C 91 % 10.87 C
852 04-07-2016 01:00:00 12.2 C 91 % 10.78 C
853 04-07-2016 01:05:00 12.2 C 91 % 10.78 C
854 04-07-2016 01:10:00 12.1 C 91 % 10.68 C
855 04-07-2016 01:15:00 12 C 92 % 10.74 C
856 04-07-2016 01:20:00 11.9 C 92 % 10.64 C
857 04-07-2016 01:25:00 11.8 C 92 % 10.54 C
858 04-07-2016 01:30:00 11.8 C 92 % 10.54 C
859 04-07-2016 01:35:00 11.7 C 92 % 10.44 C
860 04-07-2016 01:40:00 11.7 C 93 % 10.61 C
861 04-07-2016 01:45:00 11.6 C 93 % 10.51 C
862 04-07-2016 01:50:00 11.6 C 93 % 10.51 C
863 04-07-2016 01:55:00 11.6 C 93 % 10.51 C
864 04-07-2016 02:00:00 11.6 C 93 % 10.51 C
865 04-07-2016 02:05:00 11.6 C 93 % 10.51 C
866 04-07-2016 02:10:00 11.5 C 93 % 10.41 C
867 04-07-2016 02:15:00 11.4 C 93 % 10.31 C
868 04-07-2016 02:20:00 11.5 C 94 % 10.57 C
869 04-07-2016 02:25:00 11.6 C 94 % 10.67 C
870 04-07-2016 02:30:00 11.7 C 94 % 10.77 C
871 04-07-2016 02:35:00 11.8 C 94 % 10.87 C
872 04-07-2016 02:40:00 11.8 C 94 % 10.87 C
873 04-07-2016 02:45:00 11.9 C 94 % 10.97 C
874 04-07-2016 02:50:00 12 C 94 % 11.07 C
875 04-07-2016 02:55:00 12.1 C 94 % 11.16 C
Sensor: Nr:Datum:Temp:Feuchte:Taupunkt:
Aussen-T/F 876 04-07-2016 03:00:00 12.1 C 94 % 11.16 C
877 04-07-2016 03:05:00 12.2 C 93 % 11.1 C
878 04-07-2016 03:10:00 12.2 C 93 % 11.1 C
879 04-07-2016 03:15:00 12.2 C 93 % 11.1 C
880 04-07-2016 03:20:00 12.2 C 93 % 11.1 C
881 04-07-2016 03:25:00 12.2 C 93 % 11.1 C
882 04-07-2016 03:30:00 12.2 C 93 % 11.1 C
883 04-07-2016 03:35:00 12.2 C 93 % 11.1 C
884 04-07-2016 03:40:00 12.2 C 93 % 11.1 C
885 04-07-2016 03:45:00 12.2 C 93 % 11.1 C
886 04-07-2016 03:50:00 12.2 C 93 % 11.1 C
887 04-07-2016 03:55:00 12.2 C 93 % 11.1 C
888 04-07-2016 04:00:00 12.1 C 93 % 11 C
889 04-07-2016 04:05:00 12.1 C 93 % 11 C
890 04-07-2016 04:10:00 12.1 C 93 % 11 C
891 04-07-2016 04:15:00 12.1 C 93 % 11 C
892 04-07-2016 04:20:00 12.1 C 93 % 11 C
893 04-07-2016 04:25:00 12.1 C 93 % 11 C
894 04-07-2016 04:30:00 12 C 94 % 11.07 C
895 04-07-2016 04:35:00 12 C 94 % 11.07 C
896 04-07-2016 04:40:00 12 C 94 % 11.07 C
897 04-07-2016 04:45:00 12 C 94 % 11.07 C
898 04-07-2016 04:50:00 12.1 C 94 % 11.16 C
899 04-07-2016 04:55:00 12.1 C 94 % 11.16 C
900 04-07-2016 05:00:00 12.1 C 94 % 11.16 C
Sensor: Nr:Datum:Temp:Feuchte:Taupunkt:
Aussen-T/F 901 04-07-2016 05:05:00 12.1 C 94 % 11.16 C
902 04-07-2016 05:10:00 12.2 C 94 % 11.26 C
903 04-07-2016 05:15:00 12.2 C 94 % 11.26 C
904 04-07-2016 05:20:00 12.2 C 94 % 11.26 C
905 04-07-2016 05:25:00 12.2 C 94 % 11.26 C
906 04-07-2016 05:30:00 12.2 C 94 % 11.26 C
907 04-07-2016 05:35:00 12.2 C 94 % 11.26 C
908 04-07-2016 05:40:00 12.3 C 94 % 11.36 C
909 04-07-2016 05:45:00 12.3 C 94 % 11.36 C
910 04-07-2016 05:50:00 12.3 C 94 % 11.36 C
911 04-07-2016 05:55:00 12.3 C 94 % 11.36 C
912 04-07-2016 06:00:00 12.3 C 94 % 11.36 C
913 04-07-2016 06:05:00 12.3 C 94 % 11.36 C
914 04-07-2016 06:10:00 12.4 C 94 % 11.46 C
915 04-07-2016 06:15:00 12.4 C 94 % 11.46 C
916 04-07-2016 06:20:00 12.4 C 94 % 11.46 C
917 04-07-2016 06:25:00 12.5 C 94 % 11.56 C
918 04-07-2016 06:30:00 12.5 C 94 % 11.56 C
919 04-07-2016 06:35:00 12.6 C 94 % 11.66 C
920 04-07-2016 06:40:00 12.6 C 94 % 11.66 C
921 04-07-2016 06:45:00 12.6 C 94 % 11.66 C
922 04-07-2016 06:50:00 12.7 C 94 % 11.76 C
923 04-07-2016 06:55:00 12.7 C 94 % 11.76 C
924 04-07-2016 07:00:00 12.8 C 93 % 11.7 C
925 04-07-2016 07:05:00 12.9 C 93 % 11.8 C
Sensor: Nr:Datum:Temp:Feuchte:Taupunkt:
Aussen-T/F 926 04-07-2016 07:10:00 13 C 93 % 11.9 C
927 04-07-2016 07:15:00 13.1 C 93 % 11.99 C
928 04-07-2016 07:20:00 13.2 C 93 % 12.09 C
929 04-07-2016 07:25:00 13.3 C 93 % 12.19 C
930 04-07-2016 07:30:00 13.4 C 92 % 12.13 C
931 04-07-2016 07:35:00 13.6 C 93 % 12.49 C
932 04-07-2016 07:40:00 13.7 C 92 % 12.42 C
933 04-07-2016 07:45:00 13.8 C 92 % 12.52 C
934 04-07-2016 07:50:00 13.8 C 91 % 12.36 C
935 04-07-2016 07:55:00 13.9 C 91 % 12.46 C
936 04-07-2016 08:00:00 14.1 C 91 % 12.65 C
937 04-07-2016 08:05:00 14.2 C 90 % 12.58 C
938 04-07-2016 08:10:00 14.3 C 90 % 12.68 C
939 04-07-2016 08:15:00 14.4 C 89 % 12.61 C
940 04-07-2016 08:20:00 14.6 C 90 % 12.98 C
941 04-07-2016 08:25:00 14.7 C 90 % 13.08 C
942 04-07-2016 08:30:00 14.8 C 89 % 13.01 C
943 04-07-2016 08:35:00 14.9 C 89 % 13.1 C
944 04-07-2016 08:40:00 15 C 89 % 13.2 C
945 04-07-2016 08:45:00 15.2 C 88 % 13.23 C
946 04-07-2016 08:50:00 15.3 C 88 % 13.33 C
947 04-07-2016 08:55:00 15.4 C 88 % 13.42 C
948 04-07-2016 09:00:00 15.4 C 88 % 13.42 C
949 04-07-2016 09:05:00 15.5 C 88 % 13.52 C
950 04-07-2016 09:10:00 15.7 C 88 % 13.72 C
Sensor: Nr:Datum:Temp:Feuchte:Taupunkt:
Aussen-T/F 951 04-07-2016 09:15:00 15.8 C 88 % 13.82 C
952 04-07-2016 09:20:00 16.1 C 87 % 13.94 C
953 04-07-2016 09:25:00 16.3 C 87 % 14.13 C
954 04-07-2016 09:30:00 16.6 C 87 % 14.43 C
955 04-07-2016 09:35:00 16.9 C 86 % 14.54 C
956 04-07-2016 09:40:00 17.1 C 83 % 14.19 C
957 04-07-2016 09:45:00 17.3 C 81 % 14.01 C
958 04-07-2016 09:50:00 17.5 C 80 % 14.01 C
959 04-07-2016 09:55:00 17.7 C 81 % 14.4 C
960 04-07-2016 10:00:00 17.8 C 79 % 14.11 C
961 04-07-2016 10:05:00 17.9 C 78 % 14.01 C
962 04-07-2016 10:10:00 17.9 C 77 % 13.81 C
963 04-07-2016 10:15:00 18.1 C 80 % 14.6 C
964 04-07-2016 10:20:00 18.2 C 78 % 14.3 C
965 04-07-2016 10:25:00 18.3 C 78 % 14.4 C
966 04-07-2016 10:30:00 18.4 C 76 % 14.1 C
967 04-07-2016 10:35:00 18.5 C 78 % 14.59 C
968 04-07-2016 10:40:00 18.6 C 77 % 14.49 C
969 04-07-2016 10:45:00 18.7 C 76 % 14.39 C
970 04-07-2016 10:50:00 18.8 C 76 % 14.48 C
971 04-07-2016 10:55:00 18.9 C 76 % 14.58 C
972 04-07-2016 11:00:00 18.9 C 79 % 15.18 C
973 04-07-2016 11:05:00 18.9 C 76 % 14.58 C
974 04-07-2016 11:10:00 18.9 C 77 % 14.78 C
975 04-07-2016 11:15:00 18.9 C 77 % 14.78 C
Sensor: Nr:Datum:Temp:Feuchte:Taupunkt:
Aussen-T/F 976 04-07-2016 11:20:00 19.1 C 77 % 14.97 C
977 04-07-2016 11:25:00 19.3 C 78 % 15.37 C
978 04-07-2016 11:30:00 19.3 C 75 % 14.76 C
979 04-07-2016 11:35:00 19.3 C 76 % 14.97 C
980 04-07-2016 11:40:00 19.3 C 74 % 14.55 C
981 04-07-2016 11:45:00 19.2 C 79 % 15.47 C
982 04-07-2016 11:50:00 19.1 C 81 % 15.76 C
983 04-07-2016 11:55:00 19 C 80 % 15.47 C
984 04-07-2016 12:00:00 18.8 C 79 % 15.08 C
985 04-07-2016 12:05:00 18.6 C 81 % 15.28 C
986 04-07-2016 12:10:00 18.3 C 82 % 15.17 C
987 04-07-2016 12:15:00 18 C 84 % 15.26 C
988 04-07-2016 12:20:00 17.8 C 86 % 15.43 C
989 04-07-2016 12:25:00 17.8 C 87 % 15.61 C
990 04-07-2016 12:30:00 17.9 C 85 % 15.34 C
991 04-07-2016 12:35:00 18.1 C 85 % 15.54 C
992 04-07-2016 12:40:00 18.2 C 86 % 15.82 C
993 04-07-2016 12:45:00 18.4 C 84 % 15.65 C
994 04-07-2016 12:50:00 18.7 C 84 % 15.94 C
995 04-07-2016 12:55:00 18.8 C 82 % 15.66 C
996 04-07-2016 13:00:00 18.9 C 82 % 15.76 C
997 04-07-2016 13:05:00 18.9 C 82 % 15.76 C
998 04-07-2016 13:10:00 18.9 C 82 % 15.76 C
999 04-07-2016 13:15:00 18.9 C 81 % 15.57 C
1000 04-07-2016 13:20:00 19 C 85 % 16.42 C
Sensor: Nr:Datum:Temp:Feuchte:Taupunkt:
Aussen-T/F 1001 04-07-2016 13:25:00 19.1 C 83 % 16.15 C
1002 04-07-2016 13:30:00 19 C 81 % 15.67 C
1003 04-07-2016 13:35:00 19.1 C 80 % 15.57 C
1004 04-07-2016 13:40:00 19.1 C 80 % 15.57 C
1005 04-07-2016 13:45:00 19.1 C 81 % 15.76 C
1006 04-07-2016 13:50:00 19.2 C 82 % 16.05 C
1007 04-07-2016 13:55:00 19.4 C 80 % 15.86 C
1008 04-07-2016 14:00:00 19.5 C 78 % 15.56 C
1009 04-07-2016 14:05:00 19.7 C 79 % 15.96 C
1010 04-07-2016 14:10:00 19.9 C 78 % 15.95 C
1011 04-07-2016 14:15:00 20.1 C 76 % 15.74 C
1012 04-07-2016 14:20:00 20.1 C 76 % 15.74 C
1013 04-07-2016 14:25:00 20.1 C 79 % 16.34 C
1014 04-07-2016 14:30:00 20.2 C 76 % 15.83 C
1015 04-07-2016 14:35:00 20.3 C 78 % 16.34 C
1016 04-07-2016 14:40:00 20.3 C 76 % 15.93 C
1017 04-07-2016 14:45:00 20.2 C 75 % 15.63 C
1018 04-07-2016 14:50:00 20.1 C 77 % 15.94 C
1019 04-07-2016 14:55:00 20.1 C 78 % 16.14 C
1020 04-07-2016 15:00:00 20.2 C 77 % 16.04 C
1021 04-07-2016 15:05:00 20.3 C 76 % 15.93 C
1022 04-07-2016 15:10:00 20.5 C 76 % 16.12 C
1023 04-07-2016 15:15:00 20.8 C 77 % 16.62 C
1024 04-07-2016 15:20:00 20.9 C 75 % 16.3 C
1025 04-07-2016 15:25:00 20.9 C 74 % 16.09 C
Sensor: Nr:Datum:Temp:Feuchte:Taupunkt:
Aussen-T/F 1026 04-07-2016 15:30:00 21 C 75 % 16.4 C
1027 04-07-2016 15:35:00 21 C 74 % 16.19 C
1028 04-07-2016 15:40:00 21.1 C 74 % 16.29 C
1029 04-07-2016 15:45:00 21.1 C 73 % 16.07 C
1030 04-07-2016 15:50:00 21 C 74 % 16.19 C
1031 04-07-2016 15:55:00 20.9 C 74 % 16.09 C
1032 04-07-2016 16:00:00 20.8 C 75 % 16.21 C
1033 04-07-2016 16:05:00 20.7 C 77 % 16.52 C
1034 04-07-2016 16:10:00 20.8 C 76 % 16.41 C
1035 04-07-2016 16:15:00 20.9 C 74 % 16.09 C
1036 04-07-2016 16:20:00 20.9 C 75 % 16.3 C
1037 04-07-2016 16:25:00 21 C 76 % 16.61 C
1038 04-07-2016 16:30:00 21.1 C 77 % 16.91 C
1039 04-07-2016 16:35:00 21.2 C 78 % 17.21 C
1040 04-07-2016 16:40:00 21.4 C 76 % 16.99 C
1041 04-07-2016 16:45:00 21.7 C 76 % 17.28 C
1042 04-07-2016 16:50:00 22.1 C 73 % 17.03 C
1043 04-07-2016 16:55:00 22.4 C 73 % 17.32 C
1044 04-07-2016 17:00:00 22.3 C 73 % 17.23 C
1045 04-07-2016 17:05:00 22.4 C 73 % 17.32 C
1046 04-07-2016 17:10:00 22.8 C 71 % 17.27 C
1047 04-07-2016 17:15:00 22.9 C 69 % 16.91 C
1048 04-07-2016 17:20:00 23.1 C 67 % 16.64 C
1049 04-07-2016 17:25:00 23.3 C 69 % 17.29 C
1050 04-07-2016 17:30:00 23.5 C 69 % 17.48 C
Sensor: Nr:Datum:Temp:Feuchte:Taupunkt:
Aussen-T/F 1051 04-07-2016 17:35:00 23.6 C 63 % 16.14 C
1052 04-07-2016 17:40:00 23.6 C 65 % 16.64 C
1053 04-07-2016 17:45:00 23.7 C 67 % 17.21 C
1054 04-07-2016 17:50:00 23.8 C 64 % 16.58 C
1055 04-07-2016 17:55:00 24.1 C 63 % 16.62 C
1056 04-07-2016 18:00:00 24.4 C 63 % 16.9 C
1057 04-07-2016 18:05:00 24.6 C 62 % 16.84 C
1058 04-07-2016 18:10:00 24.5 C 62 % 16.74 C
1059 04-07-2016 18:15:00 24.6 C 62 % 16.84 C
1060 04-07-2016 18:20:00 24.6 C 62 % 16.84 C
1061 04-07-2016 18:25:00 24.7 C 64 % 17.43 C
1062 04-07-2016 18:30:00 24.5 C 63 % 16.99 C
1063 04-07-2016 18:35:00 24.4 C 64 % 17.15 C
1064 04-07-2016 18:40:00 24.8 C 64 % 17.53 C
1065 04-07-2016 18:45:00 25.1 C 62 % 17.31 C
1066 04-07-2016 18:50:00 25.2 C 63 % 17.65 C
1067 04-07-2016 18:55:00 25.4 C 62 % 17.59 C
1068 04-07-2016 19:00:00 25.3 C 62 % 17.5 C
1069 04-07-2016 19:05:00 24.9 C 63 % 17.37 C
1070 04-07-2016 19:10:00 24.5 C 65 % 17.49 C
1071 04-07-2016 19:15:00 24.2 C 66 % 17.45 C
1072 04-07-2016 19:20:00 23.9 C 65 % 16.92 C
1073 04-07-2016 19:25:00 23.8 C 68 % 17.54 C
1074 04-07-2016 19:30:00 23.7 C 66 % 16.97 C
1075 04-07-2016 19:35:00 23.5 C 68 % 17.25 C
Sensor: Nr:Datum:Temp:Feuchte:Taupunkt:
Aussen-T/F 1076 04-07-2016 19:40:00 23.4 C 68 % 17.16 C
1077 04-07-2016 19:45:00 23.3 C 69 % 17.29 C
1078 04-07-2016 19:50:00 23.1 C 67 % 16.64 C
1079 04-07-2016 19:55:00 22.9 C 69 % 16.91 C
1080 04-07-2016 20:00:00 22.8 C 71 % 17.27 C
1081 04-07-2016 20:05:00 22.7 C 74 % 17.83 C
1082 04-07-2016 20:10:00 22.7 C 72 % 17.39 C
1083 04-07-2016 20:15:00 22.7 C 73 % 17.61 C
1084 04-07-2016 20:20:00 22.8 C 73 % 17.71 C
1085 04-07-2016 20:25:00 22.8 C 74 % 17.92 C
1086 04-07-2016 20:30:00 22.7 C 74 % 17.83 C
1087 04-07-2016 20:35:00 22.5 C 74 % 17.63 C
1088 04-07-2016 20:40:00 22.2 C 75 % 17.56 C
1089 04-07-2016 20:45:00 21.9 C 76 % 17.48 C
1090 04-07-2016 20:50:00 21.7 C 76 % 17.28 C
1091 04-07-2016 20:55:00 21.4 C 77 % 17.2 C
1092 04-07-2016 21:00:00 21.1 C 77 % 16.91 C
1093 04-07-2016 21:05:00 20.8 C 78 % 16.82 C
1094 04-07-2016 21:10:00 20.6 C 78 % 16.63 C
1095 04-07-2016 21:15:00 20.4 C 79 % 16.64 C
1096 04-07-2016 21:20:00 20.3 C 80 % 16.74 C
1097 04-07-2016 21:25:00 20.2 C 80 % 16.64 C
1098 04-07-2016 21:30:00 20.1 C 81 % 16.74 C
1099 04-07-2016 21:35:00 19.9 C 81 % 16.54 C
1100 04-07-2016 21:40:00 19.8 C 82 % 16.64 C
Sensor: Nr:Datum:Temp:Feuchte:Taupunkt:
Aussen-T/F 1101 04-07-2016 21:45:00 19.6 C 82 % 16.44 C
1102 04-07-2016 21:50:00 19.4 C 83 % 16.44 C
1103 04-07-2016 21:55:00 19.2 C 84 % 16.43 C
1104 04-07-2016 22:00:00 19.1 C 84 % 16.33 C
1105 04-07-2016 22:05:00 19 C 85 % 16.42 C
1106 04-07-2016 22:10:00 18.9 C 85 % 16.32 C
1107 04-07-2016 22:15:00 18.8 C 85 % 16.23 C
1108 04-07-2016 22:20:00 18.8 C 86 % 16.41 C
1109 04-07-2016 22:25:00 18.7 C 86 % 16.31 C
1110 04-07-2016 22:30:00 18.7 C 86 % 16.31 C
1111 04-07-2016 22:35:00 18.6 C 87 % 16.39 C
1112 04-07-2016 22:40:00 18.5 C 87 % 16.3 C
1113 04-07-2016 22:45:00 18.4 C 87 % 16.2 C
1114 04-07-2016 22:50:00 18.4 C 88 % 16.38 C
1115 04-07-2016 22:55:00 18.4 C 88 % 16.38 C
1116 04-07-2016 23:00:00 18.3 C 88 % 16.28 C
1117 04-07-2016 23:05:00 18.3 C 88 % 16.28 C
1118 04-07-2016 23:10:00 18.3 C 88 % 16.28 C
1119 04-07-2016 23:15:00 18.3 C 88 % 16.28 C
1120 04-07-2016 23:20:00 18.3 C 88 % 16.28 C
1121 04-07-2016 23:25:00 18.3 C 88 % 16.28 C
1122 04-07-2016 23:30:00 18.3 C 88 % 16.28 C
1123 04-07-2016 23:35:00 18.2 C 88 % 16.18 C
1124 04-07-2016 23:40:00 18.2 C 89 % 16.36 C
1125 04-07-2016 23:45:00 18.1 C 89 % 16.26 C
Sensor: Nr:Datum:Temp:Feuchte:Taupunkt:
Aussen-T/F 1126 04-07-2016 23:50:00 18.1 C 89 % 16.26 C
1127 04-07-2016 23:55:00 18 C 89 % 16.16 C
1128 05-07-2016 00:00:00 18 C 89 % 16.16 C
1129 05-07-2016 00:05:00 17.9 C 90 % 16.24 C
1130 05-07-2016 00:10:00 17.9 C 90 % 16.24 C
1131 05-07-2016 00:15:00 17.9 C 90 % 16.24 C
1132 05-07-2016 00:20:00 17.9 C 90 % 16.24 C
1133 05-07-2016 00:25:00 17.8 C 90 % 16.14 C
1134 05-07-2016 00:30:00 17.8 C 90 % 16.14 C
1135 05-07-2016 00:35:00 17.8 C 90 % 16.14 C
1136 05-07-2016 00:40:00 17.8 C 90 % 16.14 C
1137 05-07-2016 00:45:00 17.8 C 90 % 16.14 C
1138 05-07-2016 00:50:00 17.8 C 90 % 16.14 C
1139 05-07-2016 00:55:00 17.8 C 90 % 16.14 C
1140 05-07-2016 01:00:00 17.7 C 90 % 16.04 C
1141 05-07-2016 01:05:00 17.7 C 90 % 16.04 C
1142 05-07-2016 01:10:00 17.7 C 91 % 16.21 C
1143 05-07-2016 01:15:00 17.7 C 91 % 16.21 C
1144 05-07-2016 01:20:00 17.7 C 91 % 16.21 C
1145 05-07-2016 01:25:00 17.7 C 91 % 16.21 C
1146 05-07-2016 01:30:00 17.6 C 91 % 16.11 C
1147 05-07-2016 01:35:00 17.6 C 91 % 16.11 C
1148 05-07-2016 01:40:00 17.6 C 91 % 16.11 C
1149 05-07-2016 01:45:00 17.6 C 91 % 16.11 C
1150 05-07-2016 01:50:00 17.6 C 91 % 16.11 C
Sensor: Nr:Datum:Temp:Feuchte:Taupunkt:
Aussen-T/F 1151 05-07-2016 01:55:00 17.6 C 91 % 16.11 C
1152 05-07-2016 02:00:00 17.6 C 91 % 16.11 C
1153 05-07-2016 02:05:00 17.6 C 91 % 16.11 C
1154 05-07-2016 02:10:00 17.6 C 91 % 16.11 C
1155 05-07-2016 02:15:00 17.6 C 91 % 16.11 C
1156 05-07-2016 02:20:00 17.6 C 91 % 16.11 C
1157 05-07-2016 02:25:00 17.6 C 91 % 16.11 C
1158 05-07-2016 02:30:00 17.6 C 91 % 16.11 C
1159 05-07-2016 02:35:00 17.6 C 91 % 16.11 C
1160 05-07-2016 02:40:00 17.6 C 91 % 16.11 C
1161 05-07-2016 02:45:00 17.6 C 91 % 16.11 C
1162 05-07-2016 02:50:00 17.5 C 91 % 16.01 C
1163 05-07-2016 02:55:00 17.5 C 91 % 16.01 C
1164 05-07-2016 03:00:00 17.4 C 91 % 15.92 C
1165 05-07-2016 03:05:00 17.4 C 91 % 15.92 C
1166 05-07-2016 03:10:00 17.4 C 91 % 15.92 C
1167 05-07-2016 03:15:00 17.4 C 91 % 15.92 C
1168 05-07-2016 03:20:00 17.3 C 91 % 15.82 C
1169 05-07-2016 03:25:00 17.3 C 91 % 15.82 C
1170 05-07-2016 03:30:00 17.3 C 91 % 15.82 C
1171 05-07-2016 03:35:00 17.3 C 91 % 15.82 C
1172 05-07-2016 03:40:00 17.3 C 91 % 15.82 C
1173 05-07-2016 03:45:00 17.3 C 91 % 15.82 C
1174 05-07-2016 03:50:00 17.3 C 91 % 15.82 C
1175 05-07-2016 03:55:00 17.3 C 91 % 15.82 C
Sensor: Nr:Datum:Temp:Feuchte:Taupunkt:
Aussen-T/F 1176 05-07-2016 04:00:00 17.3 C 91 % 15.82 C
1177 05-07-2016 04:05:00 17.3 C 91 % 15.82 C
1178 05-07-2016 04:10:00 17.3 C 91 % 15.82 C
1179 05-07-2016 04:15:00 17.3 C 91 % 15.82 C
1180 05-07-2016 04:20:00 17.3 C 91 % 15.82 C
1181 05-07-2016 04:25:00 17.3 C 91 % 15.82 C
1182 05-07-2016 04:30:00 17.3 C 91 % 15.82 C
1183 05-07-2016 04:35:00 17.3 C 91 % 15.82 C
1184 05-07-2016 04:40:00 17.3 C 91 % 15.82 C
1185 05-07-2016 04:45:00 17.3 C 91 % 15.82 C
1186 05-07-2016 04:50:00 17.2 C 91 % 15.72 C
1187 05-07-2016 04:55:00 17.2 C 91 % 15.72 C
1188 05-07-2016 05:00:00 17.1 C 91 % 15.62 C
1189 05-07-2016 05:05:00 17.1 C 91 % 15.62 C
1190 05-07-2016 05:10:00 17.1 C 91 % 15.62 C
1191 05-07-2016 05:15:00 17 C 91 % 15.52 C
1192 05-07-2016 05:20:00 16.9 C 91 % 15.42 C
1193 05-07-2016 05:25:00 16.9 C 92 % 15.59 C
1194 05-07-2016 05:30:00 16.9 C 92 % 15.59 C
1195 05-07-2016 05:35:00 16.8 C 92 % 15.49 C
1196 05-07-2016 05:40:00 16.8 C 92 % 15.49 C
1197 05-07-2016 05:45:00 16.8 C 92 % 15.49 C
1198 05-07-2016 05:50:00 16.8 C 92 % 15.49 C
1199 05-07-2016 05:55:00 16.8 C 92 % 15.49 C
1200 05-07-2016 06:00:00 16.8 C 92 % 15.49 C
Sensor: Nr:Datum:Temp:Feuchte:Taupunkt:
Aussen-T/F 1201 05-07-2016 06:05:00 16.8 C 92 % 15.49 C
1202 05-07-2016 06:10:00 16.8 C 92 % 15.49 C
1203 05-07-2016 06:15:00 16.8 C 92 % 15.49 C
1204 05-07-2016 06:20:00 16.8 C 93 % 15.66 C
1205 05-07-2016 06:25:00 16.9 C 93 % 15.76 C
1206 05-07-2016 06:30:00 16.9 C 93 % 15.76 C
1207 05-07-2016 06:35:00 16.9 C 93 % 15.76 C
1208 05-07-2016 06:40:00 17 C 93 % 15.86 C
1209 05-07-2016 06:45:00 17 C 93 % 15.86 C
1210 05-07-2016 06:50:00 17.1 C 93 % 15.96 C
1211 05-07-2016 06:55:00 17.1 C 92 % 15.79 C
1212 05-07-2016 07:00:00 17.1 C 92 % 15.79 C
1213 05-07-2016 07:05:00 17.2 C 92 % 15.89 C
1214 05-07-2016 07:10:00 17.3 C 92 % 15.99 C
1215 05-07-2016 07:15:00 17.3 C 92 % 15.99 C
1216 05-07-2016 07:20:00 17.4 C 92 % 16.09 C
1217 05-07-2016 07:25:00 17.5 C 92 % 16.19 C
1218 05-07-2016 07:30:00 17.6 C 91 % 16.11 C
1219 05-07-2016 07:35:00 17.7 C 91 % 16.21 C
1220 05-07-2016 07:40:00 17.8 C 90 % 16.14 C
1221 05-07-2016 07:45:00 17.9 C 90 % 16.24 C
1222 05-07-2016 07:50:00 17.9 C 90 % 16.24 C
1223 05-07-2016 07:55:00 18.1 C 89 % 16.26 C
1224 05-07-2016 08:00:00 18.2 C 89 % 16.36 C
1225 05-07-2016 08:05:00 18.3 C 88 % 16.28 C
Sensor: Nr:Datum:Temp:Feuchte:Taupunkt:
Aussen-T/F 1226 05-07-2016 08:10:00 18.3 C 88 % 16.28 C
1227 05-07-2016 08:15:00 18.4 C 87 % 16.2 C
1228 05-07-2016 08:20:00 18.4 C 86 % 16.02 C
1229 05-07-2016 08:25:00 18.4 C 86 % 16.02 C
1230 05-07-2016 08:30:00 18.5 C 87 % 16.3 C
1231 05-07-2016 08:35:00 18.6 C 86 % 16.21 C
1232 05-07-2016 08:40:00 18.6 C 86 % 16.21 C
1233 05-07-2016 08:45:00 18.7 C 87 % 16.49 C
1234 05-07-2016 08:50:00 18.8 C 85 % 16.23 C
1235 05-07-2016 08:55:00 18.8 C 85 % 16.23 C
1236 05-07-2016 09:00:00 18.9 C 83 % 15.95 C
1237 05-07-2016 09:05:00 19.1 C 84 % 16.33 C
1238 05-07-2016 09:10:00 19.2 C 83 % 16.24 C
1239 05-07-2016 09:15:00 19.3 C 83 % 16.34 C
1240 05-07-2016 09:20:00 19.4 C 82 % 16.25 C
1241 05-07-2016 09:25:00 19.5 C 82 % 16.35 C
1242 05-07-2016 09:30:00 19.6 C 81 % 16.25 C
1243 05-07-2016 09:35:00 19.6 C 80 % 16.06 C
1244 05-07-2016 09:40:00 19.7 C 81 % 16.35 C
1245 05-07-2016 09:45:00 19.7 C 80 % 16.15 C
1246 05-07-2016 09:50:00 19.7 C 80 % 16.15 C
1247 05-07-2016 09:55:00 19.7 C 81 % 16.35 C
1248 05-07-2016 10:00:00 19.7 C 82 % 16.54 C
1249 05-07-2016 10:05:00 19.8 C 81 % 16.45 C
1250 05-07-2016 10:10:00 19.9 C 79 % 16.15 C
Sensor: Nr:Datum:Temp:Feuchte:Taupunkt:
Aussen-T/F 1251 05-07-2016 10:15:00 20.2 C 75 % 15.63 C
1252 05-07-2016 10:20:00 20.4 C 77 % 16.23 C
1253 05-07-2016 10:25:00 20.7 C 73 % 15.69 C
1254 05-07-2016 10:30:00 20.8 C 72 % 15.57 C
1255 05-07-2016 10:35:00 20.8 C 71 % 15.35 C
1256 05-07-2016 10:40:00 20.9 C 75 % 16.3 C
1257 05-07-2016 10:45:00 20.9 C 74 % 16.09 C
1258 05-07-2016 10:50:00 20.9 C 71 % 15.45 C
1259 05-07-2016 10:55:00 20.8 C 70 % 15.13 C
1260 05-07-2016 11:00:00 20.8 C 69 % 14.91 C
1261 05-07-2016 11:05:00 20.8 C 68 % 14.68 C
1262 05-07-2016 11:10:00 20.7 C 70 % 15.03 C
1263 05-07-2016 11:15:00 20.7 C 70 % 15.03 C
1264 05-07-2016 11:20:00 20.7 C 67 % 14.36 C
1265 05-07-2016 11:25:00 20.8 C 70 % 15.13 C
1266 05-07-2016 11:30:00 20.8 C 71 % 15.35 C
1267 05-07-2016 11:35:00 20.7 C 69 % 14.81 C
1268 05-07-2016 11:40:00 20.7 C 69 % 14.81 C
1269 05-07-2016 11:45:00 20.6 C 70 % 14.94 C
1270 05-07-2016 11:50:00 20.6 C 71 % 15.16 C
1271 05-07-2016 11:55:00 20.6 C 68 % 14.49 C
1272 05-07-2016 12:00:00 20.8 C 68 % 14.68 C
1273 05-07-2016 12:05:00 20.9 C 67 % 14.55 C
1274 05-07-2016 12:10:00 21 C 69 % 15.1 C
1275 05-07-2016 12:15:00 20.9 C 66 % 14.31 C
Sensor: Nr:Datum:Temp:Feuchte:Taupunkt:
Aussen-T/F 1276 05-07-2016 12:20:00 20.8 C 67 % 14.45 C
1277 05-07-2016 12:25:00 20.7 C 70 % 15.03 C
1278 05-07-2016 12:30:00 20.7 C 71 % 15.25 C
1279 05-07-2016 12:35:00 20.9 C 72 % 15.66 C
1280 05-07-2016 12:40:00 20.9 C 70 % 15.23 C
1281 05-07-2016 12:45:00 21.1 C 73 % 16.07 C
1282 05-07-2016 12:50:00 21 C 71 % 15.54 C
1283 05-07-2016 12:55:00 20.9 C 70 % 15.23 C
1284 05-07-2016 13:00:00 20.8 C 72 % 15.57 C
1285 05-07-2016 13:05:00 20.8 C 72 % 15.57 C
1286 05-07-2016 13:10:00 21 C 72 % 15.76 C
1287 05-07-2016 13:15:00 21.1 C 70 % 15.42 C
1288 05-07-2016 13:20:00 20.9 C 73 % 15.88 C
1289 05-07-2016 13:25:00 20.9 C 72 % 15.66 C
1290 05-07-2016 13:30:00 21 C 72 % 15.76 C
1291 05-07-2016 13:35:00 21.2 C 73 % 16.17 C
1292 05-07-2016 13:40:00 21.4 C 71 % 15.93 C
1293 05-07-2016 13:45:00 21.5 C 71 % 16.02 C
1294 05-07-2016 13:50:00 21.6 C 70 % 15.89 C
1295 05-07-2016 13:55:00 21.6 C 71 % 16.12 C
1296 05-07-2016 14:00:00 21.7 C 71 % 16.21 C
1297 05-07-2016 14:05:00 21.7 C 71 % 16.21 C
1298 05-07-2016 14:10:00 21.5 C 72 % 16.24 C
1299 05-07-2016 14:15:00 21.3 C 72 % 16.05 C
1300 05-07-2016 14:20:00 21.1 C 72 % 15.86 C
Sensor: Nr:Datum:Temp:Feuchte:Taupunkt:
Aussen-T/F 1301 05-07-2016 14:25:00 20.9 C 73 % 15.88 C
1302 05-07-2016 14:30:00 20.8 C 73 % 15.78 C
1303 05-07-2016 14:35:00 20.8 C 75 % 16.21 C
1304 05-07-2016 14:40:00 20.9 C 73 % 15.88 C
1305 05-07-2016 14:45:00 20.9 C 73 % 15.88 C
1306 05-07-2016 14:50:00 21.2 C 71 % 15.73 C
1307 05-07-2016 14:55:00 21.3 C 70 % 15.61 C
1308 05-07-2016 15:00:00 21.6 C 71 % 16.12 C
1309 05-07-2016 15:05:00 21.8 C 72 % 16.53 C
1310 05-07-2016 15:10:00 22.1 C 69 % 16.15 C
1311 05-07-2016 15:15:00 22.3 C 69 % 16.34 C
1312 05-07-2016 15:20:00 22.6 C 69 % 16.62 C
1313 05-07-2016 15:25:00 22.8 C 68 % 16.59 C
1314 05-07-2016 15:30:00 22.9 C 65 % 15.97 C
1315 05-07-2016 15:35:00 22.9 C 67 % 16.45 C
1316 05-07-2016 15:40:00 22.9 C 66 % 16.21 C
1317 05-07-2016 15:45:00 22.8 C 65 % 15.88 C
1318 05-07-2016 15:50:00 22.4 C 68 % 16.2 C
1319 05-07-2016 15:55:00 22.2 C 71 % 16.69 C
1320 05-07-2016 16:00:00 22 C 70 % 16.28 C
1321 05-07-2016 16:05:00 21.9 C 73 % 16.84 C
1322 05-07-2016 16:10:00 21.8 C 72 % 16.53 C
1323 05-07-2016 16:15:00 21.6 C 73 % 16.55 C
1324 05-07-2016 16:20:00 21.5 C 74 % 16.67 C
1325 05-07-2016 16:25:00 21.4 C 74 % 16.57 C
Sensor: Nr:Datum:Temp:Feuchte:Taupunkt:
Aussen-T/F 1326 05-07-2016 16:30:00 21.4 C 79 % 17.61 C
1327 05-07-2016 16:35:00 21.7 C 76 % 17.28 C
1328 05-07-2016 16:40:00 22 C 74 % 17.15 C
1329 05-07-2016 16:45:00 22.2 C 76 % 17.77 C
1330 05-07-2016 16:50:00 22.1 C 72 % 16.82 C
1331 05-07-2016 16:55:00 22 C 72 % 16.72 C
1332 05-07-2016 17:00:00 22.1 C 70 % 16.37 C
1333 05-07-2016 17:05:00 22.2 C 72 % 16.91 C
1334 05-07-2016 17:10:00 22.2 C 73 % 17.13 C
1335 05-07-2016 17:15:00 22 C 68 % 15.82 C
1336 05-07-2016 17:20:00 21.9 C 69 % 15.96 C
1337 05-07-2016 17:25:00 21.9 C 65 % 15.02 C
1338 05-07-2016 17:30:00 22.1 C 63 % 14.73 C
1339 05-07-2016 17:35:00 22.1 C 63 % 14.73 C
1340 05-07-2016 17:40:00 22.1 C 63 % 14.73 C
1341 05-07-2016 17:45:00 22.2 C 65 % 15.31 C
1342 05-07-2016 17:50:00 22.1 C 64 % 14.97 C
1343 05-07-2016 17:55:00 22.1 C 64 % 14.97 C
1344 05-07-2016 18:00:00 22.1 C 65 % 15.21 C
1345 05-07-2016 18:05:00 22.1 C 64 % 14.97 C
1346 05-07-2016 18:10:00 22 C 64 % 14.88 C
1347 05-07-2016 18:15:00 21.6 C 67 % 15.21 C
1348 05-07-2016 18:20:00 21 C 69 % 15.1 C
1349 05-07-2016 18:25:00 20.7 C 71 % 15.25 C
1350 05-07-2016 18:30:00 20.5 C 70 % 14.84 C
Sensor: Nr:Datum:Temp:Feuchte:Taupunkt:
Aussen-T/F 1351 05-07-2016 18:35:00 20.4 C 69 % 14.52 C
1352 05-07-2016 18:40:00 20.3 C 69 % 14.43 C
1353 05-07-2016 18:45:00 20.3 C 69 % 14.43 C
1354 05-07-2016 18:50:00 20.6 C 69 % 14.71 C
1355 05-07-2016 18:55:00 21.1 C 67 % 14.74 C
1356 05-07-2016 19:00:00 21.1 C 67 % 14.74 C
1357 05-07-2016 19:05:00 21.1 C 68 % 14.97 C
1358 05-07-2016 19:10:00 21 C 69 % 15.1 C
1359 05-07-2016 19:15:00 21.3 C 70 % 15.61 C
1360 05-07-2016 19:20:00 22 C 64 % 14.88 C
1361 05-07-2016 19:25:00 22.5 C 63 % 15.11 C
1362 05-07-2016 19:30:00 22.6 C 62 % 14.95 C
1363 05-07-2016 19:35:00 22.6 C 61 % 14.7 C
1364 05-07-2016 19:40:00 22.6 C 63 % 15.2 C
1365 05-07-2016 19:45:00 22.6 C 63 % 15.2 C
1366 05-07-2016 19:50:00 22.6 C 62 % 14.95 C
1367 05-07-2016 19:55:00 22.6 C 61 % 14.7 C
1368 05-07-2016 20:00:00 22.6 C 59 % 14.18 C
1369 05-07-2016 20:05:00 22.6 C 58 % 13.92 C
1370 05-07-2016 20:10:00 22.6 C 57 % 13.65 C
1371 05-07-2016 20:15:00 22.2 C 56 % 13.01 C
1372 05-07-2016 20:20:00 21.6 C 58 % 12.99 C
1373 05-07-2016 20:25:00 21.2 C 59 % 12.87 C
1374 05-07-2016 20:30:00 20.8 C 62 % 13.26 C
1375 05-07-2016 20:35:00 20.6 C 63 % 13.31 C
Sensor: Nr:Datum:Temp:Feuchte:Taupunkt:
Aussen-T/F 1376 05-07-2016 20:40:00 20.4 C 62 % 12.88 C
1377 05-07-2016 20:45:00 20.3 C 63 % 13.03 C
1378 05-07-2016 20:50:00 20.4 C 63 % 13.12 C
1379 05-07-2016 20:55:00 20.3 C 62 % 12.79 C
1380 05-07-2016 21:00:00 20.3 C 64 % 13.27 C
1381 05-07-2016 21:05:00 20.2 C 63 % 12.94 C
1382 05-07-2016 21:10:00 20 C 64 % 12.99 C
1383 05-07-2016 21:15:00 19.9 C 64 % 12.89 C
1384 05-07-2016 21:20:00 19.8 C 65 % 13.03 C
1385 05-07-2016 21:25:00 19.7 C 70 % 14.08 C
1386 05-07-2016 21:30:00 19.6 C 70 % 13.98 C
1387 05-07-2016 21:35:00 19.3 C 71 % 13.91 C
1388 05-07-2016 21:40:00 19.1 C 74 % 14.36 C
1389 05-07-2016 21:45:00 18.9 C 72 % 13.74 C
1390 05-07-2016 21:50:00 18.8 C 71 % 13.43 C
1391 05-07-2016 21:55:00 18.7 C 72 % 13.55 C
1392 05-07-2016 22:00:00 18.4 C 72 % 13.26 C
1393 05-07-2016 22:05:00 18.2 C 73 % 13.28 C
1394 05-07-2016 22:10:00 17.9 C 74 % 13.2 C
1395 05-07-2016 22:15:00 17.8 C 74 % 13.11 C
1396 05-07-2016 22:20:00 17.7 C 75 % 13.22 C
1397 05-07-2016 22:25:00 17.6 C 75 % 13.12 C
1398 05-07-2016 22:30:00 17.5 C 75 % 13.02 C
1399 05-07-2016 22:35:00 17.4 C 75 % 12.93 C
1400 05-07-2016 22:40:00 17.4 C 76 % 13.13 C
Sensor: Nr:Datum:Temp:Feuchte:Taupunkt:
Aussen-T/F 1401 05-07-2016 22:45:00 17.3 C 76 % 13.03 C
1402 05-07-2016 22:50:00 17.2 C 76 % 12.94 C
1403 05-07-2016 22:55:00 17.1 C 76 % 12.84 C
1404 05-07-2016 23:00:00 17 C 77 % 12.94 C
1405 05-07-2016 23:05:00 16.9 C 77 % 12.84 C
1406 05-07-2016 23:10:00 16.8 C 77 % 12.75 C
1407 05-07-2016 23:15:00 16.7 C 78 % 12.85 C
1408 05-07-2016 23:20:00 16.7 C 78 % 12.85 C
1409 05-07-2016 23:25:00 16.6 C 78 % 12.75 C
1410 05-07-2016 23:30:00 16.4 C 78 % 12.56 C
1411 05-07-2016 23:35:00 16.3 C 78 % 12.46 C
1412 05-07-2016 23:40:00 16.3 C 78 % 12.46 C
1413 05-07-2016 23:45:00 16.2 C 78 % 12.36 C
1414 05-07-2016 23:50:00 16.1 C 78 % 12.27 C
1415 05-07-2016 23:55:00 15.9 C 78 % 12.07 C
1416 06-07-2016 00:00:00 15.9 C 78 % 12.07 C
1417 06-07-2016 00:05:00 15.8 C 78 % 11.97 C
1418 06-07-2016 00:10:00 15.7 C 78 % 11.88 C
1419 06-07-2016 00:15:00 15.6 C 78 % 11.78 C
1420 06-07-2016 00:20:00 15.5 C 78 % 11.68 C
1421 06-07-2016 00:25:00 15.4 C 79 % 11.78 C
1422 06-07-2016 00:30:00 15.3 C 79 % 11.68 C
1423 06-07-2016 00:35:00 15.3 C 79 % 11.68 C
1424 06-07-2016 00:40:00 15.2 C 79 % 11.59 C
1425 06-07-2016 00:45:00 15.2 C 79 % 11.59 C
Sensor: Nr:Datum:Temp:Feuchte:Taupunkt:
Aussen-T/F 1426 06-07-2016 00:50:00 15.2 C 80 % 11.78 C
1427 06-07-2016 00:55:00 15.1 C 80 % 11.68 C
1428 06-07-2016 01:00:00 14.9 C 81 % 11.67 C
1429 06-07-2016 01:05:00 14.7 C 81 % 11.48 C
1430 06-07-2016 01:10:00 14.4 C 82 % 11.37 C
1431 06-07-2016 01:15:00 14.3 C 83 % 11.45 C
1432 06-07-2016 01:20:00 14.1 C 84 % 11.44 C
1433 06-07-2016 01:25:00 13.9 C 84 % 11.24 C
1434 06-07-2016 01:30:00 13.8 C 85 % 11.32 C
1435 06-07-2016 01:35:00 13.6 C 85 % 11.13 C
1436 06-07-2016 01:40:00 13.4 C 86 % 11.11 C
1437 06-07-2016 01:45:00 13.3 C 86 % 11.01 C
1438 06-07-2016 01:50:00 13.2 C 87 % 11.09 C
1439 06-07-2016 01:55:00 13.2 C 87 % 11.09 C
1440 06-07-2016 02:00:00 13.1 C 87 % 10.99 C
1441 06-07-2016 02:05:00 13 C 87 % 10.89 C
1442 06-07-2016 02:10:00 12.9 C 87 % 10.79 C
1443 06-07-2016 02:15:00 12.9 C 87 % 10.79 C
1444 06-07-2016 02:20:00 12.9 C 87 % 10.79 C
1445 06-07-2016 02:25:00 12.9 C 87 % 10.79 C
1446 06-07-2016 02:30:00 12.8 C 87 % 10.69 C
1447 06-07-2016 02:35:00 12.8 C 87 % 10.69 C
1448 06-07-2016 02:40:00 12.8 C 87 % 10.69 C
1449 06-07-2016 02:45:00 12.7 C 87 % 10.59 C
1450 06-07-2016 02:50:00 12.7 C 87 % 10.59 C
Sensor: Nr:Datum:Temp:Feuchte:Taupunkt:
Aussen-T/F 1451 06-07-2016 02:55:00 12.7 C 87 % 10.59 C
1452 06-07-2016 03:00:00 12.6 C 88 % 10.67 C
1453 06-07-2016 03:05:00 12.5 C 88 % 10.57 C
1454 06-07-2016 03:10:00 12.4 C 88 % 10.47 C
1455 06-07-2016 03:15:00 12.3 C 88 % 10.37 C
1456 06-07-2016 03:20:00 12.3 C 89 % 10.54 C
1457 06-07-2016 03:25:00 12.2 C 89 % 10.44 C
1458 06-07-2016 03:30:00 12.1 C 89 % 10.34 C
1459 06-07-2016 03:35:00 11.9 C 89 % 10.15 C
1460 06-07-2016 03:40:00 11.8 C 89 % 10.05 C
1461 06-07-2016 03:45:00 11.7 C 90 % 10.12 C
1462 06-07-2016 03:50:00 11.6 C 90 % 10.02 C
1463 06-07-2016 03:55:00 11.5 C 90 % 9.92 C
1464 06-07-2016 04:00:00 11.4 C 90 % 9.82 C
1465 06-07-2016 04:05:00 11.3 C 91 % 9.89 C
1466 06-07-2016 04:10:00 11.3 C 91 % 9.89 C
1467 06-07-2016 04:15:00 11.2 C 91 % 9.79 C
1468 06-07-2016 04:20:00 11.1 C 91 % 9.69 C
1469 06-07-2016 04:25:00 11.1 C 91 % 9.69 C
1470 06-07-2016 04:30:00 11 C 91 % 9.59 C
1471 06-07-2016 04:35:00 11 C 91 % 9.59 C
1472 06-07-2016 04:40:00 10.9 C 91 % 9.49 C
1473 06-07-2016 04:45:00 10.9 C 91 % 9.49 C
1474 06-07-2016 04:50:00 10.8 C 92 % 9.55 C
1475 06-07-2016 04:55:00 10.8 C 92 % 9.55 C
Sensor: Nr:Datum:Temp:Feuchte:Taupunkt:
Aussen-T/F 1476 06-07-2016 05:00:00 10.8 C 92 % 9.55 C
1477 06-07-2016 05:05:00 10.8 C 92 % 9.55 C
1478 06-07-2016 05:10:00 10.7 C 92 % 9.45 C
1479 06-07-2016 05:15:00 10.7 C 92 % 9.45 C
1480 06-07-2016 05:20:00 10.7 C 92 % 9.45 C
1481 06-07-2016 05:25:00 10.7 C 92 % 9.45 C
1482 06-07-2016 05:30:00 10.7 C 92 % 9.45 C
1483 06-07-2016 05:35:00 10.6 C 92 % 9.36 C
1484 06-07-2016 05:40:00 10.6 C 92 % 9.36 C
1485 06-07-2016 05:45:00 10.6 C 92 % 9.36 C
1486 06-07-2016 05:50:00 10.6 C 92 % 9.36 C
1487 06-07-2016 05:55:00 10.6 C 92 % 9.36 C
1488 06-07-2016 06:00:00 10.6 C 92 % 9.36 C
1489 06-07-2016 06:05:00 10.6 C 92 % 9.36 C
1490 06-07-2016 06:10:00 10.6 C 92 % 9.36 C
1491 06-07-2016 06:15:00 10.6 C 92 % 9.36 C
1492 06-07-2016 06:20:00 10.6 C 92 % 9.36 C
1493 06-07-2016 06:25:00 10.6 C 92 % 9.36 C
1494 06-07-2016 06:30:00 10.6 C 92 % 9.36 C
1495 06-07-2016 06:35:00 10.6 C 93 % 9.52 C
1496 06-07-2016 06:40:00 10.6 C 92 % 9.36 C
1497 06-07-2016 06:45:00 10.6 C 92 % 9.36 C
1498 06-07-2016 06:50:00 10.6 C 92 % 9.36 C
1499 06-07-2016 06:55:00 10.7 C 93 % 9.62 C
1500 06-07-2016 07:00:00 10.7 C 93 % 9.62 C
Sensor: Nr:Datum:Temp:Feuchte:Taupunkt:
Aussen-T/F 1501 06-07-2016 07:05:00 10.7 C 93 % 9.62 C
1502 06-07-2016 07:10:00 10.8 C 93 % 9.71 C
1503 06-07-2016 07:15:00 10.8 C 93 % 9.71 C
1504 06-07-2016 07:20:00 10.9 C 93 % 9.81 C
1505 06-07-2016 07:25:00 11 C 93 % 9.91 C
1506 06-07-2016 07:30:00 11.1 C 93 % 10.01 C
1507 06-07-2016 07:35:00 11.3 C 93 % 10.21 C
1508 06-07-2016 07:40:00 11.4 C 93 % 10.31 C
1509 06-07-2016 07:45:00 11.4 C 92 % 10.15 C
1510 06-07-2016 07:50:00 11.5 C 92 % 10.25 C
1511 06-07-2016 07:55:00 11.7 C 92 % 10.44 C
1512 06-07-2016 08:00:00 11.9 C 91 % 10.48 C
1513 06-07-2016 08:05:00 12.2 C 91 % 10.78 C
1514 06-07-2016 08:10:00 12.3 C 90 % 10.71 C
1515 06-07-2016 08:15:00 12.4 C 90 % 10.81 C
1516 06-07-2016 08:20:00 12.6 C 89 % 10.84 C
1517 06-07-2016 08:25:00 12.9 C 87 % 10.79 C
1518 06-07-2016 08:30:00 13.2 C 85 % 10.74 C
1519 06-07-2016 08:35:00 13.5 C 85 % 11.03 C
1520 06-07-2016 08:40:00 13.7 C 85 % 11.23 C
1521 06-07-2016 08:45:00 13.8 C 83 % 10.97 C
1522 06-07-2016 08:50:00 14.1 C 85 % 11.62 C
1523 06-07-2016 08:55:00 14.3 C 83 % 11.45 C
1524 06-07-2016 09:00:00 14.4 C 81 % 11.18 C
1525 06-07-2016 09:05:00 14.6 C 81 % 11.38 C
Sensor: Nr:Datum:Temp:Feuchte:Taupunkt:
Aussen-T/F 1526 06-07-2016 09:10:00 14.8 C 82 % 11.76 C
1527 06-07-2016 09:15:00 14.9 C 82 % 11.86 C
1528 06-07-2016 09:20:00 15.1 C 80 % 11.68 C
1529 06-07-2016 09:25:00 15.1 C 78 % 11.3 C
1530 06-07-2016 09:30:00 15.2 C 77 % 11.2 C
1531 06-07-2016 09:35:00 15.2 C 77 % 11.2 C
1532 06-07-2016 09:40:00 15.3 C 77 % 11.3 C
1533 06-07-2016 09:45:00 15.4 C 78 % 11.59 C
1534 06-07-2016 09:50:00 15.5 C 76 % 11.29 C
1535 06-07-2016 09:55:00 15.7 C 77 % 11.68 C
1536 06-07-2016 10:00:00 16 C 78 % 12.17 C
1537 06-07-2016 10:05:00 16.2 C 75 % 11.77 C
1538 06-07-2016 10:10:00 16.4 C 78 % 12.56 C
1539 06-07-2016 10:15:00 16.6 C 76 % 12.36 C
1540 06-07-2016 10:20:00 16.8 C 74 % 12.14 C
1541 06-07-2016 10:25:00 17 C 74 % 12.34 C
1542 06-07-2016 10:30:00 17.3 C 73 % 12.42 C
1543 06-07-2016 10:35:00 17.5 C 73 % 12.61 C
1544 06-07-2016 10:40:00 17.8 C 70 % 12.26 C
1545 06-07-2016 10:45:00 17.9 C 70 % 12.35 C
1546 06-07-2016 10:50:00 17.9 C 70 % 12.35 C
1547 06-07-2016 10:55:00 17.9 C 69 % 12.14 C
1548 06-07-2016 11:00:00 17.9 C 73 % 12.99 C
1549 06-07-2016 11:05:00 17.9 C 72 % 12.78 C
1550 06-07-2016 11:10:00 17.8 C 76 % 13.52 C
Sensor: Nr:Datum:Temp:Feuchte:Taupunkt:
Aussen-T/F 1551 06-07-2016 11:15:00 17.7 C 72 % 12.59 C
1552 06-07-2016 11:20:00 17.5 C 71 % 12.19 C
1553 06-07-2016 11:25:00 17.4 C 72 % 12.3 C
1554 06-07-2016 11:30:00 17.4 C 72 % 12.3 C
1555 06-07-2016 11:35:00 17.6 C 71 % 12.28 C
1556 06-07-2016 11:40:00 17.6 C 72 % 12.5 C
1557 06-07-2016 11:45:00 17.7 C 74 % 13.01 C
1558 06-07-2016 11:50:00 17.7 C 75 % 13.22 C
1559 06-07-2016 11:55:00 17.8 C 77 % 13.72 C
1560 06-07-2016 12:00:00 17.7 C 77 % 13.62 C
1561 06-07-2016 12:05:00 17.6 C 74 % 12.91 C
1562 06-07-2016 12:10:00 17.6 C 72 % 12.5 C
1563 06-07-2016 12:15:00 17.8 C 72 % 12.69 C
1564 06-07-2016 12:20:00 18 C 71 % 12.67 C
1565 06-07-2016 12:25:00 18.3 C 71 % 12.95 C
1566 06-07-2016 12:30:00 18.4 C 68 % 12.39 C
1567 06-07-2016 12:35:00 18.6 C 71 % 13.24 C
1568 06-07-2016 12:40:00 18.8 C 72 % 13.65 C
1569 06-07-2016 12:45:00 18.8 C 69 % 13 C
1570 06-07-2016 12:50:00 18.9 C 68 % 12.87 C
1571 06-07-2016 12:55:00 18.9 C 69 % 13.09 C
1572 06-07-2016 13:00:00 18.9 C 68 % 12.87 C
1573 06-07-2016 13:05:00 18.8 C 68 % 12.77 C
1574 06-07-2016 13:10:00 18.8 C 72 % 13.65 C
1575 06-07-2016 13:15:00 18.9 C 72 % 13.74 C
Sensor: Nr:Datum:Temp:Feuchte:Taupunkt:
Aussen-T/F 1576 06-07-2016 13:20:00 19 C 69 % 13.19 C
1577 06-07-2016 13:25:00 19.1 C 67 % 12.83 C
1578 06-07-2016 13:30:00 19.3 C 67 % 13.02 C
1579 06-07-2016 13:35:00 19.7 C 67 % 13.4 C
1580 06-07-2016 13:40:00 19.9 C 67 % 13.59 C
1581 06-07-2016 13:45:00 19.9 C 63 % 12.65 C
1582 06-07-2016 13:50:00 19.9 C 65 % 13.13 C
1583 06-07-2016 13:55:00 19.9 C 67 % 13.59 C
1584 06-07-2016 14:00:00 19.8 C 65 % 13.03 C
1585 06-07-2016 14:05:00 19.8 C 66 % 13.27 C
1586 06-07-2016 14:10:00 19.7 C 65 % 12.94 C
1587 06-07-2016 14:15:00 19.6 C 65 % 12.84 C
1588 06-07-2016 14:20:00 19.6 C 66 % 13.08 C
1589 06-07-2016 14:25:00 19.6 C 72 % 14.42 C
1590 06-07-2016 14:30:00 19.7 C 65 % 12.94 C
1591 06-07-2016 14:35:00 19.8 C 65 % 13.03 C
1592 06-07-2016 14:40:00 19.9 C 64 % 12.89 C
1593 06-07-2016 14:45:00 20 C 68 % 13.92 C
1594 06-07-2016 14:50:00 20 C 66 % 13.46 C
1595 06-07-2016 14:55:00 20.1 C 70 % 14.46 C
1596 06-07-2016 15:00:00 20.2 C 67 % 13.88 C
1597 06-07-2016 15:05:00 20.4 C 65 % 13.6 C
1598 06-07-2016 15:10:00 20.6 C 64 % 13.55 C
1599 06-07-2016 15:15:00 20.6 C 63 % 13.31 C
1600 06-07-2016 15:20:00 20.7 C 62 % 13.16 C
Sensor: Nr:Datum:Temp:Feuchte:Taupunkt:
Aussen-T/F 1601 06-07-2016 15:25:00 20.8 C 61 % 13.01 C
1602 06-07-2016 15:30:00 21.1 C 58 % 12.52 C
1603 06-07-2016 15:35:00 21.1 C 62 % 13.54 C
1604 06-07-2016 15:40:00 20.9 C 64 % 13.84 C
1605 06-07-2016 15:45:00 20.9 C 61 % 13.1 C
1606 06-07-2016 15:50:00 21.2 C 59 % 12.87 C
1607 06-07-2016 15:55:00 21.3 C 57 % 12.44 C
1608 06-07-2016 16:00:00 21.3 C 55 % 11.9 C
1609 06-07-2016 16:05:00 21.4 C 56 % 12.27 C
1610 06-07-2016 16:10:00 21.6 C 59 % 13.25 C
1611 06-07-2016 16:15:00 21.8 C 57 % 12.91 C
1612 06-07-2016 16:20:00 22.3 C 52 % 11.97 C
1613 06-07-2016 16:25:00 22.6 C 49 % 11.35 C
1614 06-07-2016 16:30:00 22.3 C 49 % 11.08 C
1615 06-07-2016 16:35:00 22.2 C 50 % 11.29 C
1616 06-07-2016 16:40:00 22.4 C 50 % 11.47 C
1617 06-07-2016 16:45:00 22.7 C 51 % 12.05 C
1618 06-07-2016 16:50:00 22.9 C 49 % 11.63 C
1619 06-07-2016 16:55:00 22.9 C 49 % 11.63 C
1620 06-07-2016 17:00:00 22.7 C 46 % 10.49 C
1621 06-07-2016 17:05:00 22.3 C 47 % 10.45 C
1622 06-07-2016 17:10:00 22.2 C 50 % 11.29 C
1623 06-07-2016 17:15:00 22.4 C 47 % 10.54 C
1624 06-07-2016 17:20:00 22.6 C 48 % 11.04 C
1625 06-07-2016 17:25:00 22.9 C 46 % 10.67 C
Sensor: Nr:Datum:Temp:Feuchte:Taupunkt:
Aussen-T/F 1626 06-07-2016 17:30:00 23.5 C 44 % 10.55 C
1627 06-07-2016 17:35:00 23.7 C 45 % 11.07 C
1628 06-07-2016 17:40:00 23.6 C 43 % 10.3 C
1629 06-07-2016 17:45:00 23.2 C 48 % 11.59 C
1630 06-07-2016 17:50:00 23.3 C 46 % 11.04 C
1631 06-07-2016 17:55:00 23.3 C 48 % 11.68 C
1632 06-07-2016 18:00:00 23.3 C 46 % 11.04 C
1633 06-07-2016 18:05:00 23.2 C 47 % 11.27 C
1634 06-07-2016 18:10:00 22.8 C 49 % 11.53 C
1635 06-07-2016 18:15:00 22.7 C 48 % 11.13 C
1636 06-07-2016 18:20:00 22.8 C 48 % 11.22 C
1637 06-07-2016 18:25:00 22.8 C 50 % 11.84 C
1638 06-07-2016 18:30:00 23 C 48 % 11.41 C
1639 06-07-2016 18:35:00 23.1 C 48 % 11.5 C
1640 06-07-2016 18:40:00 23.2 C 47 % 11.27 C
1641 06-07-2016 18:45:00 23.2 C 48 % 11.59 C
1642 06-07-2016 18:50:00 23.2 C 49 % 11.9 C
1643 06-07-2016 18:55:00 23.1 C 49 % 11.81 C
1644 06-07-2016 19:00:00 23 C 49 % 11.72 C
1645 06-07-2016 19:05:00 22.8 C 50 % 11.84 C
1646 06-07-2016 19:10:00 22.7 C 51 % 12.05 C
1647 06-07-2016 19:15:00 22.7 C 51 % 12.05 C
1648 06-07-2016 19:20:00 22.6 C 52 % 12.25 C
1649 06-07-2016 19:25:00 22.3 C 53 % 12.26 C
1650 06-07-2016 19:30:00 22.2 C 53 % 12.17 C
Sensor: Nr:Datum:Temp:Feuchte:Taupunkt:
Aussen-T/F 1651 06-07-2016 19:35:00 22.1 C 52 % 11.79 C
1652 06-07-2016 19:40:00 21.9 C 53 % 11.89 C
1653 06-07-2016 19:45:00 21.7 C 55 % 12.27 C
1654 06-07-2016 19:50:00 21.5 C 55 % 12.08 C
1655 06-07-2016 19:55:00 21.3 C 55 % 11.9 C
1656 06-07-2016 20:00:00 21.1 C 56 % 11.99 C
1657 06-07-2016 20:05:00 20.9 C 57 % 12.07 C
1658 06-07-2016 20:10:00 20.8 C 58 % 12.24 C
1659 06-07-2016 20:15:00 20.8 C 58 % 12.24 C
1660 06-07-2016 20:20:00 20.8 C 58 % 12.24 C
1661 06-07-2016 20:25:00 20.9 C 57 % 12.07 C
1662 06-07-2016 20:30:00 20.8 C 57 % 11.97 C
1663 06-07-2016 20:35:00 20.7 C 58 % 12.15 C
1664 06-07-2016 20:40:00 20.6 C 60 % 12.57 C
1665 06-07-2016 20:45:00 20.4 C 60 % 12.38 C
1666 06-07-2016 20:50:00 20.3 C 63 % 13.03 C
1667 06-07-2016 20:55:00 20.2 C 65 % 13.41 C
1668 06-07-2016 21:00:00 19.8 C 62 % 12.31 C
1669 06-07-2016 21:05:00 19.6 C 63 % 12.37 C
1670 06-07-2016 21:10:00 19.3 C 65 % 12.56 C
1671 06-07-2016 21:15:00 18.9 C 67 % 12.64 C
1672 06-07-2016 21:20:00 18.7 C 70 % 13.12 C
1673 06-07-2016 21:25:00 18.2 C 70 % 12.64 C
1674 06-07-2016 21:30:00 17.8 C 73 % 12.9 C
1675 06-07-2016 21:35:00 17.4 C 74 % 12.72 C
Sensor: Nr:Datum:Temp:Feuchte:Taupunkt:
Aussen-T/F 1676 06-07-2016 21:40:00 17.1 C 76 % 12.84 C
1677 06-07-2016 21:45:00 16.8 C 76 % 12.55 C
1678 06-07-2016 21:50:00 16.6 C 77 % 12.55 C
1679 06-07-2016 21:55:00 16.4 C 78 % 12.56 C
1680 06-07-2016 22:00:00 16.3 C 77 % 12.26 C
1681 06-07-2016 22:05:00 16.2 C 78 % 12.36 C
1682 06-07-2016 22:10:00 16.1 C 78 % 12.27 C
1683 06-07-2016 22:15:00 16 C 78 % 12.17 C
1684 06-07-2016 22:20:00 15.9 C 79 % 12.27 C
1685 06-07-2016 22:25:00 15.8 C 78 % 11.97 C
1686 06-07-2016 22:30:00 15.7 C 78 % 11.88 C
1687 06-07-2016 22:35:00 15.7 C 79 % 12.07 C
1688 06-07-2016 22:40:00 15.6 C 79 % 11.97 C
1689 06-07-2016 22:45:00 15.5 C 80 % 12.07 C
1690 06-07-2016 22:50:00 15.4 C 80 % 11.97 C
1691 06-07-2016 22:55:00 15.3 C 80 % 11.87 C
1692 06-07-2016 23:00:00 15.3 C 79 % 11.68 C
1693 06-07-2016 23:05:00 15.3 C 80 % 11.87 C
1694 06-07-2016 23:10:00 15.2 C 81 % 11.96 C
1695 06-07-2016 23:15:00 15.2 C 81 % 11.96 C
1696 06-07-2016 23:20:00 15 C 82 % 11.95 C
1697 06-07-2016 23:25:00 14.9 C 82 % 11.86 C
1698 06-07-2016 23:30:00 14.8 C 83 % 11.94 C
1699 06-07-2016 23:35:00 14.6 C 83 % 11.75 C
1700 06-07-2016 23:40:00 14.4 C 83 % 11.55 C
Sensor: Nr:Datum:Temp:Feuchte:Taupunkt:
Aussen-T/F 1701 06-07-2016 23:45:00 14.3 C 84 % 11.64 C
1702 06-07-2016 23:50:00 14.2 C 84 % 11.54 C
1703 06-07-2016 23:55:00 14 C 85 % 11.52 C
1704 07-07-2016 00:00:00 13.8 C 85 % 11.32 C
1705 07-07-2016 00:05:00 13.7 C 85 % 11.23 C
1706 07-07-2016 00:10:00 13.6 C 85 % 11.13 C
1707 07-07-2016 00:15:00 13.5 C 86 % 11.21 C
1708 07-07-2016 00:20:00 13.4 C 86 % 11.11 C
1709 07-07-2016 00:25:00 13.3 C 86 % 11.01 C
1710 07-07-2016 00:30:00 13.2 C 87 % 11.09 C
1711 07-07-2016 00:35:00 13.1 C 87 % 10.99 C
1712 07-07-2016 00:40:00 13.1 C 87 % 10.99 C
1713 07-07-2016 00:45:00 13 C 87 % 10.89 C
1714 07-07-2016 00:50:00 13 C 88 % 11.06 C
1715 07-07-2016 00:55:00 12.9 C 88 % 10.96 C
1716 07-07-2016 01:00:00 12.9 C 88 % 10.96 C
1717 07-07-2016 01:05:00 12.8 C 88 % 10.86 C
1718 07-07-2016 01:10:00 12.8 C 89 % 11.03 C
1719 07-07-2016 01:15:00 12.7 C 89 % 10.94 C
1720 07-07-2016 01:20:00 12.7 C 89 % 10.94 C
1721 07-07-2016 01:25:00 12.6 C 89 % 10.84 C
1722 07-07-2016 01:30:00 12.5 C 89 % 10.74 C
1723 07-07-2016 01:35:00 12.4 C 90 % 10.81 C
1724 07-07-2016 01:40:00 12.4 C 90 % 10.81 C
1725 07-07-2016 01:45:00 12.4 C 90 % 10.81 C
Sensor: Nr:Datum:Temp:Feuchte:Taupunkt:
Aussen-T/F 1726 07-07-2016 01:50:00 12.3 C 90 % 10.71 C
1727 07-07-2016 01:55:00 12.3 C 90 % 10.71 C
1728 07-07-2016 02:00:00 12.3 C 91 % 10.87 C
1729 07-07-2016 02:05:00 12.2 C 91 % 10.78 C
1730 07-07-2016 02:10:00 12.2 C 91 % 10.78 C
1731 07-07-2016 02:15:00 12.2 C 91 % 10.78 C
1732 07-07-2016 02:20:00 12.2 C 91 % 10.78 C
1733 07-07-2016 02:25:00 12.1 C 91 % 10.68 C
1734 07-07-2016 02:30:00 12.1 C 92 % 10.84 C
1735 07-07-2016 02:35:00 12.1 C 92 % 10.84 C
1736 07-07-2016 02:40:00 11.9 C 92 % 10.64 C
1737 07-07-2016 02:45:00 11.9 C 92 % 10.64 C
1738 07-07-2016 02:50:00 11.8 C 91 % 10.38 C
1739 07-07-2016 02:55:00 11.8 C 92 % 10.54 C
1740 07-07-2016 03:00:00 11.7 C 92 % 10.44 C
1741 07-07-2016 03:05:00 11.7 C 92 % 10.44 C
1742 07-07-2016 03:10:00 11.6 C 92 % 10.35 C
1743 07-07-2016 03:15:00 11.5 C 92 % 10.25 C
1744 07-07-2016 03:20:00 11.4 C 92 % 10.15 C
1745 07-07-2016 03:25:00 11.4 C 92 % 10.15 C
1746 07-07-2016 03:30:00 11.3 C 93 % 10.21 C
1747 07-07-2016 03:35:00 11.3 C 93 % 10.21 C
1748 07-07-2016 03:40:00 11.3 C 93 % 10.21 C
1749 07-07-2016 03:45:00 11.3 C 93 % 10.21 C
1750 07-07-2016 03:50:00 11.3 C 93 % 10.21 C
Sensor: Nr:Datum:Temp:Feuchte:Taupunkt:
Aussen-T/F 1751 07-07-2016 03:55:00 11.3 C 93 % 10.21 C
1752 07-07-2016 04:00:00 11.3 C 93 % 10.21 C
1753 07-07-2016 04:05:00 11.2 C 93 % 10.11 C
1754 07-07-2016 04:10:00 11.2 C 93 % 10.11 C
1755 07-07-2016 04:15:00 11.2 C 93 % 10.11 C
1756 07-07-2016 04:20:00 11.2 C 93 % 10.11 C
1757 07-07-2016 04:25:00 11.1 C 93 % 10.01 C
1758 07-07-2016 04:30:00 11.1 C 93 % 10.01 C
1759 07-07-2016 04:35:00 11 C 93 % 9.91 C
1760 07-07-2016 04:40:00 11.1 C 94 % 10.17 C
1761 07-07-2016 04:45:00 11.1 C 94 % 10.17 C
1762 07-07-2016 04:50:00 11.1 C 94 % 10.17 C
1763 07-07-2016 04:55:00 11 C 94 % 10.07 C
1764 07-07-2016 05:00:00 10.9 C 94 % 9.97 C
1765 07-07-2016 05:05:00 10.9 C 94 % 9.97 C
1766 07-07-2016 05:10:00 10.9 C 94 % 9.97 C
1767 07-07-2016 05:15:00 10.9 C 94 % 9.97 C
1768 07-07-2016 05:20:00 10.8 C 94 % 9.87 C
1769 07-07-2016 05:25:00 10.8 C 94 % 9.87 C
1770 07-07-2016 05:30:00 10.8 C 94 % 9.87 C
1771 07-07-2016 05:35:00 10.7 C 94 % 9.77 C
1772 07-07-2016 05:40:00 10.7 C 94 % 9.77 C
1773 07-07-2016 05:45:00 10.7 C 94 % 9.77 C
1774 07-07-2016 05:50:00 10.6 C 94 % 9.68 C
1775 07-07-2016 05:55:00 10.6 C 94 % 9.68 C
Sensor: Nr:Datum:Temp:Feuchte:Taupunkt:
Aussen-T/F 1776 07-07-2016 06:00:00 10.6 C 94 % 9.68 C
1777 07-07-2016 06:05:00 10.6 C 94 % 9.68 C
1778 07-07-2016 06:10:00 10.7 C 95 % 9.93 C
1779 07-07-2016 06:15:00 10.7 C 94 % 9.77 C
1780 07-07-2016 06:20:00 10.7 C 94 % 9.77 C
1781 07-07-2016 06:25:00 10.7 C 94 % 9.77 C
1782 07-07-2016 06:30:00 10.7 C 95 % 9.93 C
1783 07-07-2016 06:35:00 10.8 C 95 % 10.03 C
1784 07-07-2016 06:40:00 10.8 C 95 % 10.03 C
1785 07-07-2016 06:45:00 10.9 C 95 % 10.13 C
1786 07-07-2016 06:50:00 10.9 C 95 % 10.13 C
1787 07-07-2016 06:55:00 10.9 C 94 % 9.97 C
1788 07-07-2016 07:00:00 10.9 C 94 % 9.97 C
1789 07-07-2016 07:05:00 10.9 C 94 % 9.97 C
1790 07-07-2016 07:10:00 10.9 C 94 % 9.97 C
1791 07-07-2016 07:15:00 10.9 C 95 % 10.13 C
1792 07-07-2016 07:20:00 10.9 C 95 % 10.13 C
1793 07-07-2016 07:25:00 11 C 95 % 10.23 C
1794 07-07-2016 07:30:00 11.1 C 95 % 10.33 C
1795 07-07-2016 07:35:00 11.1 C 95 % 10.33 C
1796 07-07-2016 07:40:00 11.2 C 95 % 10.43 C
1797 07-07-2016 07:45:00 11.2 C 95 % 10.43 C
1798 07-07-2016 07:50:00 11.3 C 95 % 10.53 C
1799 07-07-2016 07:55:00 11.3 C 95 % 10.53 C
1800 07-07-2016 08:00:00 11.4 C 95 % 10.63 C
Sensor: Nr:Datum:Temp:Feuchte:Taupunkt:
Aussen-T/F 1801 07-07-2016 08:05:00 11.6 C 95 % 10.83 C
1802 07-07-2016 08:10:00 11.7 C 95 % 10.93 C
1803 07-07-2016 08:15:00 11.8 C 95 % 11.03 C
1804 07-07-2016 08:20:00 11.9 C 95 % 11.13 C
1805 07-07-2016 08:25:00 12 C 95 % 11.22 C
1806 07-07-2016 08:30:00 12.1 C 95 % 11.32 C
1807 07-07-2016 08:35:00 12.2 C 95 % 11.42 C
1808 07-07-2016 08:40:00 12.3 C 95 % 11.52 C
1809 07-07-2016 08:45:00 12.4 C 95 % 11.62 C
1810 07-07-2016 08:50:00 12.6 C 95 % 11.82 C
1811 07-07-2016 08:55:00 12.7 C 95 % 11.92 C
1812 07-07-2016 09:00:00 12.8 C 95 % 12.02 C
1813 07-07-2016 09:05:00 12.9 C 95 % 12.12 C
1814 07-07-2016 09:10:00 13.1 C 94 % 12.16 C
1815 07-07-2016 09:15:00 13.2 C 95 % 12.42 C
1816 07-07-2016 09:20:00 13.3 C 94 % 12.36 C
1817 07-07-2016 09:25:00 13.4 C 94 % 12.45 C
1818 07-07-2016 09:30:00 13.6 C 94 % 12.65 C
1819 07-07-2016 09:35:00 13.6 C 93 % 12.49 C
1820 07-07-2016 09:40:00 13.8 C 93 % 12.69 C
1821 07-07-2016 09:45:00 13.9 C 92 % 12.62 C
1822 07-07-2016 09:50:00 14.1 C 92 % 12.82 C
1823 07-07-2016 09:55:00 14.3 C 92 % 13.02 C
1824 07-07-2016 10:00:00 14.4 C 91 % 12.95 C
1825 07-07-2016 10:05:00 14.6 C 90 % 12.98 C
Sensor: Nr:Datum:Temp:Feuchte:Taupunkt:
Aussen-T/F 1826 07-07-2016 10:10:00 14.8 C 90 % 13.18 C
1827 07-07-2016 10:15:00 15.1 C 89 % 13.3 C
1828 07-07-2016 10:20:00 15.4 C 88 % 13.42 C
1829 07-07-2016 10:25:00 15.8 C 86 % 13.46 C
1830 07-07-2016 10:30:00 16.3 C 85 % 13.77 C
1831 07-07-2016 10:35:00 16.8 C 85 % 14.26 C
1832 07-07-2016 10:40:00 17.2 C 84 % 14.47 C
1833 07-07-2016 10:45:00 17.6 C 78 % 13.72 C
1834 07-07-2016 10:50:00 18 C 80 % 14.5 C
1835 07-07-2016 10:55:00 18.3 C 79 % 14.6 C
1836 07-07-2016 11:00:00 18.4 C 77 % 14.3 C
1837 07-07-2016 11:05:00 18.6 C 76 % 14.29 C
1838 07-07-2016 11:10:00 18.7 C 80 % 15.18 C
1839 07-07-2016 11:15:00 18.6 C 79 % 14.89 C
1840 07-07-2016 11:20:00 18.4 C 77 % 14.3 C
1841 07-07-2016 11:25:00 18.3 C 76 % 14 C
1842 07-07-2016 11:30:00 18.2 C 74 % 13.49 C
1843 07-07-2016 11:35:00 18.2 C 72 % 13.07 C
1844 07-07-2016 11:40:00 18.3 C 75 % 13.79 C
1845 07-07-2016 11:45:00 18.6 C 71 % 13.24 C
1846 07-07-2016 11:50:00 18.8 C 67 % 12.55 C
1847 07-07-2016 11:55:00 18.9 C 67 % 12.64 C
1848 07-07-2016 12:00:00 19.2 C 68 % 13.15 C
1849 07-07-2016 12:05:00 19.3 C 65 % 12.56 C
1850 07-07-2016 12:10:00 19.4 C 65 % 12.66 C
Sensor: Nr:Datum:Temp:Feuchte:Taupunkt:
Aussen-T/F 1851 07-07-2016 12:15:00 19.4 C 65 % 12.66 C
1852 07-07-2016 12:20:00 19.4 C 64 % 12.42 C
1853 07-07-2016 12:25:00 19.4 C 67 % 13.12 C
1854 07-07-2016 12:30:00 19.6 C 66 % 13.08 C
1855 07-07-2016 12:35:00 19.6 C 58 % 11.12 C
1856 07-07-2016 12:40:00 19.7 C 60 % 11.72 C
1857 07-07-2016 12:45:00 19.8 C 61 % 12.07 C
1858 07-07-2016 12:50:00 19.9 C 65 % 13.13 C
1859 07-07-2016 12:55:00 19.9 C 61 % 12.16 C
1860 07-07-2016 13:00:00 20 C 61 % 12.26 C
1861 07-07-2016 13:05:00 20 C 63 % 12.75 C
1862 07-07-2016 13:10:00 20 C 55 % 10.69 C
1863 07-07-2016 13:15:00 20.2 C 56 % 11.15 C
1864 07-07-2016 13:20:00 20.3 C 51 % 9.84 C
1865 07-07-2016 13:25:00 20.6 C 52 % 10.41 C
1866 07-07-2016 13:30:00 20.7 C 53 % 10.78 C
1867 07-07-2016 13:35:00 20.9 C 50 % 10.1 C
1868 07-07-2016 13:40:00 21.1 C 49 % 9.98 C
1869 07-07-2016 13:45:00 21.3 C 51 % 10.76 C
1870 07-07-2016 13:50:00 21.5 C 49 % 10.34 C
1871 07-07-2016 13:55:00 21.7 C 49 % 10.53 C
1872 07-07-2016 14:00:00 21.7 C 49 % 10.53 C
1873 07-07-2016 14:05:00 21.7 C 49 % 10.53 C
1874 07-07-2016 14:10:00 21.9 C 51 % 11.31 C
1875 07-07-2016 14:15:00 22.1 C 48 % 10.58 C
Sensor: Nr:Datum:Temp:Feuchte:Taupunkt:
Aussen-T/F 1876 07-07-2016 14:20:00 22.3 C 49 % 11.08 C
1877 07-07-2016 14:25:00 22.6 C 49 % 11.35 C
1878 07-07-2016 14:30:00 22.7 C 47 % 10.81 C
1879 07-07-2016 14:35:00 22.8 C 52 % 12.43 C
1880 07-07-2016 14:40:00 23.1 C 53 % 13 C
1881 07-07-2016 14:45:00 23.2 C 48 % 11.59 C
1882 07-07-2016 14:50:00 23.5 C 48 % 11.86 C
1883 07-07-2016 14:55:00 23.7 C 49 % 12.36 C
1884 07-07-2016 15:00:00 23.8 C 46 % 11.49 C
1885 07-07-2016 15:05:00 23.8 C 50 % 12.76 C
1886 07-07-2016 15:10:00 23.8 C 48 % 12.14 C
1887 07-07-2016 15:15:00 23.8 C 49 % 12.45 C
1888 07-07-2016 15:20:00 23.8 C 47 % 11.82 C
1889 07-07-2016 15:25:00 23.8 C 54 % 13.94 C
1890 07-07-2016 15:30:00 23.7 C 49 % 12.36 C
1891 07-07-2016 15:35:00 23.7 C 47 % 11.73 C
1892 07-07-2016 15:40:00 23.8 C 59 % 15.31 C
1893 07-07-2016 15:45:00 23.9 C 51 % 13.15 C
1894 07-07-2016 15:50:00 24.1 C 43 % 10.75 C
1895 07-07-2016 15:55:00 24.3 C 44 % 11.27 C
1896 07-07-2016 16:00:00 24.6 C 52 % 14.09 C
1897 07-07-2016 16:05:00 24.7 C 54 % 14.77 C
1898 07-07-2016 16:10:00 24.9 C 57 % 15.8 C
1899 07-07-2016 16:15:00 25.1 C 53 % 14.85 C
1900 07-07-2016 16:20:00 25.2 C 44 % 12.09 C
Sensor: Nr:Datum:Temp:Feuchte:Taupunkt:
Aussen-T/F 1901 07-07-2016 16:25:00 25.1 C 45 % 12.34 C
1902 07-07-2016 16:30:00 24.9 C 58 % 16.07 C
1903 07-07-2016 16:35:00 24.8 C 42 % 11.02 C
1904 07-07-2016 16:40:00 24.8 C 57 % 15.7 C
1905 07-07-2016 16:45:00 24.9 C 54 % 14.95 C
1906 07-07-2016 16:50:00 24.9 C 59 % 16.34 C
1907 07-07-2016 16:55:00 24.9 C 63 % 17.37 C
1908 07-07-2016 17:00:00 24.9 C 63 % 17.37 C
1909 07-07-2016 17:05:00 24.8 C 62 % 17.02 C
1910 07-07-2016 17:10:00 24.9 C 66 % 18.11 C
1911 07-07-2016 17:15:00 24.9 C 60 % 16.6 C
1912 07-07-2016 17:20:00 24.8 C 63 % 17.28 C
1913 07-07-2016 17:25:00 24.8 C 61 % 16.77 C
1914 07-07-2016 17:30:00 24.8 C 66 % 18.01 C
1915 07-07-2016 17:35:00 24.9 C 64 % 17.62 C
1916 07-07-2016 17:40:00 25.1 C 61 % 17.05 C
1917 07-07-2016 17:45:00 24.9 C 61 % 16.86 C
1918 07-07-2016 17:50:00 24.6 C 63 % 17.09 C
1919 07-07-2016 17:55:00 24.2 C 63 % 16.71 C
1920 07-07-2016 18:00:00 23.8 C 64 % 16.58 C
1921 07-07-2016 18:05:00 23.5 C 67 % 17.02 C
1922 07-07-2016 18:10:00 23.3 C 68 % 17.06 C
1923 07-07-2016 18:15:00 23.3 C 67 % 16.83 C
1924 07-07-2016 18:20:00 23.2 C 69 % 17.2 C
1925 07-07-2016 18:25:00 23.3 C 70 % 17.52 C
Sensor: Nr:Datum:Temp:Feuchte:Taupunkt:
Aussen-T/F 1926 07-07-2016 18:30:00 23.4 C 69 % 17.39 C
1927 07-07-2016 18:35:00 23.8 C 70 % 18 C
1928 07-07-2016 18:40:00 24 C 68 % 17.73 C
1929 07-07-2016 18:45:00 24.1 C 65 % 17.11 C
1930 07-07-2016 18:50:00 24.1 C 67 % 17.59 C
1931 07-07-2016 18:55:00 23.9 C 67 % 17.4 C
1932 07-07-2016 19:00:00 23.7 C 66 % 16.97 C
1933 07-07-2016 19:05:00 23.5 C 67 % 17.02 C
1934 07-07-2016 19:10:00 23.4 C 68 % 17.16 C
1935 07-07-2016 19:15:00 23.6 C 64 % 16.39 C
1936 07-07-2016 19:20:00 24 C 67 % 17.49 C
1937 07-07-2016 19:25:00 24.4 C 68 % 18.11 C
1938 07-07-2016 19:30:00 24.6 C 65 % 17.58 C
1939 07-07-2016 19:35:00 24.2 C 64 % 16.96 C
1940 07-07-2016 19:40:00 23.6 C 66 % 16.88 C
1941 07-07-2016 19:45:00 23.1 C 68 % 16.87 C
1942 07-07-2016 19:50:00 22.5 C 69 % 16.53 C
1943 07-07-2016 19:55:00 22 C 70 % 16.28 C
1944 07-07-2016 20:00:00 21.6 C 71 % 16.12 C
1945 07-07-2016 20:05:00 21.3 C 73 % 16.26 C
1946 07-07-2016 20:10:00 21.2 C 73 % 16.17 C
1947 07-07-2016 20:15:00 21 C 74 % 16.19 C
1948 07-07-2016 20:20:00 20.9 C 74 % 16.09 C
1949 07-07-2016 20:25:00 20.8 C 75 % 16.21 C
1950 07-07-2016 20:30:00 20.8 C 75 % 16.21 C
Sensor: Nr:Datum:Temp:Feuchte:Taupunkt:
Aussen-T/F 1951 07-07-2016 20:35:00 20.8 C 75 % 16.21 C
1952 07-07-2016 20:40:00 20.8 C 74 % 16 C
1953 07-07-2016 20:45:00 20.7 C 75 % 16.11 C
1954 07-07-2016 20:50:00 20.5 C 75 % 15.92 C
1955 07-07-2016 20:55:00 20.3 C 75 % 15.72 C
1956 07-07-2016 21:00:00 20.1 C 76 % 15.74 C
1957 07-07-2016 21:05:00 19.8 C 76 % 15.45 C
1958 07-07-2016 21:10:00 19.6 C 76 % 15.26 C
1959 07-07-2016 21:15:00 19.4 C 77 % 15.27 C
1960 07-07-2016 21:20:00 19.3 C 76 % 14.97 C
1961 07-07-2016 21:25:00 19.1 C 76 % 14.77 C
1962 07-07-2016 21:30:00 19 C 76 % 14.68 C
1963 07-07-2016 21:35:00 18.9 C 76 % 14.58 C
1964 07-07-2016 21:40:00 18.8 C 77 % 14.68 C
1965 07-07-2016 21:45:00 18.7 C 78 % 14.79 C
1966 07-07-2016 21:50:00 18.5 C 78 % 14.59 C
1967 07-07-2016 21:55:00 18.3 C 79 % 14.6 C
1968 07-07-2016 22:00:00 18.1 C 79 % 14.4 C
1969 07-07-2016 22:05:00 17.8 C 81 % 14.5 C
1970 07-07-2016 22:10:00 17.7 C 81 % 14.4 C
1971 07-07-2016 22:15:00 17.6 C 81 % 14.3 C
1972 07-07-2016 22:20:00 17.5 C 81 % 14.2 C
1973 07-07-2016 22:25:00 17.4 C 82 % 14.3 C
1974 07-07-2016 22:30:00 17.2 C 82 % 14.1 C
1975 07-07-2016 22:35:00 17.1 C 82 % 14 C
Sensor: Nr:Datum:Temp:Feuchte:Taupunkt:
Aussen-T/F 1976 07-07-2016 22:40:00 16.9 C 83 % 14 C
1977 07-07-2016 22:45:00 16.8 C 83 % 13.9 C
1978 07-07-2016 22:50:00 16.7 C 83 % 13.8 C
1979 07-07-2016 22:55:00 16.6 C 84 % 13.89 C
1980 07-07-2016 23:00:00 16.5 C 84 % 13.79 C
1981 07-07-2016 23:05:00 16.3 C 84 % 13.59 C
1982 07-07-2016 23:10:00 16.2 C 85 % 13.68 C
1983 07-07-2016 23:15:00 15.9 C 85 % 13.38 C
1984 07-07-2016 23:20:00 15.8 C 86 % 13.46 C
1985 07-07-2016 23:25:00 15.8 C 86 % 13.46 C
1986 07-07-2016 23:30:00 15.7 C 87 % 13.54 C
1987 07-07-2016 23:35:00 15.7 C 88 % 13.72 C
1988 07-07-2016 23:40:00 15.7 C 88 % 13.72 C
1989 07-07-2016 23:45:00 15.6 C 88 % 13.62 C
1990 07-07-2016 23:50:00 15.4 C 88 % 13.42 C
1991 07-07-2016 23:55:00 15.4 C 88 % 13.42 C
1992 08-07-2016 00:00:00 15.3 C 88 % 13.33 C
1993 08-07-2016 00:05:00 15.2 C 87 % 13.05 C
1994 08-07-2016 00:10:00 15.1 C 88 % 13.13 C
1995 08-07-2016 00:15:00 14.9 C 88 % 12.93 C
1996 08-07-2016 00:20:00 14.8 C 88 % 12.83 C
1997 08-07-2016 00:25:00 14.8 C 88 % 12.83 C
1998 08-07-2016 00:30:00 14.7 C 89 % 12.91 C
1999 08-07-2016 00:35:00 14.6 C 89 % 12.81 C
2000 08-07-2016 00:40:00 14.5 C 89 % 12.71 C
Sensor: Nr:Datum:Temp:Feuchte:Taupunkt:
Aussen-T/F 2001 08-07-2016 00:45:00 14.4 C 89 % 12.61 C
2002 08-07-2016 00:50:00 14.3 C 89 % 12.51 C
2003 08-07-2016 00:55:00 14.3 C 89 % 12.51 C
2004 08-07-2016 01:00:00 14.3 C 89 % 12.51 C
2005 08-07-2016 01:05:00 14.2 C 89 % 12.41 C
2006 08-07-2016 01:10:00 14.2 C 89 % 12.41 C
2007 08-07-2016 01:15:00 14.1 C 89 % 12.32 C
2008 08-07-2016 01:20:00 14 C 89 % 12.22 C
2009 08-07-2016 01:25:00 13.9 C 89 % 12.12 C
2010 08-07-2016 01:30:00 13.8 C 89 % 12.02 C
2011 08-07-2016 01:35:00 13.8 C 89 % 12.02 C
2012 08-07-2016 01:40:00 13.8 C 90 % 12.19 C
2013 08-07-2016 01:45:00 13.8 C 90 % 12.19 C
2014 08-07-2016 01:50:00 13.8 C 90 % 12.19 C
2015 08-07-2016 01:55:00 13.9 C 90 % 12.29 C
2016 08-07-2016 02:00:00 13.8 C 90 % 12.19 C
2017 08-07-2016 02:05:00 13.8 C 90 % 12.19 C
2018 08-07-2016 02:10:00 13.8 C 91 % 12.36 C
2019 08-07-2016 02:15:00 13.9 C 91 % 12.46 C
2020 08-07-2016 02:20:00 13.9 C 92 % 12.62 C
2021 08-07-2016 02:25:00 14 C 92 % 12.72 C
2022 08-07-2016 02:30:00 14 C 91 % 12.56 C
2023 08-07-2016 02:35:00 13.9 C 91 % 12.46 C
2024 08-07-2016 02:40:00 13.9 C 91 % 12.46 C
2025 08-07-2016 02:45:00 13.8 C 92 % 12.52 C
Sensor: Nr:Datum:Temp:Feuchte:Taupunkt:
Aussen-T/F 2026 08-07-2016 02:50:00 13.7 C 91 % 12.26 C
2027 08-07-2016 02:55:00 13.6 C 91 % 12.16 C
2028 08-07-2016 03:00:00 13.5 C 92 % 12.23 C
2029 08-07-2016 03:05:00 13.4 C 91 % 11.96 C
2030 08-07-2016 03:10:00 13.2 C 91 % 11.76 C
2031 08-07-2016 03:15:00 13.1 C 92 % 11.83 C
2032 08-07-2016 03:20:00 13.1 C 92 % 11.83 C
2033 08-07-2016 03:25:00 13.1 C 92 % 11.83 C
2034 08-07-2016 03:30:00 13 C 92 % 11.73 C
2035 08-07-2016 03:35:00 12.9 C 92 % 11.63 C
2036 08-07-2016 03:40:00 12.9 C 92 % 11.63 C
2037 08-07-2016 03:45:00 12.8 C 92 % 11.53 C
2038 08-07-2016 03:50:00 12.9 C 93 % 11.8 C
2039 08-07-2016 03:55:00 12.9 C 93 % 11.8 C
2040 08-07-2016 04:00:00 12.8 C 93 % 11.7 C
2041 08-07-2016 04:05:00 12.8 C 93 % 11.7 C
2042 08-07-2016 04:10:00 12.8 C 93 % 11.7 C
2043 08-07-2016 04:15:00 12.8 C 93 % 11.7 C
2044 08-07-2016 04:20:00 12.8 C 93 % 11.7 C
2045 08-07-2016 04:25:00 12.8 C 93 % 11.7 C
2046 08-07-2016 04:30:00 12.8 C 93 % 11.7 C
2047 08-07-2016 04:35:00 12.8 C 93 % 11.7 C
2048 08-07-2016 04:40:00 12.9 C 94 % 11.96 C
2049 08-07-2016 04:45:00 12.9 C 94 % 11.96 C
2050 08-07-2016 04:50:00 12.9 C 93 % 11.8 C
Sensor: Nr:Datum:Temp:Feuchte:Taupunkt:
Aussen-T/F 2051 08-07-2016 04:55:00 12.8 C 93 % 11.7 C
2052 08-07-2016 05:00:00 12.7 C 93 % 11.6 C
2053 08-07-2016 05:05:00 12.7 C 94 % 11.76 C
2054 08-07-2016 05:10:00 12.8 C 93 % 11.7 C
2055 08-07-2016 05:15:00 12.7 C 93 % 11.6 C
2056 08-07-2016 05:20:00 12.7 C 93 % 11.6 C
2057 08-07-2016 05:25:00 12.6 C 93 % 11.5 C
2058 08-07-2016 05:30:00 12.6 C 93 % 11.5 C
2059 08-07-2016 05:35:00 12.5 C 93 % 11.4 C
2060 08-07-2016 05:40:00 12.5 C 94 % 11.56 C
2061 08-07-2016 05:45:00 12.5 C 94 % 11.56 C
2062 08-07-2016 05:50:00 12.4 C 94 % 11.46 C
2063 08-07-2016 05:55:00 12.5 C 94 % 11.56 C
2064 08-07-2016 06:00:00 12.6 C 94 % 11.66 C
2065 08-07-2016 06:05:00 12.7 C 94 % 11.76 C
2066 08-07-2016 06:10:00 12.7 C 94 % 11.76 C
2067 08-07-2016 06:15:00 12.7 C 94 % 11.76 C
2068 08-07-2016 06:20:00 12.7 C 94 % 11.76 C
2069 08-07-2016 06:25:00 12.7 C 94 % 11.76 C
2070 08-07-2016 06:30:00 12.8 C 95 % 12.02 C
2071 08-07-2016 06:35:00 12.9 C 95 % 12.12 C
2072 08-07-2016 06:40:00 12.9 C 95 % 12.12 C
2073 08-07-2016 06:45:00 13 C 94 % 12.06 C
2074 08-07-2016 06:50:00 13 C 94 % 12.06 C
2075 08-07-2016 06:55:00 13 C 94 % 12.06 C
Sensor: Nr:Datum:Temp:Feuchte:Taupunkt:
Aussen-T/F 2076 08-07-2016 07:00:00 13 C 94 % 12.06 C
2077 08-07-2016 07:05:00 13 C 94 % 12.06 C
2078 08-07-2016 07:10:00 12.9 C 94 % 11.96 C
2079 08-07-2016 07:15:00 13 C 94 % 12.06 C
2080 08-07-2016 07:20:00 13 C 94 % 12.06 C
2081 08-07-2016 07:25:00 13.1 C 94 % 12.16 C
2082 08-07-2016 07:30:00 13.1 C 94 % 12.16 C
2083 08-07-2016 07:35:00 13.2 C 94 % 12.26 C
2084 08-07-2016 07:40:00 13.2 C 94 % 12.26 C
2085 08-07-2016 07:45:00 13.3 C 94 % 12.36 C
2086 08-07-2016 07:50:00 13.3 C 94 % 12.36 C
2087 08-07-2016 07:55:00 13.4 C 94 % 12.45 C
2088 08-07-2016 08:00:00 13.6 C 94 % 12.65 C
2089 08-07-2016 08:05:00 13.7 C 94 % 12.75 C
2090 08-07-2016 08:10:00 13.8 C 94 % 12.85 C
2091 08-07-2016 08:15:00 13.9 C 94 % 12.95 C
2092 08-07-2016 08:20:00 14.1 C 94 % 13.15 C
2093 08-07-2016 08:25:00 14.3 C 94 % 13.35 C
2094 08-07-2016 08:30:00 14.4 C 94 % 13.45 C
2095 08-07-2016 08:35:00 14.6 C 93 % 13.48 C
2096 08-07-2016 08:40:00 14.8 C 93 % 13.68 C
2097 08-07-2016 08:45:00 14.9 C 93 % 13.78 C
2098 08-07-2016 08:50:00 15.1 C 93 % 13.98 C
2099 08-07-2016 08:55:00 15.2 C 92 % 13.91 C
2100 08-07-2016 09:00:00 15.4 C 91 % 13.94 C
Sensor: Nr:Datum:Temp:Feuchte:Taupunkt:
Aussen-T/F 2101 08-07-2016 09:05:00 15.6 C 91 % 14.14 C
2102 08-07-2016 09:10:00 15.7 C 91 % 14.24 C
2103 08-07-2016 09:15:00 15.8 C 91 % 14.33 C
2104 08-07-2016 09:20:00 15.9 C 91 % 14.43 C
2105 08-07-2016 09:25:00 16 C 91 % 14.53 C
2106 08-07-2016 09:30:00 16.2 C 91 % 14.73 C
2107 08-07-2016 09:35:00 16.3 C 91 % 14.83 C
2108 08-07-2016 09:40:00 16.4 C 91 % 14.93 C
2109 08-07-2016 09:45:00 16.6 C 91 % 15.13 C
2110 08-07-2016 09:50:00 16.8 C 91 % 15.32 C
2111 08-07-2016 09:55:00 17.1 C 91 % 15.62 C
2112 08-07-2016 10:00:00 17.3 C 91 % 15.82 C
2113 08-07-2016 10:05:00 17.6 C 90 % 15.94 C
2114 08-07-2016 10:10:00 17.8 C 90 % 16.14 C
2115 08-07-2016 10:15:00 18.2 C 89 % 16.36 C
2116 08-07-2016 10:20:00 18.5 C 89 % 16.65 C
2117 08-07-2016 10:25:00 18.8 C 89 % 16.95 C
2118 08-07-2016 10:30:00 19.1 C 88 % 17.07 C
2119 08-07-2016 10:35:00 19.4 C 88 % 17.36 C
2120 08-07-2016 10:40:00 19.8 C 87 % 17.57 C
2121 08-07-2016 10:45:00 20.2 C 83 % 17.22 C
2122 08-07-2016 10:50:00 20.7 C 80 % 17.13 C
2123 08-07-2016 10:55:00 21 C 81 % 17.61 C
2124 08-07-2016 11:00:00 21.2 C 78 % 17.21 C
2125 08-07-2016 11:05:00 21.4 C 73 % 16.36 C
Sensor: Nr:Datum:Temp:Feuchte:Taupunkt:
Aussen-T/F 2126 08-07-2016 11:10:00 21.7 C 71 % 16.21 C
2127 08-07-2016 11:15:00 22 C 73 % 16.94 C
2128 08-07-2016 11:20:00 22.2 C 71 % 16.69 C
2129 08-07-2016 11:25:00 22.4 C 66 % 15.74 C
2130 08-07-2016 11:30:00 22.7 C 71 % 17.17 C
2131 08-07-2016 11:35:00 22.9 C 69 % 16.91 C
2132 08-07-2016 11:40:00 23.1 C 67 % 16.64 C
2133 08-07-2016 11:45:00 23.2 C 69 % 17.2 C
2134 08-07-2016 11:50:00 23.3 C 69 % 17.29 C
2135 08-07-2016 11:55:00 23.2 C 67 % 16.73 C
2136 08-07-2016 12:00:00 23.2 C 66 % 16.5 C
2137 08-07-2016 12:05:00 23.2 C 67 % 16.73 C
2138 08-07-2016 12:10:00 23.3 C 68 % 17.06 C
2139 08-07-2016 12:15:00 23.4 C 68 % 17.16 C
2140 08-07-2016 12:20:00 23.5 C 65 % 16.54 C
2141 08-07-2016 12:25:00 23.8 C 68 % 17.54 C
2142 08-07-2016 12:30:00 24.1 C 62 % 16.37 C
2143 08-07-2016 12:35:00 24.4 C 62 % 16.65 C
2144 08-07-2016 12:40:00 24.6 C 60 % 16.32 C
2145 08-07-2016 12:45:00 24.8 C 60 % 16.51 C
2146 08-07-2016 12:50:00 25 C 64 % 17.72 C
2147 08-07-2016 12:55:00 25.1 C 63 % 17.56 C
2148 08-07-2016 13:00:00 25.1 C 63 % 17.56 C
2149 08-07-2016 13:05:00 25.2 C 61 % 17.14 C
2150 08-07-2016 13:10:00 25.2 C 60 % 16.88 C
Sensor: Nr:Datum:Temp:Feuchte:Taupunkt:
Aussen-T/F 2151 08-07-2016 13:15:00 25.3 C 62 % 17.5 C
2152 08-07-2016 13:20:00 25.4 C 64 % 18.09 C
2153 08-07-2016 13:25:00 25.3 C 64 % 18 C
2154 08-07-2016 13:30:00 25.3 C 67 % 18.73 C
2155 08-07-2016 13:35:00 25.2 C 61 % 17.14 C
2156 08-07-2016 13:40:00 25.2 C 68 % 18.87 C
2157 08-07-2016 13:45:00 25.2 C 68 % 18.87 C
2158 08-07-2016 13:50:00 25.2 C 64 % 17.9 C
2159 08-07-2016 13:55:00 25.4 C 59 % 16.81 C
2160 08-07-2016 14:00:00 25.6 C 68 % 19.25 C
2161 08-07-2016 14:05:00 25.7 C 63 % 18.13 C
2162 08-07-2016 14:10:00 25.9 C 62 % 18.06 C
2163 08-07-2016 14:15:00 26.1 C 57 % 16.92 C
2164 08-07-2016 14:20:00 26.2 C 54 % 16.16 C
2165 08-07-2016 14:25:00 26.2 C 58 % 17.28 C
2166 08-07-2016 14:30:00 26.1 C 56 % 16.64 C
2167 08-07-2016 14:35:00 26 C 56 % 16.54 C
2168 08-07-2016 14:40:00 25.9 C 59 % 17.27 C
2169 08-07-2016 14:45:00 25.8 C 54 % 15.79 C
2170 08-07-2016 14:50:00 25.7 C 60 % 17.35 C
2171 08-07-2016 14:55:00 25.4 C 59 % 16.81 C
2172 08-07-2016 15:00:00 25.3 C 62 % 17.5 C
2173 08-07-2016 15:05:00 25.1 C 64 % 17.81 C
2174 08-07-2016 15:10:00 24.8 C 65 % 17.77 C
2175 08-07-2016 15:15:00 24.6 C 67 % 18.06 C
Sensor: Nr:Datum:Temp:Feuchte:Taupunkt:
Aussen-T/F 2176 08-07-2016 15:20:00 24.4 C 68 % 18.11 C
2177 08-07-2016 15:25:00 24.4 C 62 % 16.65 C
2178 08-07-2016 15:30:00 24.4 C 62 % 16.65 C
2179 08-07-2016 15:35:00 24.4 C 65 % 17.39 C
2180 08-07-2016 15:40:00 24.3 C 66 % 17.54 C
2181 08-07-2016 15:45:00 24.1 C 69 % 18.06 C
2182 08-07-2016 15:50:00 23.7 C 65 % 16.73 C
2183 08-07-2016 15:55:00 23.5 C 66 % 16.78 C
2184 08-07-2016 16:00:00 23.4 C 67 % 16.92 C
2185 08-07-2016 16:05:00 23.3 C 70 % 17.52 C
2186 08-07-2016 16:10:00 23.3 C 67 % 16.83 C
2187 08-07-2016 16:15:00 23.3 C 65 % 16.35 C
2188 08-07-2016 16:20:00 23.4 C 68 % 17.16 C
2189 08-07-2016 16:25:00 23.5 C 69 % 17.48 C
2190 08-07-2016 16:30:00 23.6 C 67 % 17.11 C
2191 08-07-2016 16:35:00 23.7 C 67 % 17.21 C
2192 08-07-2016 16:40:00 23.7 C 67 % 17.21 C
2193 08-07-2016 16:45:00 23.7 C 64 % 16.49 C
2194 08-07-2016 16:50:00 23.7 C 68 % 17.44 C
2195 08-07-2016 16:55:00 23.6 C 69 % 17.58 C
2196 08-07-2016 17:00:00 23.4 C 70 % 17.62 C
2197 08-07-2016 17:05:00 23.3 C 68 % 17.06 C
2198 08-07-2016 17:10:00 23.4 C 73 % 18.28 C
2199 08-07-2016 17:15:00 23.6 C 73 % 18.48 C
2200 08-07-2016 17:20:00 23.9 C 71 % 18.32 C
Sensor: Nr:Datum:Temp:Feuchte:Taupunkt:
Aussen-T/F 2201 08-07-2016 17:25:00 24.1 C 68 % 17.82 C
2202 08-07-2016 17:30:00 24.2 C 68 % 17.92 C
2203 08-07-2016 17:35:00 24.1 C 70 % 18.29 C
2204 08-07-2016 17:40:00 23.8 C 70 % 18 C
2205 08-07-2016 17:45:00 23.4 C 71 % 17.84 C
2206 08-07-2016 17:50:00 23.2 C 72 % 17.87 C
2207 08-07-2016 17:55:00 23 C 75 % 18.33 C
2208 08-07-2016 18:00:00 22.8 C 75 % 18.14 C
2209 08-07-2016 18:05:00 22.6 C 75 % 17.94 C
2210 08-07-2016 18:10:00 22.4 C 77 % 18.17 C
2211 08-07-2016 18:15:00 22.3 C 77 % 18.07 C
2212 08-07-2016 18:20:00 22.2 C 76 % 17.77 C
2213 08-07-2016 18:25:00 22.2 C 77 % 17.98 C
2214 08-07-2016 18:30:00 22.1 C 77 % 17.88 C
2215 08-07-2016 18:35:00 22.1 C 76 % 17.67 C
2216 08-07-2016 18:40:00 22.1 C 76 % 17.67 C
2217 08-07-2016 18:45:00 22.1 C 77 % 17.88 C
2218 08-07-2016 18:50:00 22.1 C 76 % 17.67 C
2219 08-07-2016 18:55:00 22.1 C 77 % 17.88 C
2220 08-07-2016 19:00:00 22.1 C 77 % 17.88 C
2221 08-07-2016 19:05:00 22.2 C 79 % 18.38 C
2222 08-07-2016 19:10:00 22.2 C 79 % 18.38 C
2223 08-07-2016 19:15:00 22.3 C 78 % 18.28 C
2224 08-07-2016 19:20:00 22.3 C 78 % 18.28 C
2225 08-07-2016 19:25:00 22.4 C 79 % 18.58 C
Sensor: Nr:Datum:Temp:Feuchte:Taupunkt:
Aussen-T/F 2226 08-07-2016 19:30:00 22.4 C 78 % 18.37 C
2227 08-07-2016 19:35:00 22.3 C 77 % 18.07 C
2228 08-07-2016 19:40:00 22.3 C 77 % 18.07 C
2229 08-07-2016 19:45:00 22.3 C 77 % 18.07 C
2230 08-07-2016 19:50:00 22.2 C 77 % 17.98 C
2231 08-07-2016 19:55:00 22.2 C 77 % 17.98 C
2232 08-07-2016 20:00:00 22.2 C 78 % 18.18 C
2233 08-07-2016 20:05:00 22.2 C 78 % 18.18 C
2234 08-07-2016 20:10:00 22.1 C 78 % 18.08 C
2235 08-07-2016 20:15:00 22.1 C 78 % 18.08 C
2236 08-07-2016 20:20:00 22 C 78 % 17.99 C
2237 08-07-2016 20:25:00 21.9 C 79 % 18.09 C
2238 08-07-2016 20:30:00 22.1 C 79 % 18.29 C
2239 08-07-2016 20:35:00 22.2 C 79 % 18.38 C
2240 08-07-2016 20:40:00 22.2 C 78 % 18.18 C
2241 08-07-2016 20:45:00 22.2 C 77 % 17.98 C
2242 08-07-2016 20:50:00 22.1 C 77 % 17.88 C
2243 08-07-2016 20:55:00 21.9 C 77 % 17.68 C
2244 08-07-2016 21:00:00 21.8 C 78 % 17.79 C
2245 08-07-2016 21:05:00 21.7 C 78 % 17.7 C
2246 08-07-2016 21:10:00 21.6 C 77 % 17.39 C
2247 08-07-2016 21:15:00 21.6 C 78 % 17.6 C
2248 08-07-2016 21:20:00 21.5 C 78 % 17.5 C
2249 08-07-2016 21:25:00 21.4 C 76 % 16.99 C
2250 08-07-2016 21:30:00 21.3 C 78 % 17.31 C
Sensor: Nr:Datum:Temp:Feuchte:Taupunkt:
Aussen-T/F 2251 08-07-2016 21:35:00 21.2 C 77 % 17.01 C
2252 08-07-2016 21:40:00 21.1 C 75 % 16.5 C
2253 08-07-2016 21:45:00 21.1 C 75 % 16.5 C
2254 08-07-2016 21:50:00 21 C 76 % 16.61 C
2255 08-07-2016 21:55:00 20.9 C 77 % 16.72 C
2256 08-07-2016 22:00:00 20.8 C 78 % 16.82 C
2257 08-07-2016 22:05:00 20.6 C 78 % 16.63 C
2258 08-07-2016 22:10:00 20.3 C 79 % 16.54 C
2259 08-07-2016 22:15:00 20.2 C 79 % 16.44 C
2260 08-07-2016 22:20:00 20 C 80 % 16.44 C
2261 08-07-2016 22:25:00 19.8 C 79 % 16.05 C
2262 08-07-2016 22:30:00 19.9 C 79 % 16.15 C
2263 08-07-2016 22:35:00 19.9 C 80 % 16.35 C
2264 08-07-2016 22:40:00 19.8 C 80 % 16.25 C
2265 08-07-2016 22:45:00 19.7 C 79 % 15.96 C
2266 08-07-2016 22:50:00 19.8 C 80 % 16.25 C
2267 08-07-2016 22:55:00 19.8 C 79 % 16.05 C
2268 08-07-2016 23:00:00 19.8 C 80 % 16.25 C
2269 08-07-2016 23:05:00 19.7 C 80 % 16.15 C
2270 08-07-2016 23:10:00 19.5 C 81 % 16.15 C
2271 08-07-2016 23:15:00 19.3 C 81 % 15.96 C
2272 08-07-2016 23:20:00 19.3 C 82 % 16.15 C
2273 08-07-2016 23:25:00 19.2 C 82 % 16.05 C
2274 08-07-2016 23:30:00 19.2 C 82 % 16.05 C
2275 08-07-2016 23:35:00 19.1 C 83 % 16.15 C
Sensor: Nr:Datum:Temp:Feuchte:Taupunkt:
Aussen-T/F 2276 08-07-2016 23:40:00 19 C 83 % 16.05 C
2277 08-07-2016 23:45:00 18.9 C 83 % 15.95 C
2278 08-07-2016 23:50:00 18.9 C 83 % 15.95 C
2279 08-07-2016 23:55:00 18.8 C 83 % 15.85 C
2280 09-07-2016 00:00:00 18.8 C 83 % 15.85 C
2281 09-07-2016 00:05:00 18.7 C 83 % 15.75 C
2282 09-07-2016 00:10:00 18.7 C 84 % 15.94 C
2283 09-07-2016 00:15:00 18.7 C 84 % 15.94 C
2284 09-07-2016 00:20:00 18.7 C 84 % 15.94 C
2285 09-07-2016 00:25:00 18.6 C 84 % 15.84 C
2286 09-07-2016 00:30:00 18.5 C 84 % 15.75 C
2287 09-07-2016 00:35:00 18.4 C 84 % 15.65 C
2288 09-07-2016 00:40:00 18.3 C 84 % 15.55 C
2289 09-07-2016 00:45:00 18.2 C 84 % 15.45 C
2290 09-07-2016 00:50:00 18.1 C 85 % 15.54 C
2291 09-07-2016 00:55:00 18 C 85 % 15.44 C
2292 09-07-2016 01:00:00 17.9 C 85 % 15.34 C
2293 09-07-2016 01:05:00 17.9 C 86 % 15.53 C
2294 09-07-2016 01:10:00 17.9 C 85 % 15.34 C
2295 09-07-2016 01:15:00 17.9 C 85 % 15.34 C
2296 09-07-2016 01:20:00 17.9 C 85 % 15.34 C
2297 09-07-2016 01:25:00 17.9 C 86 % 15.53 C
2298 09-07-2016 01:30:00 17.9 C 86 % 15.53 C
2299 09-07-2016 01:35:00 17.9 C 86 % 15.53 C
2300 09-07-2016 01:40:00 17.9 C 86 % 15.53 C
Sensor: Nr:Datum:Temp:Feuchte:Taupunkt:
Aussen-T/F 2301 09-07-2016 01:45:00 17.8 C 85 % 15.25 C
2302 09-07-2016 01:50:00 17.7 C 85 % 15.15 C
2303 09-07-2016 01:55:00 17.7 C 85 % 15.15 C
2304 09-07-2016 02:00:00 17.7 C 85 % 15.15 C
2305 09-07-2016 02:05:00 17.6 C 86 % 15.23 C
2306 09-07-2016 02:10:00 17.6 C 86 % 15.23 C
2307 09-07-2016 02:15:00 17.6 C 86 % 15.23 C
2308 09-07-2016 02:20:00 17.5 C 87 % 15.31 C
2309 09-07-2016 02:25:00 17.4 C 86 % 15.03 C
2310 09-07-2016 02:30:00 17.3 C 86 % 14.94 C
2311 09-07-2016 02:35:00 17.3 C 87 % 15.12 C
2312 09-07-2016 02:40:00 17.3 C 87 % 15.12 C
2313 09-07-2016 02:45:00 17.3 C 87 % 15.12 C
2314 09-07-2016 02:50:00 17.2 C 88 % 15.2 C
2315 09-07-2016 02:55:00 17.3 C 88 % 15.29 C
2316 09-07-2016 03:00:00 17.3 C 88 % 15.29 C
2317 09-07-2016 03:05:00 17.3 C 88 % 15.29 C
2318 09-07-2016 03:10:00 17.3 C 87 % 15.12 C
2319 09-07-2016 03:15:00 17.2 C 86 % 14.84 C
2320 09-07-2016 03:20:00 17.3 C 86 % 14.94 C
2321 09-07-2016 03:25:00 17.3 C 86 % 14.94 C
2322 09-07-2016 03:30:00 17.3 C 86 % 14.94 C
2323 09-07-2016 03:35:00 17.3 C 86 % 14.94 C
2324 09-07-2016 03:40:00 17.4 C 85 % 14.85 C
2325 09-07-2016 03:45:00 17.4 C 85 % 14.85 C
Sensor: Nr:Datum:Temp:Feuchte:Taupunkt:
Aussen-T/F 2326 09-07-2016 03:50:00 17.4 C 85 % 14.85 C
2327 09-07-2016 03:55:00 17.4 C 85 % 14.85 C
2328 09-07-2016 04:00:00 17.4 C 85 % 14.85 C
2329 09-07-2016 04:05:00 17.4 C 85 % 14.85 C
2330 09-07-2016 04:10:00 17.4 C 86 % 15.03 C
2331 09-07-2016 04:15:00 17.3 C 86 % 14.94 C
2332 09-07-2016 04:20:00 17.3 C 86 % 14.94 C
2333 09-07-2016 04:25:00 17.3 C 86 % 14.94 C
2334 09-07-2016 04:30:00 17.2 C 86 % 14.84 C
2335 09-07-2016 04:35:00 17.2 C 86 % 14.84 C
2336 09-07-2016 04:40:00 17.2 C 86 % 14.84 C
2337 09-07-2016 04:45:00 17.2 C 86 % 14.84 C
2338 09-07-2016 04:50:00 17.2 C 86 % 14.84 C
2339 09-07-2016 04:55:00 17.2 C 86 % 14.84 C
2340 09-07-2016 05:00:00 17.2 C 86 % 14.84 C
2341 09-07-2016 05:05:00 17.2 C 86 % 14.84 C
2342 09-07-2016 05:10:00 17.2 C 86 % 14.84 C
2343 09-07-2016 05:15:00 17.2 C 86 % 14.84 C
2344 09-07-2016 05:20:00 17.2 C 87 % 15.02 C
2345 09-07-2016 05:25:00 17.2 C 86 % 14.84 C
2346 09-07-2016 05:30:00 17.2 C 87 % 15.02 C
2347 09-07-2016 05:35:00 17.2 C 87 % 15.02 C
2348 09-07-2016 05:40:00 17.2 C 87 % 15.02 C
2349 09-07-2016 05:45:00 17.2 C 87 % 15.02 C
2350 09-07-2016 05:50:00 17.2 C 87 % 15.02 C
Sensor: Nr:Datum:Temp:Feuchte:Taupunkt:
Aussen-T/F 2351 09-07-2016 05:55:00 17.2 C 87 % 15.02 C
2352 09-07-2016 06:00:00 17.2 C 87 % 15.02 C
2353 09-07-2016 06:05:00 17.3 C 88 % 15.29 C
2354 09-07-2016 06:10:00 17.3 C 88 % 15.29 C
2355 09-07-2016 06:15:00 17.3 C 88 % 15.29 C
2356 09-07-2016 06:20:00 17.3 C 87 % 15.12 C
2357 09-07-2016 06:25:00 17.3 C 87 % 15.12 C
2358 09-07-2016 06:30:00 17.4 C 88 % 15.39 C
2359 09-07-2016 06:35:00 17.4 C 88 % 15.39 C
2360 09-07-2016 06:40:00 17.4 C 87 % 15.21 C
2361 09-07-2016 06:45:00 17.5 C 87 % 15.31 C
2362 09-07-2016 06:50:00 17.6 C 86 % 15.23 C
2363 09-07-2016 06:55:00 17.7 C 86 % 15.33 C
2364 09-07-2016 07:00:00 17.7 C 86 % 15.33 C
2365 09-07-2016 07:05:00 17.8 C 86 % 15.43 C
2366 09-07-2016 07:10:00 17.8 C 85 % 15.25 C
2367 09-07-2016 07:15:00 17.9 C 85 % 15.34 C
2368 09-07-2016 07:20:00 18.1 C 84 % 15.35 C
2369 09-07-2016 07:25:00 18.2 C 84 % 15.45 C
2370 09-07-2016 07:30:00 18.2 C 84 % 15.45 C
2371 09-07-2016 07:35:00 18.2 C 84 % 15.45 C
2372 09-07-2016 07:40:00 18.3 C 84 % 15.55 C
2373 09-07-2016 07:45:00 18.3 C 85 % 15.74 C
2374 09-07-2016 07:50:00 18.3 C 85 % 15.74 C
2375 09-07-2016 07:55:00 18.3 C 85 % 15.74 C
Sensor: Nr:Datum:Temp:Feuchte:Taupunkt:
Aussen-T/F 2376 09-07-2016 08:00:00 18.3 C 86 % 15.92 C
2377 09-07-2016 08:05:00 18.3 C 85 % 15.74 C
2378 09-07-2016 08:10:00 18.4 C 85 % 15.83 C
2379 09-07-2016 08:15:00 18.5 C 85 % 15.93 C
2380 09-07-2016 08:20:00 18.7 C 85 % 16.13 C
2381 09-07-2016 08:25:00 18.8 C 84 % 16.04 C
2382 09-07-2016 08:30:00 18.8 C 84 % 16.04 C
2383 09-07-2016 08:35:00 18.9 C 85 % 16.32 C
2384 09-07-2016 08:40:00 19 C 83 % 16.05 C
2385 09-07-2016 08:45:00 19.1 C 84 % 16.33 C
2386 09-07-2016 08:50:00 19.2 C 83 % 16.24 C
2387 09-07-2016 08:55:00 19.3 C 82 % 16.15 C
2388 09-07-2016 09:00:00 19.4 C 81 % 16.06 C
2389 09-07-2016 09:05:00 19.6 C 81 % 16.25 C
2390 09-07-2016 09:10:00 19.7 C 79 % 15.96 C
2391 09-07-2016 09:15:00 19.8 C 80 % 16.25 C
2392 09-07-2016 09:20:00 19.9 C 80 % 16.35 C
2393 09-07-2016 09:25:00 20 C 78 % 16.05 C
2394 09-07-2016 09:30:00 20.1 C 78 % 16.14 C
2395 09-07-2016 09:35:00 20.1 C 78 % 16.14 C
2396 09-07-2016 09:40:00 20.1 C 79 % 16.34 C
2397 09-07-2016 09:45:00 20.2 C 77 % 16.04 C
2398 09-07-2016 09:50:00 20.3 C 77 % 16.14 C
2399 09-07-2016 09:55:00 20.6 C 78 % 16.63 C
2400 09-07-2016 10:00:00 20.6 C 75 % 16.01 C
Sensor: Nr:Datum:Temp:Feuchte:Taupunkt:
Aussen-T/F 2401 09-07-2016 10:05:00 20.6 C 76 % 16.22 C
2402 09-07-2016 10:10:00 20.6 C 76 % 16.22 C
2403 09-07-2016 10:15:00 20.8 C 76 % 16.41 C
2404 09-07-2016 10:20:00 21.1 C 75 % 16.5 C
2405 09-07-2016 10:25:00 21.2 C 73 % 16.17 C
2406 09-07-2016 10:30:00 21.2 C 73 % 16.17 C
2407 09-07-2016 10:35:00 21.3 C 74 % 16.48 C
2408 09-07-2016 10:40:00 21.3 C 73 % 16.26 C
2409 09-07-2016 10:45:00 21.5 C 72 % 16.24 C
2410 09-07-2016 10:50:00 21.5 C 74 % 16.67 C
2411 09-07-2016 10:55:00 21.5 C 73 % 16.46 C
2412 09-07-2016 11:00:00 21.5 C 72 % 16.24 C
2413 09-07-2016 11:05:00 21.7 C 72 % 16.43 C
2414 09-07-2016 11:10:00 21.8 C 73 % 16.75 C
2415 09-07-2016 11:15:00 21.9 C 70 % 16.18 C
2416 09-07-2016 11:20:00 22 C 74 % 17.15 C
2417 09-07-2016 11:25:00 21.9 C 70 % 16.18 C
2418 09-07-2016 11:30:00 21.8 C 70 % 16.09 C
2419 09-07-2016 11:35:00 21.7 C 70 % 15.99 C
2420 09-07-2016 11:40:00 21.7 C 72 % 16.43 C
2421 09-07-2016 11:45:00 21.8 C 72 % 16.53 C
2422 09-07-2016 11:50:00 21.9 C 71 % 16.4 C
2423 09-07-2016 11:55:00 22.1 C 72 % 16.82 C
2424 09-07-2016 12:00:00 22.1 C 71 % 16.6 C
2425 09-07-2016 12:05:00 22.2 C 69 % 16.24 C
Sensor: Nr:Datum:Temp:Feuchte:Taupunkt:
Aussen-T/F 2426 09-07-2016 12:10:00 22.2 C 68 % 16.01 C
2427 09-07-2016 12:15:00 22.2 C 72 % 16.91 C
2428 09-07-2016 12:20:00 22.2 C 68 % 16.01 C
2429 09-07-2016 12:25:00 22.3 C 70 % 16.56 C
2430 09-07-2016 12:30:00 22.5 C 68 % 16.3 C
2431 09-07-2016 12:35:00 22.6 C 67 % 16.16 C
2432 09-07-2016 12:40:00 22.8 C 69 % 16.82 C
2433 09-07-2016 12:45:00 23.1 C 68 % 16.87 C
2434 09-07-2016 12:50:00 23.2 C 67 % 16.73 C
2435 09-07-2016 12:55:00 23.2 C 66 % 16.5 C
2436 09-07-2016 13:00:00 23.2 C 69 % 17.2 C
2437 09-07-2016 13:05:00 23.1 C 69 % 17.1 C
2438 09-07-2016 13:10:00 23.1 C 72 % 17.78 C
2439 09-07-2016 13:15:00 23.1 C 69 % 17.1 C
2440 09-07-2016 13:20:00 23.2 C 65 % 16.26 C
2441 09-07-2016 13:25:00 23.3 C 66 % 16.59 C
2442 09-07-2016 13:30:00 23.5 C 65 % 16.54 C
2443 09-07-2016 13:35:00 23.6 C 63 % 16.14 C
2444 09-07-2016 13:40:00 23.7 C 64 % 16.49 C
2445 09-07-2016 13:45:00 23.7 C 63 % 16.24 C
2446 09-07-2016 13:50:00 23.7 C 64 % 16.49 C
2447 09-07-2016 13:55:00 23.8 C 66 % 17.07 C
2448 09-07-2016 14:00:00 23.8 C 65 % 16.83 C
2449 09-07-2016 14:05:00 23.8 C 61 % 15.83 C
2450 09-07-2016 14:10:00 23.8 C 64 % 16.58 C
Sensor: Nr:Datum:Temp:Feuchte:Taupunkt:
Aussen-T/F 2451 09-07-2016 14:15:00 23.8 C 66 % 17.07 C
2452 09-07-2016 14:20:00 23.9 C 63 % 16.43 C
2453 09-07-2016 14:25:00 24.2 C 64 % 16.96 C
2454 09-07-2016 14:30:00 24.3 C 64 % 17.05 C
2455 09-07-2016 14:35:00 24.3 C 65 % 17.3 C
2456 09-07-2016 14:40:00 24.3 C 66 % 17.54 C
2457 09-07-2016 14:45:00 24.4 C 66 % 17.64 C
2458 09-07-2016 14:50:00 24.4 C 65 % 17.39 C
2459 09-07-2016 14:55:00 24.4 C 65 % 17.39 C
2460 09-07-2016 15:00:00 24.7 C 63 % 17.18 C
2461 09-07-2016 15:05:00 24.8 C 64 % 17.53 C
2462 09-07-2016 15:10:00 24.9 C 61 % 16.86 C
2463 09-07-2016 15:15:00 25.1 C 61 % 17.05 C
2464 09-07-2016 15:20:00 25.5 C 58 % 16.63 C
2465 09-07-2016 15:25:00 25.8 C 58 % 16.91 C
2466 09-07-2016 15:30:00 26.1 C 58 % 17.19 C
2467 09-07-2016 15:35:00 26.3 C 59 % 17.65 C
2468 09-07-2016 15:40:00 26.7 C 56 % 17.19 C
2469 09-07-2016 15:45:00 26.9 C 55 % 17.09 C
2470 09-07-2016 15:50:00 26.7 C 57 % 17.47 C
2471 09-07-2016 15:55:00 26.4 C 58 % 17.47 C
2472 09-07-2016 16:00:00 26.1 C 62 % 18.25 C
2473 09-07-2016 16:05:00 25.9 C 65 % 18.81 C
2474 09-07-2016 16:10:00 25.6 C 64 % 18.28 C
2475 09-07-2016 16:15:00 25.4 C 70 % 19.53 C
Sensor: Nr:Datum:Temp:Feuchte:Taupunkt:
Aussen-T/F 2476 09-07-2016 16:20:00 25.5 C 66 % 18.68 C
2477 09-07-2016 16:25:00 25.5 C 64 % 18.19 C
2478 09-07-2016 16:30:00 25.5 C 65 % 18.44 C
2479 09-07-2016 16:35:00 25.4 C 69 % 19.3 C
2480 09-07-2016 16:40:00 25.6 C 61 % 17.52 C
2481 09-07-2016 16:45:00 25.7 C 62 % 17.87 C
2482 09-07-2016 16:50:00 25.5 C 63 % 17.94 C
2483 09-07-2016 16:55:00 25.4 C 64 % 18.09 C
2484 09-07-2016 17:00:00 25.9 C 60 % 17.54 C
2485 09-07-2016 17:05:00 26.2 C 59 % 17.55 C
2486 09-07-2016 17:10:00 26.4 C 63 % 18.79 C
2487 09-07-2016 17:15:00 26.4 C 64 % 19.04 C
2488 09-07-2016 17:20:00 26.3 C 63 % 18.69 C
2489 09-07-2016 17:25:00 26 C 66 % 19.15 C
2490 09-07-2016 17:30:00 25.7 C 67 % 19.11 C
2491 09-07-2016 17:35:00 25.6 C 71 % 19.95 C
2492 09-07-2016 17:40:00 25.9 C 61 % 17.8 C
2493 09-07-2016 17:45:00 26.6 C 58 % 17.66 C
2494 09-07-2016 17:50:00 27.2 C 55 % 17.37 C
2495 09-07-2016 17:55:00 27.6 C 58 % 18.59 C
2496 09-07-2016 18:00:00 27.5 C 60 % 19.04 C
2497 09-07-2016 18:05:00 27.3 C 62 % 19.38 C
2498 09-07-2016 18:10:00 27.1 C 62 % 19.19 C
2499 09-07-2016 18:15:00 26.9 C 64 % 19.51 C
2500 09-07-2016 18:20:00 26.7 C 65 % 19.57 C
Sensor: Nr:Datum:Temp:Feuchte:Taupunkt:
Aussen-T/F 2501 09-07-2016 18:25:00 26.3 C 65 % 19.19 C
2502 09-07-2016 18:30:00 26 C 69 % 19.87 C
2503 09-07-2016 18:35:00 25.7 C 69 % 19.58 C
2504 09-07-2016 18:40:00 25.5 C 71 % 19.85 C
2505 09-07-2016 18:45:00 25.4 C 71 % 19.76 C
2506 09-07-2016 18:50:00 25.3 C 71 % 19.66 C
2507 09-07-2016 18:55:00 25.1 C 72 % 19.69 C
2508 09-07-2016 19:00:00 24.8 C 72 % 19.41 C
2509 09-07-2016 19:05:00 24.5 C 73 % 19.34 C
2510 09-07-2016 19:10:00 24.4 C 73 % 19.24 C
2511 09-07-2016 19:15:00 24.8 C 71 % 19.18 C
2512 09-07-2016 19:20:00 25.2 C 70 % 19.34 C
2513 09-07-2016 19:25:00 25.1 C 68 % 18.78 C
2514 09-07-2016 19:30:00 24.8 C 69 % 18.72 C
2515 09-07-2016 19:35:00 24.7 C 72 % 19.31 C
2516 09-07-2016 19:40:00 24.7 C 71 % 19.09 C
2517 09-07-2016 19:45:00 24.6 C 72 % 19.21 C
2518 09-07-2016 19:50:00 24.6 C 71 % 18.99 C
2519 09-07-2016 19:55:00 24.6 C 71 % 18.99 C
2520 09-07-2016 20:00:00 24.7 C 72 % 19.31 C
2521 09-07-2016 20:05:00 24.8 C 71 % 19.18 C
2522 09-07-2016 20:10:00 24.8 C 71 % 19.18 C
2523 09-07-2016 20:15:00 24.7 C 70 % 18.86 C
2524 09-07-2016 20:20:00 24.6 C 71 % 18.99 C
2525 09-07-2016 20:25:00 24.5 C 72 % 19.12 C
Sensor: Nr:Datum:Temp:Feuchte:Taupunkt:
Aussen-T/F 2526 09-07-2016 20:30:00 24.4 C 71 % 18.8 C
2527 09-07-2016 20:35:00 24.3 C 71 % 18.7 C
2528 09-07-2016 20:40:00 24.2 C 72 % 18.83 C
2529 09-07-2016 20:45:00 23.9 C 72 % 18.54 C
2530 09-07-2016 20:50:00 23.6 C 72 % 18.26 C
2531 09-07-2016 20:55:00 23.3 C 73 % 18.19 C
2532 09-07-2016 21:00:00 23.1 C 73 % 17.99 C
2533 09-07-2016 21:05:00 22.8 C 74 % 17.92 C
2534 09-07-2016 21:10:00 22.5 C 75 % 17.85 C
2535 09-07-2016 21:15:00 22.2 C 75 % 17.56 C
2536 09-07-2016 21:20:00 21.9 C 75 % 17.27 C
2537 09-07-2016 21:25:00 21.7 C 76 % 17.28 C
2538 09-07-2016 21:30:00 21.5 C 77 % 17.3 C
2539 09-07-2016 21:35:00 21.3 C 77 % 17.1 C
2540 09-07-2016 21:40:00 21.2 C 77 % 17.01 C
2541 09-07-2016 21:45:00 21.1 C 78 % 17.11 C
2542 09-07-2016 21:50:00 20.9 C 78 % 16.92 C
2543 09-07-2016 21:55:00 20.7 C 78 % 16.73 C
2544 09-07-2016 22:00:00 20.6 C 78 % 16.63 C
2545 09-07-2016 22:05:00 20.6 C 78 % 16.63 C
2546 09-07-2016 22:10:00 20.4 C 79 % 16.64 C
2547 09-07-2016 22:15:00 20.3 C 80 % 16.74 C
2548 09-07-2016 22:20:00 20.2 C 80 % 16.64 C
2549 09-07-2016 22:25:00 20 C 81 % 16.64 C
2550 09-07-2016 22:30:00 19.8 C 81 % 16.45 C
Sensor: Nr:Datum:Temp:Feuchte:Taupunkt:
Aussen-T/F 2551 09-07-2016 22:35:00 19.6 C 82 % 16.44 C
2552 09-07-2016 22:40:00 19.4 C 82 % 16.25 C
2553 09-07-2016 22:45:00 19.3 C 82 % 16.15 C
2554 09-07-2016 22:50:00 19.2 C 83 % 16.24 C
2555 09-07-2016 22:55:00 19.1 C 83 % 16.15 C
2556 09-07-2016 23:00:00 19.1 C 83 % 16.15 C
2557 09-07-2016 23:05:00 19 C 83 % 16.05 C
2558 09-07-2016 23:10:00 18.9 C 84 % 16.14 C
2559 09-07-2016 23:15:00 18.9 C 84 % 16.14 C
2560 09-07-2016 23:20:00 18.8 C 84 % 16.04 C
2561 09-07-2016 23:25:00 18.8 C 84 % 16.04 C
2562 09-07-2016 23:30:00 18.7 C 84 % 15.94 C
2563 09-07-2016 23:35:00 18.6 C 85 % 16.03 C
2564 09-07-2016 23:40:00 18.5 C 85 % 15.93 C
2565 09-07-2016 23:45:00 18.4 C 85 % 15.83 C
2566 09-07-2016 23:50:00 18.4 C 85 % 15.83 C
2567 09-07-2016 23:55:00 18.3 C 85 % 15.74 C
2568 10-07-2016 00:00:00 18.3 C 86 % 15.92 C
2569 10-07-2016 00:05:00 18.2 C 86 % 15.82 C
2570 10-07-2016 00:10:00 18.2 C 86 % 15.82 C
2571 10-07-2016 00:15:00 18.2 C 86 % 15.82 C
2572 10-07-2016 00:20:00 18.1 C 87 % 15.9 C
2573 10-07-2016 00:25:00 18 C 87 % 15.8 C
2574 10-07-2016 00:30:00 17.9 C 87 % 15.71 C
2575 10-07-2016 00:35:00 17.8 C 87 % 15.61 C
Sensor: Nr:Datum:Temp:Feuchte:Taupunkt:
Aussen-T/F 2576 10-07-2016 00:40:00 17.7 C 88 % 15.69 C
2577 10-07-2016 00:45:00 17.7 C 88 % 15.69 C
2578 10-07-2016 00:50:00 17.6 C 88 % 15.59 C
2579 10-07-2016 00:55:00 17.6 C 88 % 15.59 C
2580 10-07-2016 01:00:00 17.6 C 88 % 15.59 C
2581 10-07-2016 01:05:00 17.5 C 88 % 15.49 C
2582 10-07-2016 01:10:00 17.4 C 88 % 15.39 C
2583 10-07-2016 01:15:00 17.3 C 88 % 15.29 C
2584 10-07-2016 01:20:00 17.2 C 88 % 15.2 C
2585 10-07-2016 01:25:00 17.1 C 89 % 15.27 C
2586 10-07-2016 01:30:00 17.1 C 89 % 15.27 C
2587 10-07-2016 01:35:00 17 C 89 % 15.17 C
2588 10-07-2016 01:40:00 16.9 C 89 % 15.08 C
2589 10-07-2016 01:45:00 16.8 C 90 % 15.15 C
2590 10-07-2016 01:50:00 16.8 C 90 % 15.15 C
2591 10-07-2016 01:55:00 16.8 C 90 % 15.15 C
2592 10-07-2016 02:00:00 16.8 C 90 % 15.15 C
2593 10-07-2016 02:05:00 16.7 C 90 % 15.05 C
2594 10-07-2016 02:10:00 16.7 C 90 % 15.05 C
2595 10-07-2016 02:15:00 16.7 C 90 % 15.05 C
2596 10-07-2016 02:20:00 16.6 C 90 % 14.95 C
2597 10-07-2016 02:25:00 16.6 C 90 % 14.95 C
2598 10-07-2016 02:30:00 16.5 C 90 % 14.85 C
2599 10-07-2016 02:35:00 16.4 C 90 % 14.76 C
2600 10-07-2016 02:40:00 16.3 C 91 % 14.83 C
Sensor: Nr:Datum:Temp:Feuchte:Taupunkt:
Aussen-T/F 2601 10-07-2016 02:45:00 16.2 C 91 % 14.73 C
2602 10-07-2016 02:50:00 16.2 C 91 % 14.73 C
2603 10-07-2016 02:55:00 16.1 C 91 % 14.63 C
2604 10-07-2016 03:00:00 15.9 C 91 % 14.43 C
2605 10-07-2016 03:05:00 15.8 C 91 % 14.33 C
2606 10-07-2016 03:10:00 15.8 C 92 % 14.5 C
2607 10-07-2016 03:15:00 15.7 C 92 % 14.4 C
2608 10-07-2016 03:20:00 15.6 C 92 % 14.31 C
2609 10-07-2016 03:25:00 15.6 C 92 % 14.31 C
2610 10-07-2016 03:30:00 15.5 C 92 % 14.21 C
2611 10-07-2016 03:35:00 15.4 C 92 % 14.11 C
2612 10-07-2016 03:40:00 15.3 C 92 % 14.01 C
2613 10-07-2016 03:45:00 15.2 C 92 % 13.91 C
2614 10-07-2016 03:50:00 15.2 C 93 % 14.08 C
2615 10-07-2016 03:55:00 15.2 C 93 % 14.08 C
2616 10-07-2016 04:00:00 15.1 C 93 % 13.98 C
2617 10-07-2016 04:05:00 15 C 93 % 13.88 C
2618 10-07-2016 04:10:00 15 C 93 % 13.88 C
2619 10-07-2016 04:15:00 15 C 93 % 13.88 C
2620 10-07-2016 04:20:00 14.9 C 93 % 13.78 C
2621 10-07-2016 04:25:00 14.9 C 93 % 13.78 C
2622 10-07-2016 04:30:00 14.9 C 93 % 13.78 C
2623 10-07-2016 04:35:00 14.8 C 94 % 13.84 C
2624 10-07-2016 04:40:00 14.8 C 94 % 13.84 C
2625 10-07-2016 04:45:00 14.8 C 94 % 13.84 C
Sensor: Nr:Datum:Temp:Feuchte:Taupunkt:
Aussen-T/F 2626 10-07-2016 04:50:00 14.7 C 94 % 13.74 C
2627 10-07-2016 04:55:00 14.7 C 93 % 13.58 C
2628 10-07-2016 05:00:00 14.6 C 94 % 13.65 C
2629 10-07-2016 05:05:00 14.6 C 94 % 13.65 C
2630 10-07-2016 05:10:00 14.6 C 94 % 13.65 C
2631 10-07-2016 05:15:00 14.6 C 94 % 13.65 C
2632 10-07-2016 05:20:00 14.7 C 94 % 13.74 C
2633 10-07-2016 05:25:00 14.6 C 94 % 13.65 C
2634 10-07-2016 05:30:00 14.6 C 94 % 13.65 C
2635 10-07-2016 05:35:00 14.5 C 94 % 13.55 C
2636 10-07-2016 05:40:00 14.5 C 94 % 13.55 C
2637 10-07-2016 05:45:00 14.4 C 94 % 13.45 C
2638 10-07-2016 05:50:00 14.5 C 94 % 13.55 C
2639 10-07-2016 05:55:00 14.5 C 94 % 13.55 C
2640 10-07-2016 06:00:00 14.5 C 94 % 13.55 C
2641 10-07-2016 06:05:00 14.6 C 95 % 13.81 C
2642 10-07-2016 06:10:00 14.6 C 95 % 13.81 C
2643 10-07-2016 06:15:00 14.6 C 95 % 13.81 C
2644 10-07-2016 06:20:00 14.7 C 95 % 13.91 C
2645 10-07-2016 06:25:00 14.7 C 95 % 13.91 C
2646 10-07-2016 06:30:00 14.7 C 95 % 13.91 C
2647 10-07-2016 06:35:00 14.8 C 95 % 14.01 C
2648 10-07-2016 06:40:00 14.9 C 95 % 14.11 C
2649 10-07-2016 06:45:00 14.9 C 95 % 14.11 C
2650 10-07-2016 06:50:00 14.9 C 95 % 14.11 C
Sensor: Nr:Datum:Temp:Feuchte:Taupunkt:
Aussen-T/F 2651 10-07-2016 06:55:00 15 C 95 % 14.21 C
2652 10-07-2016 07:00:00 15 C 95 % 14.21 C
2653 10-07-2016 07:05:00 15.1 C 95 % 14.31 C
2654 10-07-2016 07:10:00 15.1 C 95 % 14.31 C
2655 10-07-2016 07:15:00 15.2 C 95 % 14.4 C
2656 10-07-2016 07:20:00 15.2 C 95 % 14.4 C
2657 10-07-2016 07:25:00 15.3 C 95 % 14.5 C
2658 10-07-2016 07:30:00 15.3 C 95 % 14.5 C
2659 10-07-2016 07:35:00 15.4 C 95 % 14.6 C
2660 10-07-2016 07:40:00 15.5 C 95 % 14.7 C
2661 10-07-2016 07:45:00 15.6 C 95 % 14.8 C
2662 10-07-2016 07:50:00 15.7 C 95 % 14.9 C
2663 10-07-2016 07:55:00 15.7 C 95 % 14.9 C
2664 10-07-2016 08:00:00 15.8 C 95 % 15 C
2665 10-07-2016 08:05:00 15.9 C 95 % 15.1 C
2666 10-07-2016 08:10:00 16 C 95 % 15.2 C
2667 10-07-2016 08:15:00 16.1 C 95 % 15.3 C
2668 10-07-2016 08:20:00 16.3 C 95 % 15.5 C
2669 10-07-2016 08:25:00 16.4 C 95 % 15.6 C
2670 10-07-2016 08:30:00 16.6 C 95 % 15.8 C
2671 10-07-2016 08:35:00 16.7 C 94 % 15.73 C
2672 10-07-2016 08:40:00 16.8 C 94 % 15.83 C
2673 10-07-2016 08:45:00 16.8 C 94 % 15.83 C
2674 10-07-2016 08:50:00 16.9 C 94 % 15.93 C
2675 10-07-2016 08:55:00 17 C 94 % 16.03 C
Sensor: Nr:Datum:Temp:Feuchte:Taupunkt:
Aussen-T/F 2676 10-07-2016 09:00:00 17.2 C 94 % 16.23 C
2677 10-07-2016 09:05:00 17.2 C 94 % 16.23 C
2678 10-07-2016 09:10:00 17.3 C 94 % 16.33 C
2679 10-07-2016 09:15:00 17.4 C 93 % 16.26 C
2680 10-07-2016 09:20:00 17.4 C 93 % 16.26 C
2681 10-07-2016 09:25:00 17.5 C 92 % 16.19 C
2682 10-07-2016 09:30:00 17.7 C 93 % 16.55 C
2683 10-07-2016 09:35:00 17.8 C 92 % 16.48 C
2684 10-07-2016 09:40:00 17.9 C 92 % 16.58 C
2685 10-07-2016 09:45:00 18.1 C 92 % 16.78 C
2686 10-07-2016 09:50:00 18.2 C 91 % 16.71 C
2687 10-07-2016 09:55:00 18.3 C 92 % 16.98 C
2688 10-07-2016 10:00:00 18.5 C 91 % 17 C
2689 10-07-2016 10:05:00 18.7 C 91 % 17.2 C
2690 10-07-2016 10:10:00 18.9 C 90 % 17.22 C
2691 10-07-2016 10:15:00 19.1 C 91 % 17.6 C
2692 10-07-2016 10:20:00 19.3 C 91 % 17.79 C
2693 10-07-2016 10:25:00 19.7 C 91 % 18.19 C
2694 10-07-2016 10:30:00 20.1 C 90 % 18.41 C
2695 10-07-2016 10:35:00 20.5 C 89 % 18.62 C
2696 10-07-2016 10:40:00 20.9 C 88 % 18.84 C
2697 10-07-2016 10:45:00 21.3 C 87 % 19.05 C
2698 10-07-2016 10:50:00 21.8 C 85 % 19.16 C
2699 10-07-2016 10:55:00 22.2 C 85 % 19.56 C
2700 10-07-2016 11:00:00 22.4 C 83 % 19.37 C
Sensor: Nr:Datum:Temp:Feuchte:Taupunkt:
Aussen-T/F 2701 10-07-2016 11:05:00 22.6 C 83 % 19.56 C
2702 10-07-2016 11:10:00 22.5 C 84 % 19.66 C
2703 10-07-2016 11:15:00 22.3 C 85 % 19.65 C
2704 10-07-2016 11:20:00 22.2 C 85 % 19.56 C
2705 10-07-2016 11:25:00 22.2 C 86 % 19.75 C
2706 10-07-2016 11:30:00 22.2 C 83 % 19.17 C
2707 10-07-2016 11:35:00 22.5 C 85 % 19.85 C
2708 10-07-2016 11:40:00 22.7 C 82 % 19.47 C
2709 10-07-2016 11:45:00 22.9 C 81 % 19.46 C
2710 10-07-2016 11:50:00 23.2 C 82 % 19.95 C
2711 10-07-2016 11:55:00 23.3 C 80 % 19.65 C
2712 10-07-2016 12:00:00 23.4 C 81 % 19.95 C
2713 10-07-2016 12:05:00 23.5 C 78 % 19.44 C
2714 10-07-2016 12:10:00 23.7 C 78 % 19.63 C
2715 10-07-2016 12:15:00 24.2 C 70 % 18.38 C
2716 10-07-2016 12:20:00 24.7 C 75 % 19.97 C
2717 10-07-2016 12:25:00 24.9 C 72 % 19.5 C
2718 10-07-2016 12:30:00 25.1 C 70 % 19.24 C
2719 10-07-2016 12:35:00 25.3 C 68 % 18.97 C
2720 10-07-2016 12:40:00 25.5 C 70 % 19.62 C
2721 10-07-2016 12:45:00 25.7 C 66 % 18.87 C
2722 10-07-2016 12:50:00 25.8 C 68 % 19.44 C
2723 10-07-2016 12:55:00 25.8 C 66 % 18.96 C
2724 10-07-2016 13:00:00 25.9 C 65 % 18.81 C
2725 10-07-2016 13:05:00 26.1 C 66 % 19.25 C
Sensor: Nr:Datum:Temp:Feuchte:Taupunkt:
Aussen-T/F 2726 10-07-2016 13:10:00 26.2 C 67 % 19.59 C
2727 10-07-2016 13:15:00 26.3 C 71 % 20.62 C
2728 10-07-2016 13:20:00 26.3 C 69 % 20.16 C
2729 10-07-2016 13:25:00 26.3 C 70 % 20.39 C
2730 10-07-2016 13:30:00 26.4 C 64 % 19.04 C
2731 10-07-2016 13:35:00 26.6 C 65 % 19.48 C
2732 10-07-2016 13:40:00 26.7 C 73 % 21.45 C
2733 10-07-2016 13:45:00 26.7 C 71 % 21 C
2734 10-07-2016 13:50:00 26.6 C 72 % 21.13 C
2735 10-07-2016 13:55:00 26.6 C 68 % 20.2 C
2736 10-07-2016 14:00:00 26.8 C 63 % 19.16 C
2737 10-07-2016 14:05:00 27 C 69 % 20.82 C
2738 10-07-2016 14:10:00 27.2 C 64 % 19.79 C
2739 10-07-2016 14:15:00 27.3 C 64 % 19.89 C
2740 10-07-2016 14:20:00 27.3 C 65 % 20.14 C
2741 10-07-2016 14:25:00 27.5 C 64 % 20.08 C
2742 10-07-2016 14:30:00 27.6 C 61 % 19.4 C
2743 10-07-2016 14:35:00 27.8 C 61 % 19.59 C
2744 10-07-2016 14:40:00 28.1 C 60 % 19.6 C
2745 10-07-2016 14:45:00 28.4 C 59 % 19.61 C
2746 10-07-2016 14:50:00 28.7 C 60 % 20.16 C
2747 10-07-2016 14:55:00 28.8 C 57 % 19.43 C
2748 10-07-2016 15:00:00 28.9 C 59 % 20.08 C
2749 10-07-2016 15:05:00 28.9 C 59 % 20.08 C
2750 10-07-2016 15:10:00 29.1 C 58 % 19.99 C
Sensor: Nr:Datum:Temp:Feuchte:Taupunkt:
Aussen-T/F 2751 10-07-2016 15:15:00 29.4 C 55 % 19.41 C
2752 10-07-2016 15:20:00 29.4 C 58 % 20.27 C
2753 10-07-2016 15:25:00 29.8 C 56 % 20.07 C
2754 10-07-2016 15:30:00 30.2 C 61 % 21.84 C
2755 10-07-2016 15:35:00 30.3 C 56 % 20.54 C
2756 10-07-2016 15:40:00 30.7 C 53 % 20.02 C
2757 10-07-2016 15:45:00 31.1 C 55 % 20.99 C
2758 10-07-2016 15:50:00 31.2 C 54 % 20.78 C
2759 10-07-2016 15:55:00 31.4 C 49 % 19.39 C
2760 10-07-2016 16:00:00 31.4 C 52 % 20.35 C
2761 10-07-2016 16:05:00 31.4 C 48 % 19.06 C
2762 10-07-2016 16:10:00 31.4 C 53 % 20.66 C
2763 10-07-2016 16:15:00 31.8 C 54 % 21.34 C
2764 10-07-2016 16:20:00 32.2 C 49 % 20.12 C
2765 10-07-2016 16:25:00 32.4 C 53 % 21.58 C
2766 10-07-2016 16:30:00 32.7 C 51 % 21.23 C
2767 10-07-2016 16:35:00 32.9 C 47 % 20.09 C
2768 10-07-2016 16:40:00 33.2 C 45 % 19.66 C
2769 10-07-2016 16:45:00 33.2 C 46 % 20.01 C
2770 10-07-2016 16:50:00 32.9 C 48 % 20.43 C
2771 10-07-2016 16:55:00 33.1 C 47 % 20.27 C
2772 10-07-2016 17:00:00 33.1 C 54 % 22.54 C
2773 10-07-2016 17:05:00 32.9 C 54 % 22.35 C
2774 10-07-2016 17:10:00 32.6 C 51 % 21.14 C
2775 10-07-2016 17:15:00 32.2 C 53 % 21.4 C
Sensor: Nr:Datum:Temp:Feuchte:Taupunkt:
Aussen-T/F 2776 10-07-2016 17:20:00 31.8 C 54 % 21.34 C
2777 10-07-2016 17:25:00 31.7 C 59 % 22.7 C
2778 10-07-2016 17:30:00 32 C 46 % 18.93 C
2779 10-07-2016 17:35:00 32.3 C 47 % 19.54 C
2780 10-07-2016 17:40:00 32.5 C 51 % 21.05 C
2781 10-07-2016 17:45:00 32.7 C 54 % 22.17 C
2782 10-07-2016 17:50:00 32.6 C 47 % 19.81 C
2783 10-07-2016 17:55:00 32.3 C 50 % 20.54 C
2784 10-07-2016 18:00:00 32.3 C 54 % 21.8 C
2785 10-07-2016 18:05:00 31.8 C 49 % 19.76 C
2786 10-07-2016 18:10:00 31.1 C 53 % 20.39 C
2787 10-07-2016 18:15:00 30.4 C 54 % 20.04 C
2788 10-07-2016 18:20:00 29.9 C 59 % 21.01 C
2789 10-07-2016 18:25:00 29.5 C 59 % 20.64 C
2790 10-07-2016 18:30:00 29.3 C 64 % 21.78 C
2791 10-07-2016 18:35:00 29.3 C 63 % 21.52 C
2792 10-07-2016 18:40:00 29.4 C 63 % 21.61 C
2793 10-07-2016 18:45:00 29.4 C 64 % 21.87 C
2794 10-07-2016 18:50:00 29.4 C 64 % 21.87 C
2795 10-07-2016 18:55:00 29.2 C 65 % 21.94 C
2796 10-07-2016 19:00:00 28.8 C 65 % 21.56 C
2797 10-07-2016 19:05:00 28.4 C 67 % 21.68 C
2798 10-07-2016 19:10:00 27.9 C 67 % 21.2 C
2799 10-07-2016 19:15:00 27.5 C 68 % 21.06 C
2800 10-07-2016 19:20:00 27.2 C 69 % 21.01 C
Sensor: Nr:Datum:Temp:Feuchte:Taupunkt:
Aussen-T/F 2801 10-07-2016 19:25:00 26.9 C 70 % 20.96 C
2802 10-07-2016 19:30:00 26.7 C 71 % 21 C
2803 10-07-2016 19:35:00 26.5 C 71 % 20.81 C
2804 10-07-2016 19:40:00 26.3 C 72 % 20.85 C
2805 10-07-2016 19:45:00 26.1 C 72 % 20.65 C
2806 10-07-2016 19:50:00 25.8 C 73 % 20.59 C
2807 10-07-2016 19:55:00 25.7 C 74 % 20.71 C
2808 10-07-2016 20:00:00 25.5 C 75 % 20.74 C
2809 10-07-2016 20:05:00 25.3 C 76 % 20.76 C
2810 10-07-2016 20:10:00 25.3 C 76 % 20.76 C
2811 10-07-2016 20:15:00 25.2 C 77 % 20.88 C
2812 10-07-2016 20:20:00 25.1 C 77 % 20.78 C
2813 10-07-2016 20:25:00 25 C 78 % 20.89 C
2814 10-07-2016 20:30:00 24.9 C 77 % 20.59 C
2815 10-07-2016 20:35:00 24.8 C 78 % 20.7 C
2816 10-07-2016 20:40:00 24.7 C 78 % 20.6 C
2817 10-07-2016 20:45:00 24.6 C 77 % 20.3 C
2818 10-07-2016 20:50:00 24.5 C 77 % 20.2 C
2819 10-07-2016 20:55:00 24.4 C 76 % 19.89 C
2820 10-07-2016 21:00:00 24.3 C 76 % 19.8 C
2821 10-07-2016 21:05:00 24.2 C 76 % 19.7 C
2822 10-07-2016 21:10:00 24 C 77 % 19.72 C
2823 10-07-2016 21:15:00 23.8 C 76 % 19.31 C
2824 10-07-2016 21:20:00 23.7 C 77 % 19.43 C
2825 10-07-2016 21:25:00 23.4 C 77 % 19.14 C
Sensor: Nr:Datum:Temp:Feuchte:Taupunkt:
Aussen-T/F 2826 10-07-2016 21:30:00 23.3 C 78 % 19.25 C
2827 10-07-2016 21:35:00 23.1 C 78 % 19.05 C
2828 10-07-2016 21:40:00 23 C 78 % 18.96 C
2829 10-07-2016 21:45:00 22.8 C 78 % 18.76 C
2830 10-07-2016 21:50:00 22.8 C 79 % 18.97 C
2831 10-07-2016 21:55:00 22.7 C 79 % 18.87 C
2832 10-07-2016 22:00:00 22.7 C 79 % 18.87 C
2833 10-07-2016 22:05:00 22.6 C 80 % 18.97 C
2834 10-07-2016 22:10:00 22.6 C 80 % 18.97 C
2835 10-07-2016 22:15:00 22.5 C 80 % 18.88 C
2836 10-07-2016 22:20:00 22.4 C 80 % 18.78 C
2837 10-07-2016 22:25:00 22.3 C 81 % 18.88 C
2838 10-07-2016 22:30:00 22.3 C 81 % 18.88 C
2839 10-07-2016 22:35:00 22.2 C 81 % 18.78 C
2840 10-07-2016 22:40:00 22.1 C 81 % 18.69 C
2841 10-07-2016 22:45:00 22 C 81 % 18.59 C
2842 10-07-2016 22:50:00 21.9 C 82 % 18.69 C
2843 10-07-2016 22:55:00 21.9 C 82 % 18.69 C
2844 10-07-2016 23:00:00 21.8 C 82 % 18.59 C
2845 10-07-2016 23:05:00 21.7 C 82 % 18.49 C
2846 10-07-2016 23:10:00 21.7 C 82 % 18.49 C
2847 10-07-2016 23:15:00 21.6 C 82 % 18.39 C
2848 10-07-2016 23:20:00 21.5 C 83 % 18.49 C
2849 10-07-2016 23:25:00 21.4 C 83 % 18.39 C
2850 10-07-2016 23:30:00 21.3 C 83 % 18.29 C
Sensor: Nr:Datum:Temp:Feuchte:Taupunkt:
Aussen-T/F 2851 10-07-2016 23:35:00 21.3 C 84 % 18.49 C
2852 10-07-2016 23:40:00 21.2 C 84 % 18.39 C
2853 10-07-2016 23:45:00 21.2 C 84 % 18.39 C
2854 10-07-2016 23:50:00 21.1 C 84 % 18.29 C
2855 10-07-2016 23:55:00 21.1 C 84 % 18.29 C
2856 11-07-2016 00:00:00 21 C 84 % 18.19 C
2857 11-07-2016 00:05:00 21 C 84 % 18.19 C
2858 11-07-2016 00:10:00 20.9 C 85 % 18.28 C
2859 11-07-2016 00:15:00 20.9 C 84 % 18.09 C
2860 11-07-2016 00:20:00 20.8 C 85 % 18.18 C
2861 11-07-2016 00:25:00 20.8 C 85 % 18.18 C
2862 11-07-2016 00:30:00 20.7 C 85 % 18.09 C
2863 11-07-2016 00:35:00 20.7 C 85 % 18.09 C
2864 11-07-2016 00:40:00 20.6 C 85 % 17.99 C
2865 11-07-2016 00:45:00 20.6 C 86 % 18.18 C
2866 11-07-2016 00:50:00 20.5 C 86 % 18.08 C
2867 11-07-2016 00:55:00 20.4 C 86 % 17.98 C
2868 11-07-2016 01:00:00 20.4 C 86 % 17.98 C
2869 11-07-2016 01:05:00 20.4 C 86 % 17.98 C
2870 11-07-2016 01:10:00 20.3 C 86 % 17.88 C
2871 11-07-2016 01:15:00 20.3 C 86 % 17.88 C
2872 11-07-2016 01:20:00 20.3 C 86 % 17.88 C
2873 11-07-2016 01:25:00 20.3 C 87 % 18.06 C
2874 11-07-2016 01:30:00 20.2 C 87 % 17.97 C
2875 11-07-2016 01:35:00 20.2 C 87 % 17.97 C
Sensor: Nr:Datum:Temp:Feuchte:Taupunkt:
Aussen-T/F 2876 11-07-2016 01:40:00 20.2 C 87 % 17.97 C
2877 11-07-2016 01:45:00 20.1 C 87 % 17.87 C
2878 11-07-2016 01:50:00 20.1 C 87 % 17.87 C
2879 11-07-2016 01:55:00 19.9 C 87 % 17.67 C
2880 11-07-2016 02:00:00 19.9 C 87 % 17.67 C
2881 11-07-2016 02:05:00 19.8 C 87 % 17.57 C
2882 11-07-2016 02:10:00 19.7 C 87 % 17.47 C
2883 11-07-2016 02:15:00 19.6 C 87 % 17.38 C
2884 11-07-2016 02:20:00 19.6 C 87 % 17.38 C
2885 11-07-2016 02:25:00 19.4 C 87 % 17.18 C
2886 11-07-2016 02:30:00 19.3 C 88 % 17.26 C
2887 11-07-2016 02:35:00 19.3 C 88 % 17.26 C
2888 11-07-2016 02:40:00 19.2 C 88 % 17.16 C
2889 11-07-2016 02:45:00 19.1 C 88 % 17.07 C
2890 11-07-2016 02:50:00 19.1 C 89 % 17.24 C
2891 11-07-2016 02:55:00 19.1 C 89 % 17.24 C
2892 11-07-2016 03:00:00 19.2 C 89 % 17.34 C
2893 11-07-2016 03:05:00 19.1 C 89 % 17.24 C
2894 11-07-2016 03:10:00 19.2 C 90 % 17.52 C
2895 11-07-2016 03:15:00 19.2 C 90 % 17.52 C
2896 11-07-2016 03:20:00 19.3 C 90 % 17.62 C
2897 11-07-2016 03:25:00 19.3 C 90 % 17.62 C
2898 11-07-2016 03:30:00 19.3 C 90 % 17.62 C
2899 11-07-2016 03:35:00 19.2 C 90 % 17.52 C
2900 11-07-2016 03:40:00 19.2 C 89 % 17.34 C
Sensor: Nr:Datum:Temp:Feuchte:Taupunkt:
Aussen-T/F 2901 11-07-2016 03:45:00 19.1 C 89 % 17.24 C
2902 11-07-2016 03:50:00 19.1 C 90 % 17.42 C
2903 11-07-2016 03:55:00 19 C 90 % 17.32 C
2904 11-07-2016 04:00:00 19 C 89 % 17.15 C
2905 11-07-2016 04:05:00 18.9 C 89 % 17.05 C
2906 11-07-2016 04:10:00 18.9 C 89 % 17.05 C
2907 11-07-2016 04:15:00 18.9 C 89 % 17.05 C
2908 11-07-2016 04:20:00 18.8 C 89 % 16.95 C
2909 11-07-2016 04:25:00 18.7 C 89 % 16.85 C
2910 11-07-2016 04:30:00 18.6 C 90 % 16.93 C
2911 11-07-2016 04:35:00 18.5 C 90 % 16.83 C
2912 11-07-2016 04:40:00 18.4 C 90 % 16.73 C
2913 11-07-2016 04:45:00 18.4 C 90 % 16.73 C
2914 11-07-2016 04:50:00 18.4 C 91 % 16.9 C
2915 11-07-2016 04:55:00 18.6 C 91 % 17.1 C
2916 11-07-2016 05:00:00 18.6 C 91 % 17.1 C
2917 11-07-2016 05:05:00 18.6 C 91 % 17.1 C
2918 11-07-2016 05:10:00 18.6 C 91 % 17.1 C
2919 11-07-2016 05:15:00 18.6 C 91 % 17.1 C
2920 11-07-2016 05:20:00 18.6 C 91 % 17.1 C
2921 11-07-2016 05:25:00 18.7 C 91 % 17.2 C
2922 11-07-2016 05:30:00 18.7 C 91 % 17.2 C
2923 11-07-2016 05:35:00 18.8 C 91 % 17.3 C
2924 11-07-2016 05:40:00 18.8 C 91 % 17.3 C
2925 11-07-2016 05:45:00 18.8 C 91 % 17.3 C
Sensor: Nr:Datum:Temp:Feuchte:Taupunkt:
Aussen-T/F 2926 11-07-2016 05:50:00 18.8 C 91 % 17.3 C
2927 11-07-2016 05:55:00 18.9 C 91 % 17.4 C
2928 11-07-2016 06:00:00 18.9 C 91 % 17.4 C
2929 11-07-2016 06:05:00 18.9 C 90 % 17.22 C
2930 11-07-2016 06:10:00 18.9 C 90 % 17.22 C
2931 11-07-2016 06:15:00 18.9 C 90 % 17.22 C
2932 11-07-2016 06:20:00 18.9 C 90 % 17.22 C
2933 11-07-2016 06:25:00 18.9 C 90 % 17.22 C
2934 11-07-2016 06:30:00 18.9 C 91 % 17.4 C
2935 11-07-2016 06:35:00 19 C 91 % 17.5 C
2936 11-07-2016 06:40:00 19 C 91 % 17.5 C
2937 11-07-2016 06:45:00 19 C 91 % 17.5 C
2938 11-07-2016 06:50:00 19 C 91 % 17.5 C
2939 11-07-2016 06:55:00 19 C 91 % 17.5 C
2940 11-07-2016 07:00:00 19 C 91 % 17.5 C
2941 11-07-2016 07:05:00 19.1 C 91 % 17.6 C
2942 11-07-2016 07:10:00 19.1 C 91 % 17.6 C
2943 11-07-2016 07:15:00 19.1 C 91 % 17.6 C
2944 11-07-2016 07:20:00 19.1 C 91 % 17.6 C
2945 11-07-2016 07:25:00 19.2 C 91 % 17.69 C
2946 11-07-2016 07:30:00 19.2 C 91 % 17.69 C
2947 11-07-2016 07:35:00 19.3 C 92 % 17.97 C
2948 11-07-2016 07:40:00 19.4 C 92 % 18.07 C
2949 11-07-2016 07:45:00 19.5 C 91 % 17.99 C
2950 11-07-2016 07:50:00 19.6 C 91 % 18.09 C
Sensor: Nr:Datum:Temp:Feuchte:Taupunkt:
Aussen-T/F 2951 11-07-2016 07:55:00 19.7 C 91 % 18.19 C
2952 11-07-2016 08:00:00 19.8 C 91 % 18.29 C
2953 11-07-2016 08:05:00 19.9 C 91 % 18.39 C
2954 11-07-2016 08:10:00 20 C 91 % 18.49 C
2955 11-07-2016 08:15:00 20.1 C 91 % 18.58 C
2956 11-07-2016 08:20:00 20.1 C 90 % 18.41 C
2957 11-07-2016 08:25:00 20.1 C 90 % 18.41 C
2958 11-07-2016 08:30:00 20.2 C 90 % 18.51 C
2959 11-07-2016 08:35:00 20.2 C 90 % 18.51 C
2960 11-07-2016 08:40:00 20.3 C 90 % 18.61 C
2961 11-07-2016 08:45:00 20.4 C 88 % 18.34 C
2962 11-07-2016 08:50:00 20.6 C 86 % 18.18 C
2963 11-07-2016 08:55:00 20.8 C 86 % 18.37 C
2964 11-07-2016 09:00:00 21.2 C 84 % 18.39 C
2965 11-07-2016 09:05:00 21.3 C 85 % 18.67 C
2966 11-07-2016 09:10:00 21.5 C 83 % 18.49 C
2967 11-07-2016 09:15:00 21.7 C 81 % 18.3 C
2968 11-07-2016 09:20:00 22 C 80 % 18.39 C
2969 11-07-2016 09:25:00 22.2 C 78 % 18.18 C
2970 11-07-2016 09:30:00 22.3 C 78 % 18.28 C
2971 11-07-2016 09:35:00 22.4 C 77 % 18.17 C
2972 11-07-2016 09:40:00 22.7 C 74 % 17.83 C
2973 11-07-2016 09:45:00 22.8 C 74 % 17.92 C
2974 11-07-2016 09:50:00 23 C 73 % 17.9 C
2975 11-07-2016 09:55:00 23.1 C 75 % 18.43 C
Sensor: Nr:Datum:Temp:Feuchte:Taupunkt:
Aussen-T/F 2976 11-07-2016 10:00:00 23.1 C 74 % 18.21 C
2977 11-07-2016 10:05:00 23.1 C 73 % 17.99 C
2978 11-07-2016 10:10:00 23.2 C 73 % 18.09 C
2979 11-07-2016 10:15:00 23.4 C 72 % 18.06 C
2980 11-07-2016 10:20:00 23.5 C 70 % 17.71 C
2981 11-07-2016 10:25:00 23.6 C 69 % 17.58 C
2982 11-07-2016 10:30:00 23.7 C 67 % 17.21 C
2983 11-07-2016 10:35:00 24.1 C 68 % 17.82 C
2984 11-07-2016 10:40:00 24.3 C 65 % 17.3 C
2985 11-07-2016 10:45:00 24.5 C 68 % 18.2 C
2986 11-07-2016 10:50:00 24.4 C 64 % 17.15 C
2987 11-07-2016 10:55:00 24.3 C 63 % 16.81 C
2988 11-07-2016 11:00:00 24.1 C 62 % 16.37 C
2989 11-07-2016 11:05:00 23.8 C 64 % 16.58 C
2990 11-07-2016 11:10:00 23.6 C 66 % 16.88 C
2991 11-07-2016 11:15:00 23.4 C 66 % 16.69 C
2992 11-07-2016 11:20:00 23.3 C 66 % 16.59 C
2993 11-07-2016 11:25:00 23.3 C 70 % 17.52 C
2994 11-07-2016 11:30:00 23.2 C 70 % 17.42 C
2995 11-07-2016 11:35:00 23.2 C 70 % 17.42 C
2996 11-07-2016 11:40:00 23.3 C 71 % 17.75 C
2997 11-07-2016 11:45:00 23.5 C 69 % 17.48 C
2998 11-07-2016 11:50:00 23.6 C 68 % 17.35 C
2999 11-07-2016 11:55:00 23.7 C 69 % 17.67 C
3000 11-07-2016 12:00:00 23.7 C 68 % 17.44 C
Sensor: Nr:Datum:Temp:Feuchte:Taupunkt:
Aussen-T/F 3001 11-07-2016 12:05:00 23.7 C 69 % 17.67 C
3002 11-07-2016 12:10:00 23.6 C 68 % 17.35 C
3003 11-07-2016 12:15:00 23.6 C 69 % 17.58 C
3004 11-07-2016 12:20:00 23.6 C 69 % 17.58 C
3005 11-07-2016 12:25:00 23.7 C 68 % 17.44 C
3006 11-07-2016 12:30:00 23.8 C 67 % 17.3 C
3007 11-07-2016 12:35:00 23.8 C 69 % 17.77 C
3008 11-07-2016 12:40:00 23.9 C 70 % 18.09 C
3009 11-07-2016 12:45:00 24.1 C 66 % 17.35 C
3010 11-07-2016 12:50:00 24.3 C 65 % 17.3 C
3011 11-07-2016 12:55:00 24.4 C 64 % 17.15 C
3012 11-07-2016 13:00:00 24.5 C 62 % 16.74 C
3013 11-07-2016 13:05:00 24.4 C 61 % 16.39 C
3014 11-07-2016 13:10:00 24.4 C 64 % 17.15 C
3015 11-07-2016 13:15:00 24.4 C 65 % 17.39 C
3016 11-07-2016 13:20:00 24.4 C 65 % 17.39 C
3017 11-07-2016 13:25:00 24.4 C 63 % 16.9 C
3018 11-07-2016 13:30:00 24.4 C 63 % 16.9 C
3019 11-07-2016 13:35:00 24.4 C 62 % 16.65 C
3020 11-07-2016 13:40:00 24.4 C 64 % 17.15 C
3021 11-07-2016 13:45:00 24.4 C 61 % 16.39 C
3022 11-07-2016 13:50:00 24.4 C 62 % 16.65 C
3023 11-07-2016 13:55:00 24.4 C 62 % 16.65 C
3024 11-07-2016 14:00:00 24.5 C 58 % 15.7 C
3025 11-07-2016 14:05:00 24.5 C 56 % 15.15 C
Sensor: Nr:Datum:Temp:Feuchte:Taupunkt:
Aussen-T/F 3026 11-07-2016 14:10:00 24.6 C 58 % 15.79 C
3027 11-07-2016 14:15:00 24.7 C 54 % 14.77 C
3028 11-07-2016 14:20:00 24.6 C 55 % 14.96 C
3029 11-07-2016 14:25:00 24.4 C 56 % 15.06 C
3030 11-07-2016 14:30:00 24.4 C 56 % 15.06 C
3031 11-07-2016 14:35:00 24.4 C 57 % 15.33 C
3032 11-07-2016 14:40:00 24.4 C 56 % 15.06 C
3033 11-07-2016 14:45:00 24.3 C 55 % 14.68 C
3034 11-07-2016 14:50:00 24.2 C 57 % 15.14 C
3035 11-07-2016 14:55:00 24.3 C 56 % 14.96 C
3036 11-07-2016 15:00:00 24.3 C 58 % 15.51 C
3037 11-07-2016 15:05:00 24.3 C 55 % 14.68 C
3038 11-07-2016 15:10:00 24.4 C 59 % 15.87 C
3039 11-07-2016 15:15:00 24.5 C 55 % 14.87 C
3040 11-07-2016 15:20:00 24.5 C 57 % 15.42 C
3041 11-07-2016 15:25:00 24.3 C 57 % 15.24 C
3042 11-07-2016 15:30:00 24.3 C 58 % 15.51 C
3043 11-07-2016 15:35:00 24.2 C 57 % 15.14 C
3044 11-07-2016 15:40:00 24.2 C 56 % 14.87 C
3045 11-07-2016 15:45:00 24.2 C 56 % 14.87 C
3046 11-07-2016 15:50:00 24.1 C 58 % 15.32 C
3047 11-07-2016 15:55:00 24.2 C 58 % 15.42 C
3048 11-07-2016 16:00:00 24.2 C 56 % 14.87 C
3049 11-07-2016 16:05:00 24.3 C 58 % 15.51 C
3050 11-07-2016 16:10:00 24.3 C 57 % 15.24 C
Sensor: Nr:Datum:Temp:Feuchte:Taupunkt:
Aussen-T/F 3051 11-07-2016 16:15:00 24.3 C 58 % 15.51 C
3052 11-07-2016 16:20:00 24.3 C 60 % 16.04 C
3053 11-07-2016 16:25:00 24.3 C 58 % 15.51 C
3054 11-07-2016 16:30:00 24.3 C 59 % 15.78 C
3055 11-07-2016 16:35:00 24.4 C 63 % 16.9 C
3056 11-07-2016 16:40:00 24.4 C 60 % 16.13 C
3057 11-07-2016 16:45:00 24.4 C 63 % 16.9 C
3058 11-07-2016 16:50:00 24.6 C 61 % 16.58 C
3059 11-07-2016 16:55:00 24.7 C 59 % 16.15 C
3060 11-07-2016 17:00:00 24.7 C 60 % 16.41 C
3061 11-07-2016 17:05:00 24.7 C 59 % 16.15 C
3062 11-07-2016 17:10:00 24.5 C 62 % 16.74 C
3063 11-07-2016 17:15:00 24.3 C 62 % 16.55 C
3064 11-07-2016 17:20:00 24.2 C 64 % 16.96 C
3065 11-07-2016 17:25:00 24.1 C 63 % 16.62 C
3066 11-07-2016 17:30:00 24.1 C 63 % 16.62 C
3067 11-07-2016 17:35:00 24.1 C 64 % 16.86 C
3068 11-07-2016 17:40:00 23.9 C 70 % 18.09 C
3069 11-07-2016 17:45:00 23.8 C 66 % 17.07 C
3070 11-07-2016 17:50:00 23.9 C 64 % 16.68 C
3071 11-07-2016 17:55:00 24.2 C 61 % 16.2 C
3072 11-07-2016 18:00:00 24.4 C 59 % 15.87 C
3073 11-07-2016 18:05:00 24.3 C 59 % 15.78 C
3074 11-07-2016 18:10:00 24.2 C 59 % 15.68 C
3075 11-07-2016 18:15:00 24.1 C 58 % 15.32 C
Sensor: Nr:Datum:Temp:Feuchte:Taupunkt:
Aussen-T/F 3076 11-07-2016 18:20:00 24 C 61 % 16.02 C
3077 11-07-2016 18:25:00 24 C 58 % 15.23 C
3078 11-07-2016 18:30:00 24.2 C 57 % 15.14 C
3079 11-07-2016 18:35:00 24.2 C 56 % 14.87 C
3080 11-07-2016 18:40:00 24.1 C 56 % 14.78 C
3081 11-07-2016 18:45:00 24.1 C 57 % 15.05 C
3082 11-07-2016 18:50:00 24.3 C 59 % 15.78 C
3083 11-07-2016 18:55:00 24.4 C 56 % 15.06 C
3084 11-07-2016 19:00:00 24.4 C 56 % 15.06 C
3085 11-07-2016 19:05:00 24.2 C 54 % 14.31 C
3086 11-07-2016 19:10:00 23.9 C 54 % 14.03 C
3087 11-07-2016 19:15:00 23.6 C 56 % 14.31 C
3088 11-07-2016 19:20:00 23.6 C 56 % 14.31 C
3089 11-07-2016 19:25:00 23.7 C 56 % 14.4 C
3090 11-07-2016 19:30:00 23.6 C 55 % 14.03 C
3091 11-07-2016 19:35:00 23.4 C 56 % 14.13 C
3092 11-07-2016 19:40:00 23.2 C 57 % 14.21 C
3093 11-07-2016 19:45:00 23.1 C 58 % 14.39 C
3094 11-07-2016 19:50:00 23.2 C 59 % 14.75 C
3095 11-07-2016 19:55:00 23.3 C 59 % 14.84 C
3096 11-07-2016 20:00:00 23.2 C 59 % 14.75 C
3097 11-07-2016 20:05:00 22.8 C 58 % 14.11 C
3098 11-07-2016 20:10:00 22.6 C 60 % 14.44 C
3099 11-07-2016 20:15:00 22.2 C 61 % 14.32 C
3100 11-07-2016 20:20:00 21.9 C 61 % 14.04 C
Sensor: Nr:Datum:Temp:Feuchte:Taupunkt:
Aussen-T/F 3101 11-07-2016 20:25:00 21.7 C 63 % 14.35 C
3102 11-07-2016 20:30:00 21.4 C 62 % 13.82 C
3103 11-07-2016 20:35:00 21.3 C 64 % 14.22 C
3104 11-07-2016 20:40:00 21.2 C 64 % 14.12 C
3105 11-07-2016 20:45:00 21.1 C 64 % 14.03 C
3106 11-07-2016 20:50:00 20.9 C 64 % 13.84 C
3107 11-07-2016 20:55:00 20.8 C 65 % 13.98 C
3108 11-07-2016 21:00:00 20.8 C 65 % 13.98 C
3109 11-07-2016 21:05:00 20.7 C 66 % 14.12 C
3110 11-07-2016 21:10:00 20.6 C 66 % 14.03 C
3111 11-07-2016 21:15:00 20.5 C 66 % 13.93 C
3112 11-07-2016 21:20:00 20.4 C 65 % 13.6 C
3113 11-07-2016 21:25:00 20.4 C 66 % 13.84 C
3114 11-07-2016 21:30:00 20.3 C 67 % 13.97 C
3115 11-07-2016 21:35:00 20.2 C 67 % 13.88 C
3116 11-07-2016 21:40:00 20.1 C 66 % 13.55 C
3117 11-07-2016 21:45:00 20.1 C 66 % 13.55 C
3118 11-07-2016 21:50:00 20.1 C 67 % 13.78 C
3119 11-07-2016 21:55:00 20 C 67 % 13.69 C
3120 11-07-2016 22:00:00 19.9 C 68 % 13.82 C
3121 11-07-2016 22:05:00 19.9 C 69 % 14.05 C
3122 11-07-2016 22:10:00 19.8 C 68 % 13.73 C
3123 11-07-2016 22:15:00 19.8 C 70 % 14.17 C
3124 11-07-2016 22:20:00 19.7 C 70 % 14.08 C
3125 11-07-2016 22:25:00 19.7 C 71 % 14.3 C
Sensor: Nr:Datum:Temp:Feuchte:Taupunkt:
Aussen-T/F 3126 11-07-2016 22:30:00 19.6 C 70 % 13.98 C
3127 11-07-2016 22:35:00 19.6 C 71 % 14.2 C
3128 11-07-2016 22:40:00 19.4 C 71 % 14.01 C
3129 11-07-2016 22:45:00 19.4 C 71 % 14.01 C
3130 11-07-2016 22:50:00 19.3 C 73 % 14.34 C
3131 11-07-2016 22:55:00 19.3 C 72 % 14.13 C
3132 11-07-2016 23:00:00 19.2 C 73 % 14.25 C
3133 11-07-2016 23:05:00 19.2 C 73 % 14.25 C
3134 11-07-2016 23:10:00 19.1 C 74 % 14.36 C
3135 11-07-2016 23:15:00 19.1 C 74 % 14.36 C
3136 11-07-2016 23:20:00 18.9 C 75 % 14.37 C
3137 11-07-2016 23:25:00 18.9 C 75 % 14.37 C
3138 11-07-2016 23:30:00 18.8 C 76 % 14.48 C
3139 11-07-2016 23:35:00 18.8 C 75 % 14.28 C
3140 11-07-2016 23:40:00 18.7 C 75 % 14.18 C
3141 11-07-2016 23:45:00 18.7 C 75 % 14.18 C
3142 11-07-2016 23:50:00 18.6 C 76 % 14.29 C
3143 11-07-2016 23:55:00 18.6 C 77 % 14.49 C
3144 12-07-2016 00:00:00 18.6 C 77 % 14.49 C
3145 12-07-2016 00:05:00 18.4 C 77 % 14.3 C
3146 12-07-2016 00:10:00 18.4 C 77 % 14.3 C
3147 12-07-2016 00:15:00 18.3 C 77 % 14.2 C
3148 12-07-2016 00:20:00 18.3 C 79 % 14.6 C
3149 12-07-2016 00:25:00 18.3 C 79 % 14.6 C
3150 12-07-2016 00:30:00 18.3 C 80 % 14.79 C
Sensor: Nr:Datum:Temp:Feuchte:Taupunkt:
Aussen-T/F 3151 12-07-2016 00:35:00 18.2 C 79 % 14.5 C
3152 12-07-2016 00:40:00 18.2 C 79 % 14.5 C
3153 12-07-2016 00:45:00 18.1 C 79 % 14.4 C
3154 12-07-2016 00:50:00 18.1 C 78 % 14.21 C
3155 12-07-2016 00:55:00 18.1 C 78 % 14.21 C
3156 12-07-2016 01:00:00 18.1 C 78 % 14.21 C
3157 12-07-2016 01:05:00 18.1 C 77 % 14.01 C
3158 12-07-2016 01:10:00 18.1 C 78 % 14.21 C
3159 12-07-2016 01:15:00 17.9 C 78 % 14.01 C
3160 12-07-2016 01:20:00 17.8 C 78 % 13.91 C
3161 12-07-2016 01:25:00 17.7 C 79 % 14.01 C
3162 12-07-2016 01:30:00 17.5 C 78 % 13.62 C
3163 12-07-2016 01:35:00 17.4 C 78 % 13.53 C
3164 12-07-2016 01:40:00 17.4 C 79 % 13.72 C
3165 12-07-2016 01:45:00 17.4 C 78 % 13.53 C
3166 12-07-2016 01:50:00 17.3 C 79 % 13.63 C
3167 12-07-2016 01:55:00 17.3 C 80 % 13.82 C
3168 12-07-2016 02:00:00 17.2 C 80 % 13.72 C
3169 12-07-2016 02:05:00 17.1 C 80 % 13.62 C
3170 12-07-2016 02:10:00 16.9 C 81 % 13.62 C
3171 12-07-2016 02:15:00 16.8 C 81 % 13.52 C
3172 12-07-2016 02:20:00 16.6 C 81 % 13.33 C
3173 12-07-2016 02:25:00 16.4 C 82 % 13.32 C
3174 12-07-2016 02:30:00 16.3 C 82 % 13.22 C
3175 12-07-2016 02:35:00 16.1 C 83 % 13.21 C
Sensor: Nr:Datum:Temp:Feuchte:Taupunkt:
Aussen-T/F 3176 12-07-2016 02:40:00 15.9 C 83 % 13.02 C
3177 12-07-2016 02:45:00 15.8 C 84 % 13.1 C
3178 12-07-2016 02:50:00 15.7 C 84 % 13.01 C
3179 12-07-2016 02:55:00 15.6 C 85 % 13.09 C
3180 12-07-2016 03:00:00 15.5 C 85 % 12.99 C
3181 12-07-2016 03:05:00 15.4 C 86 % 13.07 C
3182 12-07-2016 03:10:00 15.3 C 86 % 12.97 C
3183 12-07-2016 03:15:00 15.2 C 86 % 12.88 C
3184 12-07-2016 03:20:00 15.1 C 86 % 12.78 C
3185 12-07-2016 03:25:00 15 C 87 % 12.86 C
3186 12-07-2016 03:30:00 14.9 C 87 % 12.76 C
3187 12-07-2016 03:35:00 14.8 C 87 % 12.66 C
3188 12-07-2016 03:40:00 14.8 C 88 % 12.83 C
3189 12-07-2016 03:45:00 14.7 C 88 % 12.73 C
3190 12-07-2016 03:50:00 14.7 C 88 % 12.73 C
3191 12-07-2016 03:55:00 14.7 C 88 % 12.73 C
3192 12-07-2016 04:00:00 14.6 C 89 % 12.81 C
3193 12-07-2016 04:05:00 14.6 C 89 % 12.81 C
3194 12-07-2016 04:10:00 14.6 C 89 % 12.81 C
3195 12-07-2016 04:15:00 14.6 C 89 % 12.81 C
3196 12-07-2016 04:20:00 14.5 C 89 % 12.71 C
3197 12-07-2016 04:25:00 14.4 C 89 % 12.61 C
3198 12-07-2016 04:30:00 14.4 C 90 % 12.78 C
3199 12-07-2016 04:35:00 14.4 C 90 % 12.78 C
3200 12-07-2016 04:40:00 14.4 C 90 % 12.78 C
Sensor: Nr:Datum:Temp:Feuchte:Taupunkt:
Aussen-T/F 3201 12-07-2016 04:45:00 14.4 C 90 % 12.78 C
3202 12-07-2016 04:50:00 14.4 C 90 % 12.78 C
3203 12-07-2016 04:55:00 14.4 C 91 % 12.95 C
3204 12-07-2016 05:00:00 14.4 C 91 % 12.95 C
3205 12-07-2016 05:05:00 14.4 C 91 % 12.95 C
3206 12-07-2016 05:10:00 14.4 C 91 % 12.95 C
3207 12-07-2016 05:15:00 14.3 C 91 % 12.85 C
3208 12-07-2016 05:20:00 14.3 C 91 % 12.85 C
3209 12-07-2016 05:25:00 14.3 C 91 % 12.85 C
3210 12-07-2016 05:30:00 14.3 C 91 % 12.85 C
3211 12-07-2016 05:35:00 14.2 C 91 % 12.75 C
3212 12-07-2016 05:40:00 14.2 C 92 % 12.92 C
3213 12-07-2016 05:45:00 14.2 C 92 % 12.92 C
3214 12-07-2016 05:50:00 14.2 C 92 % 12.92 C
3215 12-07-2016 05:55:00 14.3 C 92 % 13.02 C
3216 12-07-2016 06:00:00 14.3 C 92 % 13.02 C
3217 12-07-2016 06:05:00 14.3 C 92 % 13.02 C
3218 12-07-2016 06:10:00 14.5 C 92 % 13.22 C
3219 12-07-2016 06:15:00 14.6 C 92 % 13.32 C
3220 12-07-2016 06:20:00 14.7 C 92 % 13.41 C
3221 12-07-2016 06:25:00 14.7 C 91 % 13.25 C
3222 12-07-2016 06:30:00 14.7 C 91 % 13.25 C
3223 12-07-2016 06:35:00 14.8 C 91 % 13.35 C
3224 12-07-2016 06:40:00 14.8 C 91 % 13.35 C
3225 12-07-2016 06:45:00 14.8 C 91 % 13.35 C
Sensor: Nr:Datum:Temp:Feuchte:Taupunkt:
Aussen-T/F 3226 12-07-2016 06:50:00 14.8 C 91 % 13.35 C
3227 12-07-2016 06:55:00 14.9 C 91 % 13.44 C
3228 12-07-2016 07:00:00 14.8 C 90 % 13.18 C
3229 12-07-2016 07:05:00 14.9 C 91 % 13.44 C
3230 12-07-2016 07:10:00 14.9 C 90 % 13.28 C
3231 12-07-2016 07:15:00 15 C 91 % 13.54 C
3232 12-07-2016 07:20:00 15.1 C 91 % 13.64 C
3233 12-07-2016 07:25:00 15.2 C 91 % 13.74 C
3234 12-07-2016 07:30:00 15.3 C 90 % 13.67 C
3235 12-07-2016 07:35:00 15.5 C 89 % 13.7 C
3236 12-07-2016 07:40:00 15.6 C 89 % 13.79 C
3237 12-07-2016 07:45:00 15.7 C 89 % 13.89 C
3238 12-07-2016 07:50:00 15.7 C 90 % 14.06 C
3239 12-07-2016 07:55:00 15.8 C 90 % 14.16 C
3240 12-07-2016 08:00:00 15.9 C 89 % 14.09 C
3241 12-07-2016 08:05:00 16 C 89 % 14.19 C
3242 12-07-2016 08:10:00 16.1 C 87 % 13.94 C
3243 12-07-2016 08:15:00 16.3 C 87 % 14.13 C
3244 12-07-2016 08:20:00 16.4 C 87 % 14.23 C
3245 12-07-2016 08:25:00 16.7 C 87 % 14.53 C
3246 12-07-2016 08:30:00 16.9 C 86 % 14.54 C
3247 12-07-2016 08:35:00 17.1 C 85 % 14.56 C
3248 12-07-2016 08:40:00 17.3 C 83 % 14.39 C
3249 12-07-2016 08:45:00 17.5 C 83 % 14.58 C
3250 12-07-2016 08:50:00 17.7 C 84 % 14.96 C
Sensor: Nr:Datum:Temp:Feuchte:Taupunkt:
Aussen-T/F 3251 12-07-2016 08:55:00 17.8 C 85 % 15.25 C
3252 12-07-2016 09:00:00 17.9 C 85 % 15.34 C
3253 12-07-2016 09:05:00 18 C 85 % 15.44 C
3254 12-07-2016 09:10:00 18.1 C 84 % 15.35 C
3255 12-07-2016 09:15:00 18.2 C 82 % 15.08 C
3256 12-07-2016 09:20:00 18.3 C 83 % 15.36 C
3257 12-07-2016 09:25:00 18.3 C 80 % 14.79 C
3258 12-07-2016 09:30:00 18.4 C 82 % 15.27 C
3259 12-07-2016 09:35:00 18.5 C 80 % 14.99 C
3260 12-07-2016 09:40:00 18.6 C 79 % 14.89 C
3261 12-07-2016 09:45:00 18.7 C 77 % 14.59 C
3262 12-07-2016 09:50:00 18.8 C 76 % 14.48 C
3263 12-07-2016 09:55:00 18.9 C 79 % 15.18 C
3264 12-07-2016 10:00:00 19.1 C 79 % 15.37 C
3265 12-07-2016 10:05:00 19.3 C 78 % 15.37 C
3266 12-07-2016 10:10:00 19.4 C 75 % 14.86 C
3267 12-07-2016 10:15:00 19.7 C 73 % 14.73 C
3268 12-07-2016 10:20:00 19.8 C 73 % 14.82 C
3269 12-07-2016 10:25:00 20.1 C 71 % 14.68 C
3270 12-07-2016 10:30:00 20.2 C 69 % 14.33 C
3271 12-07-2016 10:35:00 20.3 C 73 % 15.3 C
3272 12-07-2016 10:40:00 20.2 C 70 % 14.56 C
3273 12-07-2016 10:45:00 20.2 C 70 % 14.56 C
3274 12-07-2016 10:50:00 20.3 C 69 % 14.43 C
3275 12-07-2016 10:55:00 20.4 C 70 % 14.75 C
Sensor: Nr:Datum:Temp:Feuchte:Taupunkt:
Aussen-T/F 3276 12-07-2016 11:00:00 20.6 C 70 % 14.94 C
3277 12-07-2016 11:05:00 20.8 C 67 % 14.45 C
3278 12-07-2016 11:10:00 20.8 C 70 % 15.13 C
3279 12-07-2016 11:15:00 20.9 C 66 % 14.31 C
3280 12-07-2016 11:20:00 20.9 C 67 % 14.55 C
3281 12-07-2016 11:25:00 21 C 65 % 14.17 C
3282 12-07-2016 11:30:00 21.1 C 67 % 14.74 C
3283 12-07-2016 11:35:00 21.1 C 67 % 14.74 C
3284 12-07-2016 11:40:00 21.1 C 69 % 15.19 C
3285 12-07-2016 11:45:00 21 C 71 % 15.54 C
3286 12-07-2016 11:50:00 21.1 C 67 % 14.74 C
3287 12-07-2016 11:55:00 21.3 C 64 % 14.22 C
3288 12-07-2016 12:00:00 21.6 C 63 % 14.26 C
3289 12-07-2016 12:05:00 21.8 C 64 % 14.69 C
3290 12-07-2016 12:10:00 21.9 C 66 % 15.26 C
3291 12-07-2016 12:15:00 22.1 C 62 % 14.48 C
3292 12-07-2016 12:20:00 22.2 C 63 % 14.82 C
3293 12-07-2016 12:25:00 22.2 C 67 % 15.78 C
3294 12-07-2016 12:30:00 22.1 C 61 % 14.23 C
3295 12-07-2016 12:35:00 21.9 C 63 % 14.54 C
3296 12-07-2016 12:40:00 21.8 C 70 % 16.09 C
3297 12-07-2016 12:45:00 21.7 C 73 % 16.65 C
3298 12-07-2016 12:50:00 21.7 C 69 % 15.77 C
3299 12-07-2016 12:55:00 21.6 C 65 % 14.74 C
3300 12-07-2016 13:00:00 21.7 C 62 % 14.1 C
Sensor: Nr:Datum:Temp:Feuchte:Taupunkt:
Aussen-T/F 3301 12-07-2016 13:05:00 21.9 C 68 % 15.73 C
3302 12-07-2016 13:10:00 22.1 C 67 % 15.69 C
3303 12-07-2016 13:15:00 22.2 C 68 % 16.01 C
3304 12-07-2016 13:20:00 22.2 C 69 % 16.24 C
3305 12-07-2016 13:25:00 22.1 C 69 % 16.15 C
3306 12-07-2016 13:30:00 22.1 C 65 % 15.21 C
3307 12-07-2016 13:35:00 22.1 C 62 % 14.48 C
3308 12-07-2016 13:40:00 22.2 C 60 % 14.07 C
3309 12-07-2016 13:45:00 22.3 C 58 % 13.64 C
3310 12-07-2016 13:50:00 22.6 C 58 % 13.92 C
3311 12-07-2016 13:55:00 22.7 C 57 % 13.75 C
3312 12-07-2016 14:00:00 22.8 C 57 % 13.84 C
3313 12-07-2016 14:05:00 22.8 C 56 % 13.57 C
3314 12-07-2016 14:10:00 22.8 C 62 % 15.14 C
3315 12-07-2016 14:15:00 22.7 C 55 % 13.2 C
3316 12-07-2016 14:20:00 22.8 C 60 % 14.63 C
3317 12-07-2016 14:25:00 22.8 C 56 % 13.57 C
3318 12-07-2016 14:30:00 22.9 C 56 % 13.66 C
3319 12-07-2016 14:35:00 23.2 C 56 % 13.94 C
3320 12-07-2016 14:40:00 23.4 C 52 % 12.99 C
3321 12-07-2016 14:45:00 23.6 C 56 % 14.31 C
3322 12-07-2016 14:50:00 23.8 C 52 % 13.36 C
3323 12-07-2016 14:55:00 23.9 C 52 % 13.45 C
3324 12-07-2016 15:00:00 24.2 C 52 % 13.73 C
3325 12-07-2016 15:05:00 24.3 C 54 % 14.4 C
Sensor: Nr:Datum:Temp:Feuchte:Taupunkt:
Aussen-T/F 3326 12-07-2016 15:10:00 24.4 C 49 % 13 C
3327 12-07-2016 15:15:00 24.6 C 48 % 12.87 C
3328 12-07-2016 15:20:00 24.8 C 47 % 12.73 C
3329 12-07-2016 15:25:00 24.9 C 49 % 13.46 C
3330 12-07-2016 15:30:00 25.1 C 49 % 13.64 C
3331 12-07-2016 15:35:00 25.3 C 48 % 13.5 C
3332 12-07-2016 15:40:00 25.4 C 48 % 13.6 C
3333 12-07-2016 15:45:00 25.3 C 48 % 13.5 C
3334 12-07-2016 15:50:00 25.1 C 48 % 13.32 C
3335 12-07-2016 15:55:00 25.1 C 51 % 14.25 C
3336 12-07-2016 16:00:00 25.6 C 51 % 14.71 C
3337 12-07-2016 16:05:00 26 C 45 % 13.15 C
3338 12-07-2016 16:10:00 25.6 C 48 % 13.78 C
3339 12-07-2016 16:15:00 25.3 C 46 % 12.85 C
3340 12-07-2016 16:20:00 24.8 C 47 % 12.73 C
3341 12-07-2016 16:25:00 24.4 C 52 % 13.91 C
3342 12-07-2016 16:30:00 24.3 C 52 % 13.82 C
3343 12-07-2016 16:35:00 24.2 C 56 % 14.87 C
3344 12-07-2016 16:40:00 24.1 C 53 % 13.93 C
3345 12-07-2016 16:45:00 24.1 C 51 % 13.34 C
3346 12-07-2016 16:50:00 23.8 C 55 % 14.22 C
3347 12-07-2016 16:55:00 23.7 C 58 % 14.95 C
3348 12-07-2016 17:00:00 23.9 C 58 % 15.14 C
3349 12-07-2016 17:05:00 24.2 C 55 % 14.59 C
3350 12-07-2016 17:10:00 24.3 C 54 % 14.4 C
Sensor: Nr:Datum:Temp:Feuchte:Taupunkt:
Aussen-T/F 3351 12-07-2016 17:15:00 24.4 C 53 % 14.2 C
3352 12-07-2016 17:20:00 24.1 C 53 % 13.93 C
3353 12-07-2016 17:25:00 23.9 C 54 % 14.03 C
3354 12-07-2016 17:30:00 24 C 55 % 14.41 C
3355 12-07-2016 17:35:00 24 C 55 % 14.41 C
3356 12-07-2016 17:40:00 24.1 C 55 % 14.5 C
3357 12-07-2016 17:45:00 24.2 C 52 % 13.73 C
3358 12-07-2016 17:50:00 24.6 C 53 % 14.39 C
3359 12-07-2016 17:55:00 24.7 C 53 % 14.48 C
3360 12-07-2016 18:00:00 24.6 C 53 % 14.39 C
3361 12-07-2016 18:05:00 24.2 C 54 % 14.31 C
3362 12-07-2016 18:10:00 24.3 C 55 % 14.68 C
3363 12-07-2016 18:15:00 24.2 C 53 % 14.02 C
3364 12-07-2016 18:20:00 23.8 C 54 % 13.94 C
3365 12-07-2016 18:25:00 23.3 C 56 % 14.03 C
3366 12-07-2016 18:30:00 22.9 C 57 % 13.93 C
3367 12-07-2016 18:35:00 22.8 C 59 % 14.37 C
3368 12-07-2016 18:40:00 22.7 C 64 % 15.54 C
3369 12-07-2016 18:45:00 23.1 C 65 % 16.16 C
3370 12-07-2016 18:50:00 23.1 C 63 % 15.67 C
3371 12-07-2016 18:55:00 23.2 C 63 % 15.77 C
3372 12-07-2016 19:00:00 23.1 C 58 % 14.39 C
3373 12-07-2016 19:05:00 22.6 C 59 % 14.18 C
3374 12-07-2016 19:10:00 22.3 C 59 % 13.9 C
3375 12-07-2016 19:15:00 22.3 C 59 % 13.9 C
Sensor: Nr:Datum:Temp:Feuchte:Taupunkt:
Aussen-T/F 3376 12-07-2016 19:20:00 22.2 C 58 % 13.55 C
3377 12-07-2016 19:25:00 22.1 C 60 % 13.98 C
3378 12-07-2016 19:30:00 22.1 C 61 % 14.23 C
3379 12-07-2016 19:35:00 21.9 C 61 % 14.04 C
3380 12-07-2016 19:40:00 21.8 C 62 % 14.2 C
3381 12-07-2016 19:45:00 21.7 C 63 % 14.35 C
3382 12-07-2016 19:50:00 21.6 C 63 % 14.26 C
3383 12-07-2016 19:55:00 21.3 C 64 % 14.22 C
3384 12-07-2016 20:00:00 21.1 C 64 % 14.03 C
3385 12-07-2016 20:05:00 20.8 C 66 % 14.22 C
3386 12-07-2016 20:10:00 20.5 C 69 % 14.62 C
3387 12-07-2016 20:15:00 20.3 C 73 % 15.3 C
3388 12-07-2016 20:20:00 19.9 C 75 % 15.34 C
3389 12-07-2016 20:25:00 19.6 C 77 % 15.46 C
3390 12-07-2016 20:30:00 19.1 C 77 % 14.97 C
3391 12-07-2016 20:35:00 18.6 C 78 % 14.69 C
3392 12-07-2016 20:40:00 18.2 C 80 % 14.69 C
3393 12-07-2016 20:45:00 17.9 C 80 % 14.4 C
3394 12-07-2016 20:50:00 17.7 C 81 % 14.4 C
3395 12-07-2016 20:55:00 17.6 C 83 % 14.68 C
3396 12-07-2016 21:00:00 17.4 C 81 % 14.11 C
3397 12-07-2016 21:05:00 17.4 C 83 % 14.48 C
3398 12-07-2016 21:10:00 17.3 C 84 % 14.57 C
3399 12-07-2016 21:15:00 17.2 C 84 % 14.47 C
3400 12-07-2016 21:20:00 17.3 C 81 % 14.01 C
Sensor: Nr:Datum:Temp:Feuchte:Taupunkt:
Aussen-T/F 3401 12-07-2016 21:25:00 17.4 C 79 % 13.72 C
3402 12-07-2016 21:30:00 17.7 C 78 % 13.82 C
3403 12-07-2016 21:35:00 17.8 C 78 % 13.91 C
3404 12-07-2016 21:40:00 17.9 C 80 % 14.4 C
3405 12-07-2016 21:45:00 17.8 C 83 % 14.88 C
3406 12-07-2016 21:50:00 17.7 C 86 % 15.33 C
3407 12-07-2016 21:55:00 17.5 C 86 % 15.13 C
3408 12-07-2016 22:00:00 17.3 C 87 % 15.12 C
3409 12-07-2016 22:05:00 17 C 87 % 14.82 C
3410 12-07-2016 22:10:00 16.8 C 88 % 14.8 C
3411 12-07-2016 22:15:00 16.6 C 89 % 14.78 C
3412 12-07-2016 22:20:00 16.5 C 90 % 14.85 C
3413 12-07-2016 22:25:00 16.4 C 90 % 14.76 C
3414 12-07-2016 22:30:00 16.3 C 91 % 14.83 C
3415 12-07-2016 22:35:00 16.3 C 91 % 14.83 C
3416 12-07-2016 22:40:00 16.3 C 92 % 15 C
3417 12-07-2016 22:45:00 16.2 C 92 % 14.9 C
3418 12-07-2016 22:50:00 16.2 C 92 % 14.9 C
3419 12-07-2016 22:55:00 16.1 C 92 % 14.8 C
3420 12-07-2016 23:00:00 16 C 92 % 14.7 C
3421 12-07-2016 23:05:00 15.9 C 92 % 14.6 C
3422 12-07-2016 23:10:00 15.8 C 92 % 14.5 C
3423 12-07-2016 23:15:00 15.7 C 92 % 14.4 C
3424 12-07-2016 23:20:00 15.7 C 92 % 14.4 C
3425 12-07-2016 23:25:00 15.6 C 92 % 14.31 C
Sensor: Nr:Datum:Temp:Feuchte:Taupunkt:
Aussen-T/F 3426 12-07-2016 23:30:00 15.5 C 93 % 14.37 C
3427 12-07-2016 23:35:00 15.4 C 93 % 14.27 C
3428 12-07-2016 23:40:00 15.3 C 93 % 14.18 C
3429 12-07-2016 23:45:00 15.3 C 93 % 14.18 C
3430 12-07-2016 23:50:00 15.3 C 93 % 14.18 C
3431 12-07-2016 23:55:00 15.3 C 94 % 14.34 C
3432 13-07-2016 00:00:00 15.3 C 94 % 14.34 C
3433 13-07-2016 00:05:00 15.2 C 94 % 14.24 C
3434 13-07-2016 00:10:00 15.2 C 94 % 14.24 C
3435 13-07-2016 00:15:00 15.1 C 94 % 14.14 C
3436 13-07-2016 00:20:00 15.1 C 93 % 13.98 C
3437 13-07-2016 00:25:00 15 C 93 % 13.88 C
3438 13-07-2016 00:30:00 14.9 C 94 % 13.94 C
3439 13-07-2016 00:35:00 14.9 C 94 % 13.94 C
3440 13-07-2016 00:40:00 14.8 C 94 % 13.84 C
3441 13-07-2016 00:45:00 14.7 C 93 % 13.58 C
3442 13-07-2016 00:50:00 14.6 C 93 % 13.48 C
3443 13-07-2016 00:55:00 14.5 C 93 % 13.38 C
3444 13-07-2016 01:00:00 14.4 C 93 % 13.28 C
3445 13-07-2016 01:05:00 14.3 C 93 % 13.18 C
3446 13-07-2016 01:10:00 14.2 C 93 % 13.08 C
3447 13-07-2016 01:15:00 14.2 C 94 % 13.25 C
3448 13-07-2016 01:20:00 14.1 C 94 % 13.15 C
3449 13-07-2016 01:25:00 14.1 C 94 % 13.15 C
3450 13-07-2016 01:30:00 14 C 94 % 13.05 C
Sensor: Nr:Datum:Temp:Feuchte:Taupunkt:
Aussen-T/F 3451 13-07-2016 01:35:00 13.9 C 94 % 12.95 C
3452 13-07-2016 01:40:00 13.9 C 94 % 12.95 C
3453 13-07-2016 01:45:00 13.9 C 94 % 12.95 C
3454 13-07-2016 01:50:00 13.8 C 94 % 12.85 C
3455 13-07-2016 01:55:00 13.8 C 94 % 12.85 C
3456 13-07-2016 02:00:00 13.8 C 94 % 12.85 C
3457 13-07-2016 02:05:00 13.8 C 94 % 12.85 C
3458 13-07-2016 02:10:00 13.7 C 94 % 12.75 C
3459 13-07-2016 02:15:00 13.7 C 94 % 12.75 C
3460 13-07-2016 02:20:00 13.7 C 94 % 12.75 C
3461 13-07-2016 02:25:00 13.6 C 94 % 12.65 C
3462 13-07-2016 02:30:00 13.6 C 95 % 12.81 C
3463 13-07-2016 02:35:00 13.6 C 95 % 12.81 C
3464 13-07-2016 02:40:00 13.5 C 95 % 12.72 C
3465 13-07-2016 02:45:00 13.4 C 94 % 12.45 C
3466 13-07-2016 02:50:00 13.4 C 94 % 12.45 C
3467 13-07-2016 02:55:00 13.3 C 94 % 12.36 C
3468 13-07-2016 03:00:00 13.3 C 94 % 12.36 C
3469 13-07-2016 03:05:00 13.3 C 95 % 12.52 C
3470 13-07-2016 03:10:00 13.3 C 95 % 12.52 C
3471 13-07-2016 03:15:00 13.3 C 95 % 12.52 C
3472 13-07-2016 03:20:00 13.3 C 95 % 12.52 C
3473 13-07-2016 03:25:00 13.2 C 95 % 12.42 C
3474 13-07-2016 03:30:00 13.2 C 95 % 12.42 C
3475 13-07-2016 03:35:00 13.2 C 95 % 12.42 C
Sensor: Nr:Datum:Temp:Feuchte:Taupunkt:
Aussen-T/F 3476 13-07-2016 03:40:00 13.1 C 95 % 12.32 C
3477 13-07-2016 03:45:00 13.1 C 95 % 12.32 C
3478 13-07-2016 03:50:00 13 C 95 % 12.22 C
3479 13-07-2016 03:55:00 12.9 C 95 % 12.12 C
3480 13-07-2016 04:00:00 12.9 C 95 % 12.12 C
3481 13-07-2016 04:05:00 12.8 C 95 % 12.02 C
3482 13-07-2016 04:10:00 12.8 C 95 % 12.02 C
3483 13-07-2016 04:15:00 12.7 C 95 % 11.92 C
3484 13-07-2016 04:20:00 12.7 C 95 % 11.92 C
3485 13-07-2016 04:25:00 12.6 C 95 % 11.82 C
3486 13-07-2016 04:30:00 12.5 C 95 % 11.72 C
3487 13-07-2016 04:35:00 12.4 C 95 % 11.62 C
3488 13-07-2016 04:40:00 12.4 C 95 % 11.62 C
3489 13-07-2016 04:45:00 12.4 C 95 % 11.62 C
3490 13-07-2016 04:50:00 12.4 C 95 % 11.62 C
3491 13-07-2016 04:55:00 12.4 C 95 % 11.62 C
3492 13-07-2016 05:00:00 12.3 C 95 % 11.52 C
3493 13-07-2016 05:05:00 12.3 C 95 % 11.52 C
3494 13-07-2016 05:10:00 12.3 C 95 % 11.52 C
3495 13-07-2016 05:15:00 12.4 C 95 % 11.62 C
3496 13-07-2016 05:20:00 12.4 C 95 % 11.62 C
3497 13-07-2016 05:25:00 12.3 C 95 % 11.52 C
3498 13-07-2016 05:30:00 12.3 C 95 % 11.52 C
3499 13-07-2016 05:35:00 12.2 C 95 % 11.42 C
3500 13-07-2016 05:40:00 12.3 C 96 % 11.68 C
Sensor: Nr:Datum:Temp:Feuchte:Taupunkt:
Aussen-T/F 3501 13-07-2016 05:45:00 12.3 C 96 % 11.68 C
3502 13-07-2016 05:50:00 12.4 C 96 % 11.78 C
3503 13-07-2016 05:55:00 12.5 C 96 % 11.88 C
3504 13-07-2016 06:00:00 12.6 C 96 % 11.98 C
3505 13-07-2016 06:05:00 12.7 C 96 % 12.08 C
3506 13-07-2016 06:10:00 12.8 C 96 % 12.18 C
3507 13-07-2016 06:15:00 12.8 C 96 % 12.18 C
3508 13-07-2016 06:20:00 12.9 C 96 % 12.28 C
3509 13-07-2016 06:25:00 12.9 C 96 % 12.28 C
3510 13-07-2016 06:30:00 12.9 C 96 % 12.28 C
3511 13-07-2016 06:35:00 12.9 C 96 % 12.28 C
3512 13-07-2016 06:40:00 12.9 C 96 % 12.28 C
3513 13-07-2016 06:45:00 13 C 96 % 12.38 C
3514 13-07-2016 06:50:00 12.9 C 96 % 12.28 C
3515 13-07-2016 06:55:00 12.9 C 96 % 12.28 C
3516 13-07-2016 07:00:00 12.9 C 96 % 12.28 C
3517 13-07-2016 07:05:00 12.9 C 96 % 12.28 C
3518 13-07-2016 07:10:00 12.9 C 96 % 12.28 C
3519 13-07-2016 07:15:00 12.9 C 96 % 12.28 C
3520 13-07-2016 07:20:00 13.1 C 96 % 12.48 C
3521 13-07-2016 07:25:00 13.1 C 96 % 12.48 C
3522 13-07-2016 07:30:00 13.1 C 96 % 12.48 C
3523 13-07-2016 07:35:00 13.2 C 96 % 12.58 C
3524 13-07-2016 07:40:00 13.3 C 96 % 12.68 C
3525 13-07-2016 07:45:00 13.3 C 96 % 12.68 C
Sensor: Nr:Datum:Temp:Feuchte:Taupunkt:
Aussen-T/F 3526 13-07-2016 07:50:00 13.3 C 96 % 12.68 C
3527 13-07-2016 07:55:00 13.3 C 96 % 12.68 C
3528 13-07-2016 08:00:00 13.4 C 96 % 12.78 C
3529 13-07-2016 08:05:00 13.4 C 96 % 12.78 C
3530 13-07-2016 08:10:00 13.4 C 96 % 12.78 C
3531 13-07-2016 08:15:00 13.5 C 96 % 12.87 C
3532 13-07-2016 08:20:00 13.6 C 96 % 12.97 C
3533 13-07-2016 08:25:00 13.7 C 96 % 13.07 C
3534 13-07-2016 08:30:00 13.9 C 96 % 13.27 C
3535 13-07-2016 08:35:00 14 C 96 % 13.37 C
3536 13-07-2016 08:40:00 13.9 C 96 % 13.27 C
3537 13-07-2016 08:45:00 13.9 C 96 % 13.27 C
3538 13-07-2016 08:50:00 14 C 96 % 13.37 C
3539 13-07-2016 08:55:00 14.1 C 96 % 13.47 C
3540 13-07-2016 09:00:00 14.2 C 96 % 13.57 C
3541 13-07-2016 09:05:00 14.4 C 96 % 13.77 C
3542 13-07-2016 09:10:00 14.6 C 96 % 13.97 C
3543 13-07-2016 09:15:00 14.8 C 96 % 14.17 C
3544 13-07-2016 09:20:00 15 C 95 % 14.21 C
3545 13-07-2016 09:25:00 15.2 C 95 % 14.4 C
3546 13-07-2016 09:30:00 15.4 C 95 % 14.6 C
3547 13-07-2016 09:35:00 15.6 C 94 % 14.64 C
3548 13-07-2016 09:40:00 15.7 C 93 % 14.57 C
3549 13-07-2016 09:45:00 15.8 C 90 % 14.16 C
3550 13-07-2016 09:50:00 15.8 C 90 % 14.16 C
Sensor: Nr:Datum:Temp:Feuchte:Taupunkt:
Aussen-T/F 3551 13-07-2016 09:55:00 16 C 89 % 14.19 C
3552 13-07-2016 10:00:00 16.2 C 90 % 14.56 C
3553 13-07-2016 10:05:00 16.3 C 89 % 14.48 C
3554 13-07-2016 10:10:00 16.2 C 88 % 14.21 C
3555 13-07-2016 10:15:00 16.2 C 87 % 14.03 C
3556 13-07-2016 10:20:00 16.1 C 85 % 13.58 C
3557 13-07-2016 10:25:00 16 C 85 % 13.48 C
3558 13-07-2016 10:30:00 15.1 C 85 % 12.6 C
3559 13-07-2016 10:35:00 14.2 C 87 % 12.07 C
3560 13-07-2016 10:40:00 13.7 C 89 % 11.92 C
3561 13-07-2016 10:45:00 13.3 C 91 % 11.86 C
3562 13-07-2016 10:50:00 13.2 C 92 % 11.93 C
3563 13-07-2016 10:55:00 13 C 92 % 11.73 C
3564 13-07-2016 11:00:00 12.9 C 93 % 11.8 C
3565 13-07-2016 11:05:00 12.9 C 93 % 11.8 C
3566 13-07-2016 11:10:00 12.9 C 94 % 11.96 C
3567 13-07-2016 11:15:00 12.9 C 94 % 11.96 C
3568 13-07-2016 11:20:00 12.9 C 94 % 11.96 C
3569 13-07-2016 11:25:00 12.9 C 94 % 11.96 C
3570 13-07-2016 11:30:00 13 C 94 % 12.06 C
3571 13-07-2016 11:35:00 13.1 C 95 % 12.32 C
3572 13-07-2016 11:40:00 13.3 C 95 % 12.52 C
3573 13-07-2016 11:45:00 13.5 C 95 % 12.72 C
3574 13-07-2016 11:50:00 13.7 C 95 % 12.91 C
3575 13-07-2016 11:55:00 13.9 C 96 % 13.27 C
Sensor: Nr:Datum:Temp:Feuchte:Taupunkt:
Aussen-T/F 3576 13-07-2016 12:00:00 14.3 C 96 % 13.67 C
3577 13-07-2016 12:05:00 14.4 C 96 % 13.77 C
3578 13-07-2016 12:10:00 14.5 C 95 % 13.71 C
3579 13-07-2016 12:15:00 14.8 C 96 % 14.17 C
3580 13-07-2016 12:20:00 14.9 C 96 % 14.27 C
3581 13-07-2016 12:25:00 14.7 C 94 % 13.74 C
3582 13-07-2016 12:30:00 14.8 C 95 % 14.01 C
3583 13-07-2016 12:35:00 14.8 C 94 % 13.84 C
3584 13-07-2016 12:40:00 14.9 C 94 % 13.94 C
3585 13-07-2016 12:45:00 15 C 93 % 13.88 C
3586 13-07-2016 12:50:00 15.2 C 93 % 14.08 C
3587 13-07-2016 12:55:00 15.4 C 93 % 14.27 C
3588 13-07-2016 13:00:00 15.4 C 92 % 14.11 C
3589 13-07-2016 13:05:00 15.4 C 92 % 14.11 C
3590 13-07-2016 13:10:00 15.6 C 93 % 14.47 C
3591 13-07-2016 13:15:00 15.7 C 93 % 14.57 C
3592 13-07-2016 13:20:00 15.8 C 93 % 14.67 C
3593 13-07-2016 13:25:00 15.8 C 93 % 14.67 C
3594 13-07-2016 13:30:00 15.9 C 93 % 14.77 C
3595 13-07-2016 13:35:00 15.9 C 92 % 14.6 C
3596 13-07-2016 13:40:00 16 C 91 % 14.53 C
3597 13-07-2016 13:45:00 15.9 C 89 % 14.09 C
3598 13-07-2016 13:50:00 16.1 C 90 % 14.46 C
3599 13-07-2016 13:55:00 16.1 C 88 % 14.11 C
3600 13-07-2016 14:00:00 16.2 C 89 % 14.39 C
Sensor: Nr:Datum:Temp:Feuchte:Taupunkt:
Aussen-T/F 3601 13-07-2016 14:05:00 16.2 C 86 % 13.86 C
3602 13-07-2016 14:10:00 16.5 C 90 % 14.85 C
3603 13-07-2016 14:15:00 16.7 C 90 % 15.05 C
3604 13-07-2016 14:20:00 16.8 C 87 % 14.62 C
3605 13-07-2016 14:25:00 16.9 C 86 % 14.54 C
3606 13-07-2016 14:30:00 17.1 C 81 % 13.82 C
3607 13-07-2016 14:35:00 17.3 C 80 % 13.82 C
3608 13-07-2016 14:40:00 17.5 C 85 % 14.95 C
3609 13-07-2016 14:45:00 17.5 C 81 % 14.2 C
3610 13-07-2016 14:50:00 17.6 C 81 % 14.3 C
3611 13-07-2016 14:55:00 17.6 C 80 % 14.11 C
3612 13-07-2016 15:00:00 17.6 C 79 % 13.92 C
3613 13-07-2016 15:05:00 17.9 C 77 % 13.81 C
3614 13-07-2016 15:10:00 18.1 C 76 % 13.81 C
3615 13-07-2016 15:15:00 18.2 C 81 % 14.89 C
3616 13-07-2016 15:20:00 18.1 C 80 % 14.6 C
3617 13-07-2016 15:25:00 17.9 C 76 % 13.61 C
3618 13-07-2016 15:30:00 18.1 C 75 % 13.6 C
3619 13-07-2016 15:35:00 18.4 C 73 % 13.48 C
3620 13-07-2016 15:40:00 18.9 C 76 % 14.58 C
3621 13-07-2016 15:45:00 19.4 C 72 % 14.22 C
3622 13-07-2016 15:50:00 19.8 C 72 % 14.61 C
3623 13-07-2016 15:55:00 19.9 C 71 % 14.49 C
3624 13-07-2016 16:00:00 19.8 C 66 % 13.27 C
3625 13-07-2016 16:05:00 19.8 C 66 % 13.27 C
Sensor: Nr:Datum:Temp:Feuchte:Taupunkt:
Aussen-T/F 3626 13-07-2016 16:10:00 19.7 C 72 % 14.51 C
3627 13-07-2016 16:15:00 19.9 C 73 % 14.92 C
3628 13-07-2016 16:20:00 20.3 C 70 % 14.65 C
3629 13-07-2016 16:25:00 20.7 C 68 % 14.58 C
3630 13-07-2016 16:30:00 20.8 C 73 % 15.78 C
3631 13-07-2016 16:35:00 20.6 C 78 % 16.63 C
3632 13-07-2016 16:40:00 20.3 C 77 % 16.14 C
3633 13-07-2016 16:45:00 19.8 C 79 % 16.05 C
3634 13-07-2016 16:50:00 18.4 C 72 % 13.26 C
3635 13-07-2016 16:55:00 17.3 C 79 % 13.63 C
3636 13-07-2016 17:00:00 16.4 C 80 % 12.94 C
3637 13-07-2016 17:05:00 15.8 C 83 % 12.92 C
3638 13-07-2016 17:10:00 15.4 C 84 % 12.71 C
3639 13-07-2016 17:15:00 15.2 C 86 % 12.88 C
3640 13-07-2016 17:20:00 15.1 C 87 % 12.95 C
3641 13-07-2016 17:25:00 15.1 C 89 % 13.3 C
3642 13-07-2016 17:30:00 15.1 C 90 % 13.47 C
3643 13-07-2016 17:35:00 15.1 C 90 % 13.47 C
3644 13-07-2016 17:40:00 15 C 90 % 13.37 C
3645 13-07-2016 17:45:00 15 C 90 % 13.37 C
3646 13-07-2016 17:50:00 15.1 C 90 % 13.47 C
3647 13-07-2016 17:55:00 15.2 C 91 % 13.74 C
3648 13-07-2016 18:00:00 15.3 C 90 % 13.67 C
3649 13-07-2016 18:05:00 15.4 C 90 % 13.77 C
3650 13-07-2016 18:10:00 15.5 C 90 % 13.87 C
Sensor: Nr:Datum:Temp:Feuchte:Taupunkt:
Aussen-T/F 3651 13-07-2016 18:15:00 15.8 C 91 % 14.33 C
3652 13-07-2016 18:20:00 16 C 91 % 14.53 C
3653 13-07-2016 18:25:00 16.2 C 91 % 14.73 C
3654 13-07-2016 18:30:00 16.2 C 90 % 14.56 C
3655 13-07-2016 18:35:00 16.1 C 89 % 14.29 C
3656 13-07-2016 18:40:00 15.9 C 88 % 13.92 C
3657 13-07-2016 18:45:00 15.8 C 88 % 13.82 C
3658 13-07-2016 18:50:00 15.9 C 90 % 14.26 C
3659 13-07-2016 18:55:00 16.5 C 92 % 15.2 C
3660 13-07-2016 19:00:00 16.6 C 89 % 14.78 C
3661 13-07-2016 19:05:00 16.7 C 89 % 14.88 C
3662 13-07-2016 19:10:00 16.8 C 90 % 15.15 C
3663 13-07-2016 19:15:00 16.8 C 89 % 14.98 C
3664 13-07-2016 19:20:00 16.7 C 88 % 14.7 C
3665 13-07-2016 19:25:00 16.5 C 89 % 14.68 C
3666 13-07-2016 19:30:00 16.4 C 89 % 14.58 C
3667 13-07-2016 19:35:00 16.3 C 90 % 14.66 C
3668 13-07-2016 19:40:00 16.1 C 90 % 14.46 C
3669 13-07-2016 19:45:00 16 C 90 % 14.36 C
3670 13-07-2016 19:50:00 15.9 C 91 % 14.43 C
3671 13-07-2016 19:55:00 15.8 C 91 % 14.33 C
3672 13-07-2016 20:00:00 15.7 C 91 % 14.24 C
3673 13-07-2016 20:05:00 15.7 C 91 % 14.24 C
3674 13-07-2016 20:10:00 15.6 C 91 % 14.14 C
3675 13-07-2016 20:15:00 15.6 C 92 % 14.31 C
Sensor: Nr:Datum:Temp:Feuchte:Taupunkt:
Aussen-T/F 3676 13-07-2016 20:20:00 15.4 C 92 % 14.11 C
3677 13-07-2016 20:25:00 15.3 C 92 % 14.01 C
3678 13-07-2016 20:30:00 15.2 C 92 % 13.91 C
3679 13-07-2016 20:35:00 15.1 C 92 % 13.81 C
3680 13-07-2016 20:40:00 15 C 93 % 13.88 C
3681 13-07-2016 20:45:00 14.9 C 93 % 13.78 C
3682 13-07-2016 20:50:00 14.7 C 92 % 13.41 C
3683 13-07-2016 20:55:00 14.5 C 92 % 13.22 C
3684 13-07-2016 21:00:00 14.4 C 92 % 13.12 C
3685 13-07-2016 21:05:00 14.3 C 93 % 13.18 C
3686 13-07-2016 21:10:00 14.2 C 93 % 13.08 C
3687 13-07-2016 21:15:00 14.2 C 93 % 13.08 C
3688 13-07-2016 21:20:00 14.2 C 94 % 13.25 C
3689 13-07-2016 21:25:00 14.1 C 94 % 13.15 C
3690 13-07-2016 21:30:00 14 C 94 % 13.05 C
3691 13-07-2016 21:35:00 13.9 C 94 % 12.95 C
3692 13-07-2016 21:40:00 13.8 C 94 % 12.85 C
3693 13-07-2016 21:45:00 13.8 C 94 % 12.85 C
3694 13-07-2016 21:50:00 13.7 C 94 % 12.75 C
3695 13-07-2016 21:55:00 13.7 C 94 % 12.75 C
3696 13-07-2016 22:00:00 13.6 C 94 % 12.65 C
3697 13-07-2016 22:05:00 13.6 C 94 % 12.65 C
3698 13-07-2016 22:10:00 13.4 C 94 % 12.45 C
3699 13-07-2016 22:15:00 13.4 C 94 % 12.45 C
3700 13-07-2016 22:20:00 13.3 C 94 % 12.36 C
Sensor: Nr:Datum:Temp:Feuchte:Taupunkt:
Aussen-T/F 3701 13-07-2016 22:25:00 13.4 C 95 % 12.62 C
3702 13-07-2016 22:30:00 13.4 C 95 % 12.62 C
3703 13-07-2016 22:35:00 13.3 C 95 % 12.52 C
3704 13-07-2016 22:40:00 13.3 C 95 % 12.52 C
3705 13-07-2016 22:45:00 13.3 C 95 % 12.52 C
3706 13-07-2016 22:50:00 13.3 C 95 % 12.52 C
3707 13-07-2016 22:55:00 13.3 C 95 % 12.52 C
3708 13-07-2016 23:00:00 13.3 C 95 % 12.52 C
3709 13-07-2016 23:05:00 13.3 C 95 % 12.52 C
3710 13-07-2016 23:10:00 13.3 C 95 % 12.52 C
3711 13-07-2016 23:15:00 13.3 C 95 % 12.52 C
3712 13-07-2016 23:20:00 13.3 C 95 % 12.52 C
3713 13-07-2016 23:25:00 13.3 C 95 % 12.52 C
3714 13-07-2016 23:30:00 13.3 C 95 % 12.52 C
3715 13-07-2016 23:35:00 13.3 C 95 % 12.52 C
3716 13-07-2016 23:40:00 13.3 C 96 % 12.68 C
3717 13-07-2016 23:45:00 13.3 C 96 % 12.68 C
3718 13-07-2016 23:50:00 13.4 C 96 % 12.78 C
3719 13-07-2016 23:55:00 13.4 C 96 % 12.78 C
3720 14-07-2016 00:00:00 13.4 C 96 % 12.78 C
3721 14-07-2016 00:05:00 13.4 C 96 % 12.78 C
3722 14-07-2016 00:10:00 13.4 C 96 % 12.78 C
3723 14-07-2016 00:15:00 13.4 C 96 % 12.78 C
3724 14-07-2016 00:20:00 13.3 C 96 % 12.68 C
3725 14-07-2016 00:25:00 13.4 C 96 % 12.78 C
Sensor: Nr:Datum:Temp:Feuchte:Taupunkt:
Aussen-T/F 3726 14-07-2016 00:30:00 13.3 C 96 % 12.68 C
3727 14-07-2016 00:35:00 13.4 C 96 % 12.78 C
3728 14-07-2016 00:40:00 13.3 C 96 % 12.68 C
3729 14-07-2016 00:45:00 13.3 C 96 % 12.68 C
3730 14-07-2016 00:50:00 13.4 C 96 % 12.78 C
3731 14-07-2016 00:55:00 13.3 C 96 % 12.68 C
3732 14-07-2016 01:00:00 13.3 C 96 % 12.68 C
3733 14-07-2016 01:05:00 13.2 C 95 % 12.42 C
3734 14-07-2016 01:10:00 13.1 C 95 % 12.32 C
3735 14-07-2016 01:15:00 13.1 C 95 % 12.32 C
3736 14-07-2016 01:20:00 13 C 95 % 12.22 C
3737 14-07-2016 01:25:00 12.9 C 95 % 12.12 C
3738 14-07-2016 01:30:00 12.8 C 95 % 12.02 C
3739 14-07-2016 01:35:00 12.7 C 95 % 11.92 C
3740 14-07-2016 01:40:00 12.6 C 95 % 11.82 C
3741 14-07-2016 01:45:00 12.5 C 95 % 11.72 C
3742 14-07-2016 01:50:00 12.4 C 95 % 11.62 C
3743 14-07-2016 01:55:00 12.4 C 95 % 11.62 C
3744 14-07-2016 02:00:00 12.3 C 95 % 11.52 C
3745 14-07-2016 02:05:00 12.3 C 95 % 11.52 C
3746 14-07-2016 02:10:00 12.3 C 95 % 11.52 C
3747 14-07-2016 02:15:00 12.3 C 95 % 11.52 C
3748 14-07-2016 02:20:00 12.2 C 95 % 11.42 C
3749 14-07-2016 02:25:00 12.2 C 95 % 11.42 C
3750 14-07-2016 02:30:00 12.2 C 95 % 11.42 C
Sensor: Nr:Datum:Temp:Feuchte:Taupunkt:
Aussen-T/F 3751 14-07-2016 02:35:00 12.2 C 95 % 11.42 C
3752 14-07-2016 02:40:00 12.1 C 95 % 11.32 C
3753 14-07-2016 02:45:00 11.9 C 95 % 11.13 C
3754 14-07-2016 02:50:00 11.9 C 95 % 11.13 C
3755 14-07-2016 02:55:00 11.8 C 95 % 11.03 C
3756 14-07-2016 03:00:00 11.7 C 95 % 10.93 C
3757 14-07-2016 03:05:00 11.7 C 95 % 10.93 C
3758 14-07-2016 03:10:00 11.6 C 95 % 10.83 C
3759 14-07-2016 03:15:00 11.6 C 95 % 10.83 C
3760 14-07-2016 03:20:00 11.6 C 95 % 10.83 C
3761 14-07-2016 03:25:00 11.5 C 95 % 10.73 C
3762 14-07-2016 03:30:00 11.5 C 95 % 10.73 C
3763 14-07-2016 03:35:00 11.5 C 95 % 10.73 C
3764 14-07-2016 03:40:00 11.4 C 95 % 10.63 C
3765 14-07-2016 03:45:00 11.4 C 95 % 10.63 C
3766 14-07-2016 03:50:00 11.4 C 95 % 10.63 C
3767 14-07-2016 03:55:00 11.4 C 95 % 10.63 C
3768 14-07-2016 04:00:00 11.4 C 96 % 10.79 C
3769 14-07-2016 04:05:00 11.4 C 96 % 10.79 C
3770 14-07-2016 04:10:00 11.4 C 96 % 10.79 C
3771 14-07-2016 04:15:00 11.4 C 96 % 10.79 C
3772 14-07-2016 04:20:00 11.4 C 96 % 10.79 C
3773 14-07-2016 04:25:00 11.4 C 96 % 10.79 C
3774 14-07-2016 04:30:00 11.4 C 96 % 10.79 C
3775 14-07-2016 04:35:00 11.3 C 96 % 10.69 C
Sensor: Nr:Datum:Temp:Feuchte:Taupunkt:
Aussen-T/F 3776 14-07-2016 04:40:00 11.3 C 96 % 10.69 C
3777 14-07-2016 04:45:00 11.2 C 96 % 10.59 C
3778 14-07-2016 04:50:00 11.2 C 96 % 10.59 C
3779 14-07-2016 04:55:00 11.2 C 95 % 10.43 C
3780 14-07-2016 05:00:00 11.1 C 96 % 10.49 C
3781 14-07-2016 05:05:00 11.1 C 96 % 10.49 C
3782 14-07-2016 05:10:00 11.1 C 96 % 10.49 C
3783 14-07-2016 05:15:00 11.1 C 96 % 10.49 C
3784 14-07-2016 05:20:00 11.1 C 96 % 10.49 C
3785 14-07-2016 05:25:00 11 C 96 % 10.39 C
3786 14-07-2016 05:30:00 10.9 C 96 % 10.29 C
3787 14-07-2016 05:35:00 11 C 96 % 10.39 C
3788 14-07-2016 05:40:00 11 C 96 % 10.39 C
3789 14-07-2016 05:45:00 11.1 C 96 % 10.49 C
3790 14-07-2016 05:50:00 11.1 C 96 % 10.49 C
3791 14-07-2016 05:55:00 11.1 C 96 % 10.49 C
3792 14-07-2016 06:00:00 11.2 C 96 % 10.59 C
3793 14-07-2016 06:05:00 11.2 C 96 % 10.59 C
3794 14-07-2016 06:10:00 11.2 C 96 % 10.59 C
3795 14-07-2016 06:15:00 11.1 C 96 % 10.49 C
3796 14-07-2016 06:20:00 11.1 C 96 % 10.49 C
3797 14-07-2016 06:25:00 11 C 96 % 10.39 C
3798 14-07-2016 06:30:00 10.9 C 96 % 10.29 C
3799 14-07-2016 06:35:00 10.9 C 96 % 10.29 C
3800 14-07-2016 06:40:00 10.9 C 96 % 10.29 C
Sensor: Nr:Datum:Temp:Feuchte:Taupunkt:
Aussen-T/F 3801 14-07-2016 06:45:00 10.9 C 96 % 10.29 C
3802 14-07-2016 06:50:00 10.9 C 96 % 10.29 C
3803 14-07-2016 06:55:00 11 C 96 % 10.39 C
3804 14-07-2016 07:00:00 11.1 C 96 % 10.49 C
3805 14-07-2016 07:05:00 11.2 C 96 % 10.59 C
3806 14-07-2016 07:10:00 11.2 C 96 % 10.59 C
3807 14-07-2016 07:15:00 11.3 C 96 % 10.69 C
3808 14-07-2016 07:20:00 11.3 C 96 % 10.69 C
3809 14-07-2016 07:25:00 11.4 C 96 % 10.79 C
3810 14-07-2016 07:30:00 11.4 C 96 % 10.79 C
3811 14-07-2016 07:35:00 11.5 C 96 % 10.88 C
3812 14-07-2016 07:40:00 11.6 C 96 % 10.98 C
3813 14-07-2016 07:45:00 11.6 C 96 % 10.98 C
3814 14-07-2016 07:50:00 11.7 C 96 % 11.08 C
3815 14-07-2016 07:55:00 11.8 C 96 % 11.18 C
3816 14-07-2016 08:00:00 12.1 C 97 % 11.64 C
3817 14-07-2016 08:05:00 12.2 C 97 % 11.74 C
3818 14-07-2016 08:10:00 12.3 C 96 % 11.68 C
3819 14-07-2016 08:15:00 12.4 C 97 % 11.94 C
3820 14-07-2016 08:20:00 12.4 C 96 % 11.78 C
3821 14-07-2016 08:25:00 12.6 C 96 % 11.98 C
3822 14-07-2016 08:30:00 12.6 C 95 % 11.82 C
3823 14-07-2016 08:35:00 12.6 C 94 % 11.66 C
3824 14-07-2016 08:40:00 12.6 C 94 % 11.66 C
3825 14-07-2016 08:45:00 12.7 C 93 % 11.6 C
Sensor: Nr:Datum:Temp:Feuchte:Taupunkt:
Aussen-T/F 3826 14-07-2016 08:50:00 12.9 C 93 % 11.8 C
3827 14-07-2016 08:55:00 13.2 C 92 % 11.93 C
3828 14-07-2016 09:00:00 13.4 C 91 % 11.96 C
3829 14-07-2016 09:05:00 13.7 C 91 % 12.26 C
3830 14-07-2016 09:10:00 13.8 C 89 % 12.02 C
3831 14-07-2016 09:15:00 13.9 C 87 % 11.77 C
3832 14-07-2016 09:20:00 14 C 86 % 11.7 C
3833 14-07-2016 09:25:00 14.1 C 86 % 11.8 C
3834 14-07-2016 09:30:00 14.1 C 86 % 11.8 C
3835 14-07-2016 09:35:00 14.2 C 86 % 11.89 C
3836 14-07-2016 09:40:00 14.2 C 86 % 11.89 C
3837 14-07-2016 09:45:00 14.3 C 82 % 11.27 C
3838 14-07-2016 09:50:00 14.4 C 85 % 11.91 C
3839 14-07-2016 09:55:00 14.5 C 83 % 11.65 C
3840 14-07-2016 10:00:00 14.6 C 83 % 11.75 C
3841 14-07-2016 10:05:00 14.7 C 82 % 11.66 C
3842 14-07-2016 10:10:00 14.8 C 84 % 12.12 C
3843 14-07-2016 10:15:00 15.1 C 82 % 12.05 C
3844 14-07-2016 10:20:00 15.2 C 81 % 11.96 C
3845 14-07-2016 10:25:00 15.2 C 77 % 11.2 C
3846 14-07-2016 10:30:00 15.3 C 80 % 11.87 C
3847 14-07-2016 10:35:00 15.4 C 78 % 11.59 C
3848 14-07-2016 10:40:00 15.5 C 79 % 11.88 C
3849 14-07-2016 10:45:00 15.5 C 79 % 11.88 C
3850 14-07-2016 10:50:00 15.5 C 78 % 11.68 C
Sensor: Nr:Datum:Temp:Feuchte:Taupunkt:
Aussen-T/F 3851 14-07-2016 10:55:00 15.4 C 79 % 11.78 C
3852 14-07-2016 11:00:00 15.5 C 77 % 11.49 C
3853 14-07-2016 11:05:00 15.7 C 75 % 11.28 C
3854 14-07-2016 11:10:00 15.8 C 74 % 11.18 C
3855 14-07-2016 11:15:00 15.9 C 74 % 11.28 C
3856 14-07-2016 11:20:00 16 C 75 % 11.57 C
3857 14-07-2016 11:25:00 16.1 C 76 % 11.87 C
3858 14-07-2016 11:30:00 16.1 C 72 % 11.06 C
3859 14-07-2016 11:35:00 16.1 C 73 % 11.26 C
3860 14-07-2016 11:40:00 16.1 C 69 % 10.42 C
3861 14-07-2016 11:45:00 16 C 70 % 10.54 C
3862 14-07-2016 11:50:00 16.1 C 68 % 10.2 C
3863 14-07-2016 11:55:00 16.1 C 69 % 10.42 C
3864 14-07-2016 12:00:00 16.1 C 68 % 10.2 C
3865 14-07-2016 12:05:00 16.2 C 68 % 10.29 C
3866 14-07-2016 12:10:00 16.3 C 68 % 10.39 C
3867 14-07-2016 12:15:00 16.4 C 67 % 10.26 C
3868 14-07-2016 12:20:00 16.4 C 72 % 11.34 C
3869 14-07-2016 12:25:00 16.3 C 69 % 10.61 C
3870 14-07-2016 12:30:00 16.4 C 71 % 11.13 C
3871 14-07-2016 12:35:00 16.7 C 68 % 10.77 C
3872 14-07-2016 12:40:00 16.9 C 67 % 10.74 C
3873 14-07-2016 12:45:00 16.9 C 66 % 10.51 C
3874 14-07-2016 12:50:00 16.9 C 65 % 10.28 C
3875 14-07-2016 12:55:00 17 C 66 % 10.61 C